<?xml version="1.0" encoding="UTF-8" standalone="no" ?>
<gpx xmlns="http://www.topografix.com/GPX/1/1" xmlns:xsi="http://www.w3.org/2001/XMLSchema-instance" xsi:schemaLocation="http://www.topografix.com/GPX/1/1 http://www.topografix.com/GPX/1/1/gpx.xsd" version="1.1" creator="VisuGPX - https://www.visugpx.com">
  <metadata>
    <name>Volvic - Argnat - Jumes 37kms</name>
    <desc><![CDATA[Superbe sortie autour de Volvic]]></desc>
  </metadata>
  <trk>
    <name><![CDATA[Tekila Volvic - Argnat - Jumes 37kms]]></name>
    <trkseg>
      <trkpt lat="45.87113" lon="3.02791">
        <ele>586</ele>
        <time>2011-05-15T06:34:07Z</time>
      </trkpt>
      <trkpt lat="45.87113" lon="3.02791">
        <ele>586</ele>
        <time>2011-05-15T06:34:09Z</time>
      </trkpt>
      <trkpt lat="45.87112" lon="3.02791">
        <ele>586</ele>
        <time>2011-05-15T06:34:10Z</time>
      </trkpt>
      <trkpt lat="45.8711" lon="3.02791">
        <ele>586</ele>
        <time>2011-05-15T06:34:41Z</time>
      </trkpt>
      <trkpt lat="45.87111" lon="3.02786">
        <ele>586</ele>
        <time>2011-05-15T06:34:57Z</time>
      </trkpt>
      <trkpt lat="45.87114" lon="3.02796">
        <ele>586</ele>
        <time>2011-05-15T06:35:52Z</time>
      </trkpt>
      <trkpt lat="45.87116" lon="3.02794">
        <ele>586</ele>
        <time>2011-05-15T06:36:10Z</time>
      </trkpt>
      <trkpt lat="45.87116" lon="3.02787">
        <ele>586</ele>
        <time>2011-05-15T06:36:14Z</time>
      </trkpt>
      <trkpt lat="45.87118" lon="3.02767">
        <ele>588</ele>
        <time>2011-05-15T06:36:23Z</time>
      </trkpt>
      <trkpt lat="45.8712" lon="3.02727">
        <ele>589</ele>
        <time>2011-05-15T06:36:33Z</time>
      </trkpt>
      <trkpt lat="45.87132" lon="3.02695">
        <ele>592</ele>
        <time>2011-05-15T06:36:42Z</time>
      </trkpt>
      <trkpt lat="45.8715" lon="3.02664">
        <ele>593</ele>
        <time>2011-05-15T06:36:53Z</time>
      </trkpt>
      <trkpt lat="45.87162" lon="3.02652">
        <ele>595</ele>
        <time>2011-05-15T06:37:01Z</time>
      </trkpt>
      <trkpt lat="45.87184" lon="3.02631">
        <ele>596</ele>
        <time>2011-05-15T06:37:09Z</time>
      </trkpt>
      <trkpt lat="45.87214" lon="3.02613">
        <ele>596</ele>
        <time>2011-05-15T06:37:19Z</time>
      </trkpt>
      <trkpt lat="45.8723" lon="3.02594">
        <ele>598</ele>
        <time>2011-05-15T06:37:27Z</time>
      </trkpt>
      <trkpt lat="45.87232" lon="3.02557">
        <ele>600</ele>
        <time>2011-05-15T06:37:35Z</time>
      </trkpt>
      <trkpt lat="45.87229" lon="3.02541">
        <ele>600</ele>
        <time>2011-05-15T06:37:39Z</time>
      </trkpt>
      <trkpt lat="45.87241" lon="3.02524">
        <ele>602</ele>
        <time>2011-05-15T06:37:46Z</time>
      </trkpt>
      <trkpt lat="45.87254" lon="3.02519">
        <ele>602</ele>
        <time>2011-05-15T06:37:52Z</time>
      </trkpt>
      <trkpt lat="45.87265" lon="3.02523">
        <ele>603</ele>
        <time>2011-05-15T06:37:56Z</time>
      </trkpt>
      <trkpt lat="45.87285" lon="3.02537">
        <ele>603</ele>
        <time>2011-05-15T06:38:02Z</time>
      </trkpt>
      <trkpt lat="45.87302" lon="3.02527">
        <ele>605</ele>
        <time>2011-05-15T06:38:10Z</time>
      </trkpt>
      <trkpt lat="45.87304" lon="3.02527">
        <ele>606</ele>
        <time>2011-05-15T06:38:11Z</time>
      </trkpt>
      <trkpt lat="45.87336" lon="3.02539">
        <ele>608</ele>
        <time>2011-05-15T06:38:23Z</time>
      </trkpt>
      <trkpt lat="45.87346" lon="3.02539">
        <ele>609</ele>
        <time>2011-05-15T06:38:27Z</time>
      </trkpt>
      <trkpt lat="45.87359" lon="3.02508">
        <ele>611</ele>
        <time>2011-05-15T06:38:36Z</time>
      </trkpt>
      <trkpt lat="45.87353" lon="3.02488">
        <ele>611</ele>
        <time>2011-05-15T06:38:42Z</time>
      </trkpt>
      <trkpt lat="45.87355" lon="3.02453">
        <ele>612</ele>
        <time>2011-05-15T06:38:51Z</time>
      </trkpt>
      <trkpt lat="45.87358" lon="3.02425">
        <ele>612</ele>
        <time>2011-05-15T06:38:59Z</time>
      </trkpt>
      <trkpt lat="45.87358" lon="3.02421">
        <ele>612</ele>
        <time>2011-05-15T06:39:00Z</time>
      </trkpt>
      <trkpt lat="45.87361" lon="3.02409">
        <ele>614</ele>
        <time>2011-05-15T06:39:04Z</time>
      </trkpt>
      <trkpt lat="45.87367" lon="3.02368">
        <ele>615</ele>
        <time>2011-05-15T06:39:13Z</time>
      </trkpt>
      <trkpt lat="45.87362" lon="3.02337">
        <ele>616</ele>
        <time>2011-05-15T06:39:21Z</time>
      </trkpt>
      <trkpt lat="45.87359" lon="3.02316">
        <ele>617</ele>
        <time>2011-05-15T06:39:27Z</time>
      </trkpt>
      <trkpt lat="45.8737" lon="3.02285">
        <ele>616</ele>
        <time>2011-05-15T06:39:36Z</time>
      </trkpt>
      <trkpt lat="45.87388" lon="3.02268">
        <ele>614</ele>
        <time>2011-05-15T06:39:42Z</time>
      </trkpt>
      <trkpt lat="45.87404" lon="3.02291">
        <ele>613</ele>
        <time>2011-05-15T06:39:47Z</time>
      </trkpt>
      <trkpt lat="45.87411" lon="3.02302">
        <ele>612</ele>
        <time>2011-05-15T06:39:49Z</time>
      </trkpt>
      <trkpt lat="45.87416" lon="3.02309">
        <ele>612</ele>
        <time>2011-05-15T06:39:50Z</time>
      </trkpt>
      <trkpt lat="45.87441" lon="3.02345">
        <ele>612</ele>
        <time>2011-05-15T06:39:57Z</time>
      </trkpt>
      <trkpt lat="45.87459" lon="3.02328">
        <ele>611</ele>
        <time>2011-05-15T06:40:04Z</time>
      </trkpt>
      <trkpt lat="45.87461" lon="3.02318">
        <ele>612</ele>
        <time>2011-05-15T06:40:06Z</time>
      </trkpt>
      <trkpt lat="45.87478" lon="3.02268">
        <ele>613</ele>
        <time>2011-05-15T06:40:15Z</time>
      </trkpt>
      <trkpt lat="45.87494" lon="3.0223">
        <ele>613</ele>
        <time>2011-05-15T06:40:24Z</time>
      </trkpt>
      <trkpt lat="45.87511" lon="3.02214">
        <ele>613</ele>
        <time>2011-05-15T06:40:30Z</time>
      </trkpt>
      <trkpt lat="45.87531" lon="3.02191">
        <ele>612</ele>
        <time>2011-05-15T06:40:35Z</time>
      </trkpt>
      <trkpt lat="45.87543" lon="3.02178">
        <ele>613</ele>
        <time>2011-05-15T06:40:38Z</time>
      </trkpt>
      <trkpt lat="45.87562" lon="3.02189">
        <ele>612</ele>
        <time>2011-05-15T06:40:46Z</time>
      </trkpt>
      <trkpt lat="45.87597" lon="3.02216">
        <ele>612</ele>
        <time>2011-05-15T06:40:55Z</time>
      </trkpt>
      <trkpt lat="45.87618" lon="3.02253">
        <ele>612</ele>
        <time>2011-05-15T06:41:02Z</time>
      </trkpt>
      <trkpt lat="45.87624" lon="3.02272">
        <ele>612</ele>
        <time>2011-05-15T06:41:06Z</time>
      </trkpt>
      <trkpt lat="45.87633" lon="3.02265">
        <ele>612</ele>
        <time>2011-05-15T06:41:11Z</time>
      </trkpt>
      <trkpt lat="45.87661" lon="3.02239">
        <ele>613</ele>
        <time>2011-05-15T06:41:21Z</time>
      </trkpt>
      <trkpt lat="45.8769" lon="3.02225">
        <ele>613</ele>
        <time>2011-05-15T06:41:30Z</time>
      </trkpt>
      <trkpt lat="45.87724" lon="3.02204">
        <ele>614</ele>
        <time>2011-05-15T06:41:40Z</time>
      </trkpt>
      <trkpt lat="45.8775" lon="3.02171">
        <ele>615</ele>
        <time>2011-05-15T06:41:48Z</time>
      </trkpt>
      <trkpt lat="45.87767" lon="3.02134">
        <ele>617</ele>
        <time>2011-05-15T06:41:56Z</time>
      </trkpt>
      <trkpt lat="45.87773" lon="3.0209">
        <ele>618</ele>
        <time>2011-05-15T06:42:05Z</time>
      </trkpt>
      <trkpt lat="45.8777" lon="3.02044">
        <ele>619</ele>
        <time>2011-05-15T06:42:14Z</time>
      </trkpt>
      <trkpt lat="45.87752" lon="3.01997">
        <ele>621</ele>
        <time>2011-05-15T06:42:25Z</time>
      </trkpt>
      <trkpt lat="45.87735" lon="3.01967">
        <ele>622</ele>
        <time>2011-05-15T06:42:33Z</time>
      </trkpt>
      <trkpt lat="45.87706" lon="3.01927">
        <ele>624</ele>
        <time>2011-05-15T06:42:44Z</time>
      </trkpt>
      <trkpt lat="45.87674" lon="3.01887">
        <ele>625</ele>
        <time>2011-05-15T06:42:56Z</time>
      </trkpt>
      <trkpt lat="45.87668" lon="3.01881">
        <ele>625</ele>
        <time>2011-05-15T06:42:59Z</time>
      </trkpt>
      <trkpt lat="45.87643" lon="3.01879">
        <ele>625</ele>
        <time>2011-05-15T06:43:08Z</time>
      </trkpt>
      <trkpt lat="45.87642" lon="3.0188">
        <ele>625</ele>
        <time>2011-05-15T06:45:59Z</time>
      </trkpt>
      <trkpt lat="45.87642" lon="3.0188">
        <ele>623</ele>
        <time>2011-05-15T06:46:18Z</time>
      </trkpt>
      <trkpt lat="45.87642" lon="3.0188">
        <ele>619</ele>
        <time>2011-05-15T06:46:21Z</time>
      </trkpt>
      <trkpt lat="45.87642" lon="3.0188">
        <ele>624</ele>
        <time>2011-05-15T06:46:22Z</time>
      </trkpt>
      <trkpt lat="45.87621" lon="3.01877">
        <ele>626</ele>
        <time>2011-05-15T06:47:03Z</time>
      </trkpt>
      <trkpt lat="45.87589" lon="3.01887">
        <ele>628</ele>
        <time>2011-05-15T06:47:12Z</time>
      </trkpt>
      <trkpt lat="45.87548" lon="3.01927">
        <ele>629</ele>
        <time>2011-05-15T06:47:22Z</time>
      </trkpt>
      <trkpt lat="45.87521" lon="3.01951">
        <ele>631</ele>
        <time>2011-05-15T06:47:30Z</time>
      </trkpt>
      <trkpt lat="45.87514" lon="3.0196">
        <ele>631</ele>
        <time>2011-05-15T06:47:32Z</time>
      </trkpt>
      <trkpt lat="45.87488" lon="3.0197">
        <ele>632</ele>
        <time>2011-05-15T06:47:40Z</time>
      </trkpt>
      <trkpt lat="45.87466" lon="3.01975">
        <ele>633</ele>
        <time>2011-05-15T06:47:47Z</time>
      </trkpt>
      <trkpt lat="45.8744" lon="3.01976">
        <ele>634</ele>
        <time>2011-05-15T06:47:54Z</time>
      </trkpt>
      <trkpt lat="45.87407" lon="3.01966">
        <ele>636</ele>
        <time>2011-05-15T06:48:03Z</time>
      </trkpt>
      <trkpt lat="45.87379" lon="3.01956">
        <ele>637</ele>
        <time>2011-05-15T06:48:11Z</time>
      </trkpt>
      <trkpt lat="45.87351" lon="3.01951">
        <ele>638</ele>
        <time>2011-05-15T06:48:18Z</time>
      </trkpt>
      <trkpt lat="45.87313" lon="3.01934">
        <ele>640</ele>
        <time>2011-05-15T06:48:28Z</time>
      </trkpt>
      <trkpt lat="45.8728" lon="3.01912">
        <ele>641</ele>
        <time>2011-05-15T06:48:36Z</time>
      </trkpt>
      <trkpt lat="45.87246" lon="3.01891">
        <ele>643</ele>
        <time>2011-05-15T06:48:46Z</time>
      </trkpt>
      <trkpt lat="45.87212" lon="3.01865">
        <ele>644</ele>
        <time>2011-05-15T06:48:55Z</time>
      </trkpt>
      <trkpt lat="45.87198" lon="3.01841">
        <ele>645</ele>
        <time>2011-05-15T06:49:00Z</time>
      </trkpt>
      <trkpt lat="45.87176" lon="3.01783">
        <ele>647</ele>
        <time>2011-05-15T06:49:11Z</time>
      </trkpt>
      <trkpt lat="45.87157" lon="3.01737">
        <ele>648</ele>
        <time>2011-05-15T06:49:21Z</time>
      </trkpt>
      <trkpt lat="45.87135" lon="3.01708">
        <ele>649</ele>
        <time>2011-05-15T06:49:29Z</time>
      </trkpt>
      <trkpt lat="45.87108" lon="3.01697">
        <ele>650</ele>
        <time>2011-05-15T06:49:37Z</time>
      </trkpt>
      <trkpt lat="45.8708" lon="3.01688">
        <ele>651</ele>
        <time>2011-05-15T06:49:45Z</time>
      </trkpt>
      <trkpt lat="45.87046" lon="3.01681">
        <ele>652</ele>
        <time>2011-05-15T06:49:55Z</time>
      </trkpt>
      <trkpt lat="45.87012" lon="3.01695">
        <ele>654</ele>
        <time>2011-05-15T06:50:03Z</time>
      </trkpt>
      <trkpt lat="45.86977" lon="3.01723">
        <ele>655</ele>
        <time>2011-05-15T06:50:12Z</time>
      </trkpt>
      <trkpt lat="45.8695" lon="3.01743">
        <ele>656</ele>
        <time>2011-05-15T06:50:20Z</time>
      </trkpt>
      <trkpt lat="45.86932" lon="3.01757">
        <ele>658</ele>
        <time>2011-05-15T06:50:28Z</time>
      </trkpt>
      <trkpt lat="45.86906" lon="3.01758">
        <ele>659</ele>
        <time>2011-05-15T06:50:35Z</time>
      </trkpt>
      <trkpt lat="45.86872" lon="3.0175">
        <ele>660</ele>
        <time>2011-05-15T06:50:43Z</time>
      </trkpt>
      <trkpt lat="45.86844" lon="3.01728">
        <ele>661</ele>
        <time>2011-05-15T06:50:51Z</time>
      </trkpt>
      <trkpt lat="45.86832" lon="3.0171">
        <ele>662</ele>
        <time>2011-05-15T06:50:55Z</time>
      </trkpt>
      <trkpt lat="45.8682" lon="3.01686">
        <ele>662</ele>
        <time>2011-05-15T06:51:01Z</time>
      </trkpt>
      <trkpt lat="45.86804" lon="3.01657">
        <ele>663</ele>
        <time>2011-05-15T06:51:08Z</time>
      </trkpt>
      <trkpt lat="45.86786" lon="3.01669">
        <ele>663</ele>
        <time>2011-05-15T06:51:15Z</time>
      </trkpt>
      <trkpt lat="45.8678" lon="3.01656">
        <ele>664</ele>
        <time>2011-05-15T06:51:21Z</time>
      </trkpt>
      <trkpt lat="45.8678" lon="3.01653">
        <ele>664</ele>
        <time>2011-05-15T06:51:22Z</time>
      </trkpt>
      <trkpt lat="45.8678" lon="3.0164">
        <ele>665</ele>
        <time>2011-05-15T06:51:26Z</time>
      </trkpt>
      <trkpt lat="45.86768" lon="3.01608">
        <ele>668</ele>
        <time>2011-05-15T06:51:37Z</time>
      </trkpt>
      <trkpt lat="45.86767" lon="3.01605">
        <ele>668</ele>
        <time>2011-05-15T06:51:38Z</time>
      </trkpt>
      <trkpt lat="45.8677" lon="3.01583">
        <ele>669</ele>
        <time>2011-05-15T06:51:45Z</time>
      </trkpt>
      <trkpt lat="45.86759" lon="3.01549">
        <ele>670</ele>
        <time>2011-05-15T06:51:53Z</time>
      </trkpt>
      <trkpt lat="45.86743" lon="3.01524">
        <ele>671</ele>
        <time>2011-05-15T06:52:01Z</time>
      </trkpt>
      <trkpt lat="45.86738" lon="3.01484">
        <ele>671</ele>
        <time>2011-05-15T06:52:11Z</time>
      </trkpt>
      <trkpt lat="45.86738" lon="3.01447">
        <ele>671</ele>
        <time>2011-05-15T06:52:19Z</time>
      </trkpt>
      <trkpt lat="45.86735" lon="3.01408">
        <ele>670</ele>
        <time>2011-05-15T06:52:26Z</time>
      </trkpt>
      <trkpt lat="45.86735" lon="3.01401">
        <ele>670</ele>
        <time>2011-05-15T06:52:27Z</time>
      </trkpt>
      <trkpt lat="45.86734" lon="3.01378">
        <ele>670</ele>
        <time>2011-05-15T06:52:31Z</time>
      </trkpt>
      <trkpt lat="45.86725" lon="3.01323">
        <ele>671</ele>
        <time>2011-05-15T06:52:41Z</time>
      </trkpt>
      <trkpt lat="45.86722" lon="3.01275">
        <ele>673</ele>
        <time>2011-05-15T06:52:52Z</time>
      </trkpt>
      <trkpt lat="45.86721" lon="3.01261">
        <ele>674</ele>
        <time>2011-05-15T06:52:56Z</time>
      </trkpt>
      <trkpt lat="45.86719" lon="3.01224">
        <ele>676</ele>
        <time>2011-05-15T06:53:05Z</time>
      </trkpt>
      <trkpt lat="45.86717" lon="3.01194">
        <ele>679</ele>
        <time>2011-05-15T06:53:13Z</time>
      </trkpt>
      <trkpt lat="45.86717" lon="3.01179">
        <ele>681</ele>
        <time>2011-05-15T06:53:19Z</time>
      </trkpt>
      <trkpt lat="45.86715" lon="3.01171">
        <ele>682</ele>
        <time>2011-05-15T06:53:23Z</time>
      </trkpt>
      <trkpt lat="45.86714" lon="3.01163">
        <ele>683</ele>
        <time>2011-05-15T06:53:26Z</time>
      </trkpt>
      <trkpt lat="45.86712" lon="3.01137">
        <ele>686</ele>
        <time>2011-05-15T06:53:36Z</time>
      </trkpt>
      <trkpt lat="45.86709" lon="3.01115">
        <ele>688</ele>
        <time>2011-05-15T06:53:44Z</time>
      </trkpt>
      <trkpt lat="45.86704" lon="3.01106">
        <ele>689</ele>
        <time>2011-05-15T06:53:52Z</time>
      </trkpt>
      <trkpt lat="45.86704" lon="3.01105">
        <ele>687</ele>
        <time>2011-05-15T06:54:23Z</time>
      </trkpt>
      <trkpt lat="45.86704" lon="3.01107">
        <ele>687</ele>
        <time>2011-05-15T06:54:31Z</time>
      </trkpt>
      <trkpt lat="45.86705" lon="3.01099">
        <ele>685</ele>
        <time>2011-05-15T06:54:46Z</time>
      </trkpt>
      <trkpt lat="45.86704" lon="3.01098">
        <ele>688</ele>
        <time>2011-05-15T06:54:47Z</time>
      </trkpt>
      <trkpt lat="45.86702" lon="3.01099">
        <ele>688</ele>
        <time>2011-05-15T06:54:48Z</time>
      </trkpt>
      <trkpt lat="45.86697" lon="3.01099">
        <ele>688</ele>
        <time>2011-05-15T06:55:12Z</time>
      </trkpt>
      <trkpt lat="45.86687" lon="3.01106">
        <ele>689</ele>
        <time>2011-05-15T06:55:17Z</time>
      </trkpt>
      <trkpt lat="45.86651" lon="3.0112">
        <ele>690</ele>
        <time>2011-05-15T06:55:29Z</time>
      </trkpt>
      <trkpt lat="45.86619" lon="3.01133">
        <ele>692</ele>
        <time>2011-05-15T06:55:40Z</time>
      </trkpt>
      <trkpt lat="45.86585" lon="3.01165">
        <ele>693</ele>
        <time>2011-05-15T06:55:52Z</time>
      </trkpt>
      <trkpt lat="45.86566" lon="3.012">
        <ele>695</ele>
        <time>2011-05-15T06:56:01Z</time>
      </trkpt>
      <trkpt lat="45.86547" lon="3.01244">
        <ele>696</ele>
        <time>2011-05-15T06:56:11Z</time>
      </trkpt>
      <trkpt lat="45.86534" lon="3.0127">
        <ele>697</ele>
        <time>2011-05-15T06:56:18Z</time>
      </trkpt>
      <trkpt lat="45.86513" lon="3.01292">
        <ele>698</ele>
        <time>2011-05-15T06:56:26Z</time>
      </trkpt>
      <trkpt lat="45.86486" lon="3.01309">
        <ele>699</ele>
        <time>2011-05-15T06:56:35Z</time>
      </trkpt>
      <trkpt lat="45.86462" lon="3.01315">
        <ele>700</ele>
        <time>2011-05-15T06:56:42Z</time>
      </trkpt>
      <trkpt lat="45.8644" lon="3.01324">
        <ele>701</ele>
        <time>2011-05-15T06:56:49Z</time>
      </trkpt>
      <trkpt lat="45.86413" lon="3.01338">
        <ele>702</ele>
        <time>2011-05-15T06:56:57Z</time>
      </trkpt>
      <trkpt lat="45.86393" lon="3.01362">
        <ele>703</ele>
        <time>2011-05-15T06:57:05Z</time>
      </trkpt>
      <trkpt lat="45.86366" lon="3.01393">
        <ele>704</ele>
        <time>2011-05-15T06:57:14Z</time>
      </trkpt>
      <trkpt lat="45.86342" lon="3.01418">
        <ele>706</ele>
        <time>2011-05-15T06:57:23Z</time>
      </trkpt>
      <trkpt lat="45.86331" lon="3.01435">
        <ele>706</ele>
        <time>2011-05-15T06:57:29Z</time>
      </trkpt>
      <trkpt lat="45.86325" lon="3.01443">
        <ele>707</ele>
        <time>2011-05-15T06:57:32Z</time>
      </trkpt>
      <trkpt lat="45.863" lon="3.01466">
        <ele>708</ele>
        <time>2011-05-15T06:57:41Z</time>
      </trkpt>
      <trkpt lat="45.8627" lon="3.015">
        <ele>710</ele>
        <time>2011-05-15T06:57:50Z</time>
      </trkpt>
      <trkpt lat="45.86253" lon="3.01518">
        <ele>711</ele>
        <time>2011-05-15T06:57:57Z</time>
      </trkpt>
      <trkpt lat="45.86225" lon="3.01542">
        <ele>712</ele>
        <time>2011-05-15T06:58:07Z</time>
      </trkpt>
      <trkpt lat="45.86202" lon="3.0156">
        <ele>713</ele>
        <time>2011-05-15T06:58:15Z</time>
      </trkpt>
      <trkpt lat="45.86182" lon="3.0156">
        <ele>714</ele>
        <time>2011-05-15T06:58:23Z</time>
      </trkpt>
      <trkpt lat="45.86148" lon="3.01559">
        <ele>715</ele>
        <time>2011-05-15T06:58:32Z</time>
      </trkpt>
      <trkpt lat="45.86123" lon="3.0155">
        <ele>717</ele>
        <time>2011-05-15T06:58:40Z</time>
      </trkpt>
      <trkpt lat="45.86099" lon="3.01532">
        <ele>718</ele>
        <time>2011-05-15T06:58:48Z</time>
      </trkpt>
      <trkpt lat="45.86091" lon="3.01525">
        <ele>718</ele>
        <time>2011-05-15T06:58:51Z</time>
      </trkpt>
      <trkpt lat="45.86061" lon="3.01511">
        <ele>719</ele>
        <time>2011-05-15T06:59:01Z</time>
      </trkpt>
      <trkpt lat="45.86037" lon="3.01498">
        <ele>721</ele>
        <time>2011-05-15T06:59:09Z</time>
      </trkpt>
      <trkpt lat="45.86011" lon="3.01482">
        <ele>721</ele>
        <time>2011-05-15T06:59:19Z</time>
      </trkpt>
      <trkpt lat="45.86001" lon="3.01493">
        <ele>722</ele>
        <time>2011-05-15T06:59:24Z</time>
      </trkpt>
      <trkpt lat="45.85998" lon="3.01519">
        <ele>725</ele>
        <time>2011-05-15T06:59:32Z</time>
      </trkpt>
      <trkpt lat="45.85992" lon="3.01541">
        <ele>728</ele>
        <time>2011-05-15T06:59:39Z</time>
      </trkpt>
      <trkpt lat="45.85988" lon="3.01562">
        <ele>732</ele>
        <time>2011-05-15T06:59:45Z</time>
      </trkpt>
      <trkpt lat="45.85977" lon="3.0158">
        <ele>735</ele>
        <time>2011-05-15T06:59:51Z</time>
      </trkpt>
      <trkpt lat="45.85967" lon="3.016">
        <ele>738</ele>
        <time>2011-05-15T06:59:58Z</time>
      </trkpt>
      <trkpt lat="45.85954" lon="3.01631">
        <ele>741</ele>
        <time>2011-05-15T07:00:09Z</time>
      </trkpt>
      <trkpt lat="45.85946" lon="3.01649">
        <ele>743</ele>
        <time>2011-05-15T07:00:16Z</time>
      </trkpt>
      <trkpt lat="45.8593" lon="3.01674">
        <ele>747</ele>
        <time>2011-05-15T07:00:26Z</time>
      </trkpt>
      <trkpt lat="45.85923" lon="3.01698">
        <ele>750</ele>
        <time>2011-05-15T07:00:36Z</time>
      </trkpt>
      <trkpt lat="45.85913" lon="3.01722">
        <ele>752</ele>
        <time>2011-05-15T07:00:47Z</time>
      </trkpt>
      <trkpt lat="45.85903" lon="3.01745">
        <ele>755</ele>
        <time>2011-05-15T07:00:57Z</time>
      </trkpt>
      <trkpt lat="45.85894" lon="3.01768">
        <ele>758</ele>
        <time>2011-05-15T07:01:09Z</time>
      </trkpt>
      <trkpt lat="45.85884" lon="3.01785">
        <ele>761</ele>
        <time>2011-05-15T07:01:18Z</time>
      </trkpt>
      <trkpt lat="45.85869" lon="3.0181">
        <ele>762</ele>
        <time>2011-05-15T07:01:30Z</time>
      </trkpt>
      <trkpt lat="45.85853" lon="3.01835">
        <ele>764</ele>
        <time>2011-05-15T07:01:41Z</time>
      </trkpt>
      <trkpt lat="45.85851" lon="3.01838">
        <ele>763</ele>
        <time>2011-05-15T07:01:42Z</time>
      </trkpt>
      <trkpt lat="45.85846" lon="3.01873">
        <ele>762</ele>
        <time>2011-05-15T07:01:48Z</time>
      </trkpt>
      <trkpt lat="45.85848" lon="3.01883">
        <ele>761</ele>
        <time>2011-05-15T07:01:50Z</time>
      </trkpt>
      <trkpt lat="45.85852" lon="3.019">
        <ele>761</ele>
        <time>2011-05-15T07:01:53Z</time>
      </trkpt>
      <trkpt lat="45.85847" lon="3.01938">
        <ele>758</ele>
        <time>2011-05-15T07:01:59Z</time>
      </trkpt>
      <trkpt lat="45.85825" lon="3.01991">
        <ele>753</ele>
        <time>2011-05-15T07:02:06Z</time>
      </trkpt>
      <trkpt lat="45.85821" lon="3.02">
        <ele>754</ele>
        <time>2011-05-15T07:02:07Z</time>
      </trkpt>
      <trkpt lat="45.85813" lon="3.02018">
        <ele>752</ele>
        <time>2011-05-15T07:02:09Z</time>
      </trkpt>
      <trkpt lat="45.85805" lon="3.0204">
        <ele>751</ele>
        <time>2011-05-15T07:02:11Z</time>
      </trkpt>
      <trkpt lat="45.85794" lon="3.02073">
        <ele>749</ele>
        <time>2011-05-15T07:02:14Z</time>
      </trkpt>
      <trkpt lat="45.85768" lon="3.02127">
        <ele>748</ele>
        <time>2011-05-15T07:02:20Z</time>
      </trkpt>
      <trkpt lat="45.85756" lon="3.0215">
        <ele>746</ele>
        <time>2011-05-15T07:02:23Z</time>
      </trkpt>
      <trkpt lat="45.85742" lon="3.0217">
        <ele>744</ele>
        <time>2011-05-15T07:02:26Z</time>
      </trkpt>
      <trkpt lat="45.85715" lon="3.02212">
        <ele>743</ele>
        <time>2011-05-15T07:02:34Z</time>
      </trkpt>
      <trkpt lat="45.85696" lon="3.02283">
        <ele>740</ele>
        <time>2011-05-15T07:02:45Z</time>
      </trkpt>
      <trkpt lat="45.85683" lon="3.02323">
        <ele>737</ele>
        <time>2011-05-15T07:02:53Z</time>
      </trkpt>
      <trkpt lat="45.85661" lon="3.02365">
        <ele>734</ele>
        <time>2011-05-15T07:02:59Z</time>
      </trkpt>
      <trkpt lat="45.85646" lon="3.02377">
        <ele>732</ele>
        <time>2011-05-15T07:03:01Z</time>
      </trkpt>
      <trkpt lat="45.85619" lon="3.02418">
        <ele>727</ele>
        <time>2011-05-15T07:03:05Z</time>
      </trkpt>
      <trkpt lat="45.85599" lon="3.02467">
        <ele>724</ele>
        <time>2011-05-15T07:03:09Z</time>
      </trkpt>
      <trkpt lat="45.85578" lon="3.025">
        <ele>720</ele>
        <time>2011-05-15T07:03:12Z</time>
      </trkpt>
      <trkpt lat="45.85558" lon="3.02532">
        <ele>717</ele>
        <time>2011-05-15T07:03:15Z</time>
      </trkpt>
      <trkpt lat="45.85546" lon="3.02555">
        <ele>713</ele>
        <time>2011-05-15T07:03:17Z</time>
      </trkpt>
      <trkpt lat="45.85535" lon="3.02581">
        <ele>710</ele>
        <time>2011-05-15T07:03:19Z</time>
      </trkpt>
      <trkpt lat="45.8553" lon="3.02593">
        <ele>708</ele>
        <time>2011-05-15T07:03:20Z</time>
      </trkpt>
      <trkpt lat="45.85496" lon="3.02616">
        <ele>704</ele>
        <time>2011-05-15T07:03:25Z</time>
      </trkpt>
      <trkpt lat="45.85481" lon="3.0264">
        <ele>702</ele>
        <time>2011-05-15T07:03:29Z</time>
      </trkpt>
      <trkpt lat="45.85472" lon="3.02668">
        <ele>702</ele>
        <time>2011-05-15T07:03:32Z</time>
      </trkpt>
      <trkpt lat="45.85459" lon="3.02693">
        <ele>701</ele>
        <time>2011-05-15T07:03:35Z</time>
      </trkpt>
      <trkpt lat="45.85403" lon="3.0277">
        <ele>700</ele>
        <time>2011-05-15T07:03:43Z</time>
      </trkpt>
      <trkpt lat="45.85377" lon="3.02824">
        <ele>699</ele>
        <time>2011-05-15T07:03:51Z</time>
      </trkpt>
      <trkpt lat="45.85376" lon="3.02828">
        <ele>699</ele>
        <time>2011-05-15T07:03:52Z</time>
      </trkpt>
      <trkpt lat="45.85366" lon="3.02851">
        <ele>699</ele>
        <time>2011-05-15T07:03:55Z</time>
      </trkpt>
      <trkpt lat="45.8533" lon="3.02931">
        <ele>693</ele>
        <time>2011-05-15T07:04:03Z</time>
      </trkpt>
      <trkpt lat="45.85327" lon="3.0294">
        <ele>692</ele>
        <time>2011-05-15T07:04:04Z</time>
      </trkpt>
      <trkpt lat="45.85315" lon="3.02961">
        <ele>690</ele>
        <time>2011-05-15T07:04:08Z</time>
      </trkpt>
      <trkpt lat="45.85306" lon="3.02971">
        <ele>689</ele>
        <time>2011-05-15T07:04:10Z</time>
      </trkpt>
      <trkpt lat="45.85301" lon="3.03002">
        <ele>687</ele>
        <time>2011-05-15T07:04:14Z</time>
      </trkpt>
      <trkpt lat="45.85297" lon="3.03024">
        <ele>684</ele>
        <time>2011-05-15T07:04:17Z</time>
      </trkpt>
      <trkpt lat="45.8529" lon="3.03087">
        <ele>681</ele>
        <time>2011-05-15T07:04:22Z</time>
      </trkpt>
      <trkpt lat="45.85287" lon="3.03096">
        <ele>681</ele>
        <time>2011-05-15T07:04:23Z</time>
      </trkpt>
      <trkpt lat="45.85273" lon="3.03117">
        <ele>677</ele>
        <time>2011-05-15T07:04:26Z</time>
      </trkpt>
      <trkpt lat="45.85261" lon="3.03126">
        <ele>675</ele>
        <time>2011-05-15T07:04:28Z</time>
      </trkpt>
      <trkpt lat="45.85246" lon="3.03131">
        <ele>673</ele>
        <time>2011-05-15T07:04:30Z</time>
      </trkpt>
      <trkpt lat="45.85218" lon="3.0312">
        <ele>667</ele>
        <time>2011-05-15T07:04:34Z</time>
      </trkpt>
      <trkpt lat="45.85185" lon="3.03111">
        <ele>662</ele>
        <time>2011-05-15T07:04:40Z</time>
      </trkpt>
      <trkpt lat="45.85164" lon="3.03125">
        <ele>660</ele>
        <time>2011-05-15T07:04:45Z</time>
      </trkpt>
      <trkpt lat="45.85149" lon="3.03169">
        <ele>657</ele>
        <time>2011-05-15T07:04:51Z</time>
      </trkpt>
      <trkpt lat="45.85151" lon="3.03176">
        <ele>657</ele>
        <time>2011-05-15T07:04:52Z</time>
      </trkpt>
      <trkpt lat="45.85148" lon="3.03192">
        <ele>657</ele>
        <time>2011-05-15T07:04:53Z</time>
      </trkpt>
      <trkpt lat="45.85122" lon="3.03255">
        <ele>652</ele>
        <time>2011-05-15T07:04:58Z</time>
      </trkpt>
      <trkpt lat="45.85092" lon="3.03295">
        <ele>650</ele>
        <time>2011-05-15T07:05:02Z</time>
      </trkpt>
      <trkpt lat="45.85032" lon="3.03346">
        <ele>646</ele>
        <time>2011-05-15T07:05:10Z</time>
      </trkpt>
      <trkpt lat="45.85012" lon="3.03366">
        <ele>644</ele>
        <time>2011-05-15T07:05:13Z</time>
      </trkpt>
      <trkpt lat="45.84983" lon="3.03396">
        <ele>643</ele>
        <time>2011-05-15T07:05:18Z</time>
      </trkpt>
      <trkpt lat="45.84946" lon="3.03422">
        <ele>641</ele>
        <time>2011-05-15T07:05:25Z</time>
      </trkpt>
      <trkpt lat="45.849" lon="3.03416">
        <ele>639</ele>
        <time>2011-05-15T07:05:32Z</time>
      </trkpt>
      <trkpt lat="45.84848" lon="3.03372">
        <ele>638</ele>
        <time>2011-05-15T07:05:42Z</time>
      </trkpt>
      <trkpt lat="45.84792" lon="3.03329">
        <ele>637</ele>
        <time>2011-05-15T07:05:52Z</time>
      </trkpt>
      <trkpt lat="45.84739" lon="3.03281">
        <ele>637</ele>
        <time>2011-05-15T07:06:02Z</time>
      </trkpt>
      <trkpt lat="45.84692" lon="3.03217">
        <ele>639</ele>
        <time>2011-05-15T07:06:14Z</time>
      </trkpt>
      <trkpt lat="45.84689" lon="3.03211">
        <ele>639</ele>
        <time>2011-05-15T07:06:15Z</time>
      </trkpt>
      <trkpt lat="45.84683" lon="3.03194">
        <ele>639</ele>
        <time>2011-05-15T07:06:18Z</time>
      </trkpt>
      <trkpt lat="45.84675" lon="3.03171">
        <ele>640</ele>
        <time>2011-05-15T07:06:22Z</time>
      </trkpt>
      <trkpt lat="45.84644" lon="3.03124">
        <ele>643</ele>
        <time>2011-05-15T07:06:32Z</time>
      </trkpt>
      <trkpt lat="45.84618" lon="3.03091">
        <ele>644</ele>
        <time>2011-05-15T07:06:41Z</time>
      </trkpt>
      <trkpt lat="45.84614" lon="3.03089">
        <ele>644</ele>
        <time>2011-05-15T07:06:42Z</time>
      </trkpt>
      <trkpt lat="45.84553" lon="3.03079">
        <ele>643</ele>
        <time>2011-05-15T07:06:54Z</time>
      </trkpt>
      <trkpt lat="45.84538" lon="3.03079">
        <ele>643</ele>
        <time>2011-05-15T07:06:57Z</time>
      </trkpt>
      <trkpt lat="45.84522" lon="3.03076">
        <ele>642</ele>
        <time>2011-05-15T07:07:00Z</time>
      </trkpt>
      <trkpt lat="45.84504" lon="3.03043">
        <ele>642</ele>
        <time>2011-05-15T07:07:07Z</time>
      </trkpt>
      <trkpt lat="45.84506" lon="3.03036">
        <ele>642</ele>
        <time>2011-05-15T07:07:08Z</time>
      </trkpt>
      <trkpt lat="45.84517" lon="3.02958">
        <ele>644</ele>
        <time>2011-05-15T07:07:20Z</time>
      </trkpt>
      <trkpt lat="45.84517" lon="3.02952">
        <ele>644</ele>
        <time>2011-05-15T07:07:21Z</time>
      </trkpt>
      <trkpt lat="45.84513" lon="3.0286">
        <ele>645</ele>
        <time>2011-05-15T07:07:35Z</time>
      </trkpt>
      <trkpt lat="45.84502" lon="3.02764">
        <ele>647</ele>
        <time>2011-05-15T07:07:49Z</time>
      </trkpt>
      <trkpt lat="45.84487" lon="3.02704">
        <ele>648</ele>
        <time>2011-05-15T07:07:58Z</time>
      </trkpt>
      <trkpt lat="45.84473" lon="3.02683">
        <ele>648</ele>
        <time>2011-05-15T07:08:03Z</time>
      </trkpt>
      <trkpt lat="45.84417" lon="3.02651">
        <ele>646</ele>
        <time>2011-05-15T07:08:14Z</time>
      </trkpt>
      <trkpt lat="45.84396" lon="3.02638">
        <ele>645</ele>
        <time>2011-05-15T07:08:18Z</time>
      </trkpt>
      <trkpt lat="45.84361" lon="3.02597">
        <ele>645</ele>
        <time>2011-05-15T07:08:26Z</time>
      </trkpt>
      <trkpt lat="45.8434" lon="3.02569">
        <ele>645</ele>
        <time>2011-05-15T07:08:31Z</time>
      </trkpt>
      <trkpt lat="45.84315" lon="3.0255">
        <ele>644</ele>
        <time>2011-05-15T07:08:36Z</time>
      </trkpt>
      <trkpt lat="45.84287" lon="3.02524">
        <ele>642</ele>
        <time>2011-05-15T07:08:41Z</time>
      </trkpt>
      <trkpt lat="45.84279" lon="3.02491">
        <ele>642</ele>
        <time>2011-05-15T07:08:46Z</time>
      </trkpt>
      <trkpt lat="45.84295" lon="3.02468">
        <ele>643</ele>
        <time>2011-05-15T07:08:51Z</time>
      </trkpt>
      <trkpt lat="45.843" lon="3.02459">
        <ele>644</ele>
        <time>2011-05-15T07:08:53Z</time>
      </trkpt>
      <trkpt lat="45.84329" lon="3.02418">
        <ele>647</ele>
        <time>2011-05-15T07:09:03Z</time>
      </trkpt>
      <trkpt lat="45.84346" lon="3.02396">
        <ele>650</ele>
        <time>2011-05-15T07:09:11Z</time>
      </trkpt>
      <trkpt lat="45.84354" lon="3.02382">
        <ele>652</ele>
        <time>2011-05-15T07:09:17Z</time>
      </trkpt>
      <trkpt lat="45.84369" lon="3.02355">
        <ele>654</ele>
        <time>2011-05-15T07:09:27Z</time>
      </trkpt>
      <trkpt lat="45.84385" lon="3.02324">
        <ele>657</ele>
        <time>2011-05-15T07:09:38Z</time>
      </trkpt>
      <trkpt lat="45.84389" lon="3.02313">
        <ele>659</ele>
        <time>2011-05-15T07:09:44Z</time>
      </trkpt>
      <trkpt lat="45.84393" lon="3.02292">
        <ele>661</ele>
        <time>2011-05-15T07:09:53Z</time>
      </trkpt>
      <trkpt lat="45.84392" lon="3.02287">
        <ele>662</ele>
        <time>2011-05-15T07:09:55Z</time>
      </trkpt>
      <trkpt lat="45.84393" lon="3.02279">
        <ele>662</ele>
        <time>2011-05-15T07:09:58Z</time>
      </trkpt>
      <trkpt lat="45.84398" lon="3.02261">
        <ele>665</ele>
        <time>2011-05-15T07:10:05Z</time>
      </trkpt>
      <trkpt lat="45.84402" lon="3.02231">
        <ele>666</ele>
        <time>2011-05-15T07:10:15Z</time>
      </trkpt>
      <trkpt lat="45.84403" lon="3.02228">
        <ele>666</ele>
        <time>2011-05-15T07:10:25Z</time>
      </trkpt>
      <trkpt lat="45.84403" lon="3.02228">
        <ele>666</ele>
        <time>2011-05-15T07:12:14Z</time>
      </trkpt>
      <trkpt lat="45.84411" lon="3.02222">
        <ele>666</ele>
        <time>2011-05-15T07:12:19Z</time>
      </trkpt>
      <trkpt lat="45.84424" lon="3.02203">
        <ele>666</ele>
        <time>2011-05-15T07:12:33Z</time>
      </trkpt>
      <trkpt lat="45.84428" lon="3.02204">
        <ele>667</ele>
        <time>2011-05-15T07:12:47Z</time>
      </trkpt>
      <trkpt lat="45.84428" lon="3.02206">
        <ele>667</ele>
        <time>2011-05-15T07:14:51Z</time>
      </trkpt>
      <trkpt lat="45.84435" lon="3.02202">
        <ele>668</ele>
        <time>2011-05-15T07:14:55Z</time>
      </trkpt>
      <trkpt lat="45.84451" lon="3.02196">
        <ele>671</ele>
        <time>2011-05-15T07:15:04Z</time>
      </trkpt>
      <trkpt lat="45.84467" lon="3.02187">
        <ele>671</ele>
        <time>2011-05-15T07:15:11Z</time>
      </trkpt>
      <trkpt lat="45.84484" lon="3.02174">
        <ele>672</ele>
        <time>2011-05-15T07:15:17Z</time>
      </trkpt>
      <trkpt lat="45.84505" lon="3.02145">
        <ele>675</ele>
        <time>2011-05-15T07:15:27Z</time>
      </trkpt>
      <trkpt lat="45.84523" lon="3.02127">
        <ele>678</ele>
        <time>2011-05-15T07:15:35Z</time>
      </trkpt>
      <trkpt lat="45.84536" lon="3.02106">
        <ele>681</ele>
        <time>2011-05-15T07:15:43Z</time>
      </trkpt>
      <trkpt lat="45.8454" lon="3.02099">
        <ele>682</ele>
        <time>2011-05-15T07:15:46Z</time>
      </trkpt>
      <trkpt lat="45.84542" lon="3.02062">
        <ele>685</ele>
        <time>2011-05-15T07:15:57Z</time>
      </trkpt>
      <trkpt lat="45.84546" lon="3.02053">
        <ele>686</ele>
        <time>2011-05-15T07:16:01Z</time>
      </trkpt>
      <trkpt lat="45.84555" lon="3.0202">
        <ele>688</ele>
        <time>2011-05-15T07:16:12Z</time>
      </trkpt>
      <trkpt lat="45.84559" lon="3.02008">
        <ele>690</ele>
        <time>2011-05-15T07:16:17Z</time>
      </trkpt>
      <trkpt lat="45.8456" lon="3.01998">
        <ele>691</ele>
        <time>2011-05-15T07:16:21Z</time>
      </trkpt>
      <trkpt lat="45.84572" lon="3.01968">
        <ele>694</ele>
        <time>2011-05-15T07:16:32Z</time>
      </trkpt>
      <trkpt lat="45.84575" lon="3.01958">
        <ele>695</ele>
        <time>2011-05-15T07:16:36Z</time>
      </trkpt>
      <trkpt lat="45.84578" lon="3.01947">
        <ele>696</ele>
        <time>2011-05-15T07:16:41Z</time>
      </trkpt>
      <trkpt lat="45.84579" lon="3.01929">
        <ele>698</ele>
        <time>2011-05-15T07:16:48Z</time>
      </trkpt>
      <trkpt lat="45.84581" lon="3.01904">
        <ele>700</ele>
        <time>2011-05-15T07:16:56Z</time>
      </trkpt>
      <trkpt lat="45.84584" lon="3.01884">
        <ele>701</ele>
        <time>2011-05-15T07:17:02Z</time>
      </trkpt>
      <trkpt lat="45.84581" lon="3.01854">
        <ele>703</ele>
        <time>2011-05-15T07:17:11Z</time>
      </trkpt>
      <trkpt lat="45.84579" lon="3.01829">
        <ele>706</ele>
        <time>2011-05-15T07:17:20Z</time>
      </trkpt>
      <trkpt lat="45.84579" lon="3.01822">
        <ele>707</ele>
        <time>2011-05-15T07:17:22Z</time>
      </trkpt>
      <trkpt lat="45.84575" lon="3.01784">
        <ele>710</ele>
        <time>2011-05-15T07:17:33Z</time>
      </trkpt>
      <trkpt lat="45.84566" lon="3.01746">
        <ele>712</ele>
        <time>2011-05-15T07:17:45Z</time>
      </trkpt>
      <trkpt lat="45.84565" lon="3.01715">
        <ele>714</ele>
        <time>2011-05-15T07:17:55Z</time>
      </trkpt>
      <trkpt lat="45.84555" lon="3.01684">
        <ele>715</ele>
        <time>2011-05-15T07:18:04Z</time>
      </trkpt>
      <trkpt lat="45.84554" lon="3.01651">
        <ele>716</ele>
        <time>2011-05-15T07:18:12Z</time>
      </trkpt>
      <trkpt lat="45.84548" lon="3.01616">
        <ele>718</ele>
        <time>2011-05-15T07:18:21Z</time>
      </trkpt>
      <trkpt lat="45.84543" lon="3.01586">
        <ele>719</ele>
        <time>2011-05-15T07:18:28Z</time>
      </trkpt>
      <trkpt lat="45.84511" lon="3.01576">
        <ele>720</ele>
        <time>2011-05-15T07:18:37Z</time>
      </trkpt>
      <trkpt lat="45.84486" lon="3.01551">
        <ele>721</ele>
        <time>2011-05-15T07:18:47Z</time>
      </trkpt>
      <trkpt lat="45.84485" lon="3.01548">
        <ele>721</ele>
        <time>2011-05-15T07:18:48Z</time>
      </trkpt>
      <trkpt lat="45.84473" lon="3.01548">
        <ele>720</ele>
        <time>2011-05-15T07:18:52Z</time>
      </trkpt>
      <trkpt lat="45.84446" lon="3.01569">
        <ele>719</ele>
        <time>2011-05-15T07:19:00Z</time>
      </trkpt>
      <trkpt lat="45.84438" lon="3.01577">
        <ele>719</ele>
        <time>2011-05-15T07:19:02Z</time>
      </trkpt>
      <trkpt lat="45.84414" lon="3.0161">
        <ele>718</ele>
        <time>2011-05-15T07:19:08Z</time>
      </trkpt>
      <trkpt lat="45.84391" lon="3.01642">
        <ele>720</ele>
        <time>2011-05-15T07:19:16Z</time>
      </trkpt>
      <trkpt lat="45.84381" lon="3.01655">
        <ele>721</ele>
        <time>2011-05-15T07:19:20Z</time>
      </trkpt>
      <trkpt lat="45.84365" lon="3.01685">
        <ele>725</ele>
        <time>2011-05-15T07:19:28Z</time>
      </trkpt>
      <trkpt lat="45.84356" lon="3.01697">
        <ele>727</ele>
        <time>2011-05-15T07:19:33Z</time>
      </trkpt>
      <trkpt lat="45.84346" lon="3.01707">
        <ele>730</ele>
        <time>2011-05-15T07:19:38Z</time>
      </trkpt>
      <trkpt lat="45.84325" lon="3.0172">
        <ele>731</ele>
        <time>2011-05-15T07:19:48Z</time>
      </trkpt>
      <trkpt lat="45.84314" lon="3.01721">
        <ele>731</ele>
        <time>2011-05-15T07:19:52Z</time>
      </trkpt>
      <trkpt lat="45.84308" lon="3.01708">
        <ele>733</ele>
        <time>2011-05-15T07:19:58Z</time>
      </trkpt>
      <trkpt lat="45.84306" lon="3.01674">
        <ele>735</ele>
        <time>2011-05-15T07:20:08Z</time>
      </trkpt>
      <trkpt lat="45.84311" lon="3.0164">
        <ele>735</ele>
        <time>2011-05-15T07:20:17Z</time>
      </trkpt>
      <trkpt lat="45.84316" lon="3.01602">
        <ele>736</ele>
        <time>2011-05-15T07:20:26Z</time>
      </trkpt>
      <trkpt lat="45.84317" lon="3.01587">
        <ele>737</ele>
        <time>2011-05-15T07:20:30Z</time>
      </trkpt>
      <trkpt lat="45.84321" lon="3.0157">
        <ele>738</ele>
        <time>2011-05-15T07:20:36Z</time>
      </trkpt>
      <trkpt lat="45.84324" lon="3.01532">
        <ele>740</ele>
        <time>2011-05-15T07:20:45Z</time>
      </trkpt>
      <trkpt lat="45.84328" lon="3.01514">
        <ele>741</ele>
        <time>2011-05-15T07:20:50Z</time>
      </trkpt>
      <trkpt lat="45.84334" lon="3.01486">
        <ele>744</ele>
        <time>2011-05-15T07:21:00Z</time>
      </trkpt>
      <trkpt lat="45.84336" lon="3.01466">
        <ele>746</ele>
        <time>2011-05-15T07:21:04Z</time>
      </trkpt>
      <trkpt lat="45.84338" lon="3.01457">
        <ele>746</ele>
        <time>2011-05-15T07:21:06Z</time>
      </trkpt>
      <trkpt lat="45.84344" lon="3.01423">
        <ele>747</ele>
        <time>2011-05-15T07:21:16Z</time>
      </trkpt>
      <trkpt lat="45.84346" lon="3.01396">
        <ele>749</ele>
        <time>2011-05-15T07:21:24Z</time>
      </trkpt>
      <trkpt lat="45.84349" lon="3.01366">
        <ele>751</ele>
        <time>2011-05-15T07:21:34Z</time>
      </trkpt>
      <trkpt lat="45.84348" lon="3.01358">
        <ele>751</ele>
        <time>2011-05-15T07:21:36Z</time>
      </trkpt>
      <trkpt lat="45.84343" lon="3.0132">
        <ele>752</ele>
        <time>2011-05-15T07:21:44Z</time>
      </trkpt>
      <trkpt lat="45.84345" lon="3.01285">
        <ele>753</ele>
        <time>2011-05-15T07:21:53Z</time>
      </trkpt>
      <trkpt lat="45.84343" lon="3.0126">
        <ele>755</ele>
        <time>2011-05-15T07:22:00Z</time>
      </trkpt>
      <trkpt lat="45.84342" lon="3.01224">
        <ele>756</ele>
        <time>2011-05-15T07:22:06Z</time>
      </trkpt>
      <trkpt lat="45.84348" lon="3.01191">
        <ele>757</ele>
        <time>2011-05-15T07:22:15Z</time>
      </trkpt>
      <trkpt lat="45.84351" lon="3.01164">
        <ele>760</ele>
        <time>2011-05-15T07:22:23Z</time>
      </trkpt>
      <trkpt lat="45.84355" lon="3.01134">
        <ele>761</ele>
        <time>2011-05-15T07:22:30Z</time>
      </trkpt>
      <trkpt lat="45.84361" lon="3.01095">
        <ele>762</ele>
        <time>2011-05-15T07:22:41Z</time>
      </trkpt>
      <trkpt lat="45.84362" lon="3.01092">
        <ele>763</ele>
        <time>2011-05-15T07:22:42Z</time>
      </trkpt>
      <trkpt lat="45.84362" lon="3.01076">
        <ele>764</ele>
        <time>2011-05-15T07:22:46Z</time>
      </trkpt>
      <trkpt lat="45.84361" lon="3.01045">
        <ele>765</ele>
        <time>2011-05-15T07:22:56Z</time>
      </trkpt>
      <trkpt lat="45.84364" lon="3.01008">
        <ele>766</ele>
        <time>2011-05-15T07:23:04Z</time>
      </trkpt>
      <trkpt lat="45.84368" lon="3.00972">
        <ele>767</ele>
        <time>2011-05-15T07:23:13Z</time>
      </trkpt>
      <trkpt lat="45.84364" lon="3.00932">
        <ele>770</ele>
        <time>2011-05-15T07:23:24Z</time>
      </trkpt>
      <trkpt lat="45.84359" lon="3.00918">
        <ele>770</ele>
        <time>2011-05-15T07:23:33Z</time>
      </trkpt>
      <trkpt lat="45.84361" lon="3.0091">
        <ele>768</ele>
        <time>2011-05-15T07:25:04Z</time>
      </trkpt>
      <trkpt lat="45.84368" lon="3.0093">
        <ele>765</ele>
        <time>2011-05-15T07:25:08Z</time>
      </trkpt>
      <trkpt lat="45.84379" lon="3.00961">
        <ele>763</ele>
        <time>2011-05-15T07:25:12Z</time>
      </trkpt>
      <trkpt lat="45.8439" lon="3.01004">
        <ele>761</ele>
        <time>2011-05-15T07:25:17Z</time>
      </trkpt>
      <trkpt lat="45.84397" lon="3.01021">
        <ele>760</ele>
        <time>2011-05-15T07:25:19Z</time>
      </trkpt>
      <trkpt lat="45.84422" lon="3.01065">
        <ele>756</ele>
        <time>2011-05-15T07:25:25Z</time>
      </trkpt>
      <trkpt lat="45.84431" lon="3.01085">
        <ele>751</ele>
        <time>2011-05-15T07:25:28Z</time>
      </trkpt>
      <trkpt lat="45.84445" lon="3.01109">
        <ele>748</ele>
        <time>2011-05-15T07:25:31Z</time>
      </trkpt>
      <trkpt lat="45.84452" lon="3.01123">
        <ele>748</ele>
        <time>2011-05-15T07:25:33Z</time>
      </trkpt>
      <trkpt lat="45.84462" lon="3.01154">
        <ele>744</ele>
        <time>2011-05-15T07:25:37Z</time>
      </trkpt>
      <trkpt lat="45.84463" lon="3.01164">
        <ele>742</ele>
        <time>2011-05-15T07:25:38Z</time>
      </trkpt>
      <trkpt lat="45.84473" lon="3.01217">
        <ele>744</ele>
        <time>2011-05-15T07:25:47Z</time>
      </trkpt>
      <trkpt lat="45.84485" lon="3.01239">
        <ele>744</ele>
        <time>2011-05-15T07:25:50Z</time>
      </trkpt>
      <trkpt lat="45.84483" lon="3.01275">
        <ele>742</ele>
        <time>2011-05-15T07:25:54Z</time>
      </trkpt>
      <trkpt lat="45.84484" lon="3.013">
        <ele>740</ele>
        <time>2011-05-15T07:25:57Z</time>
      </trkpt>
      <trkpt lat="45.84483" lon="3.01326">
        <ele>738</ele>
        <time>2011-05-15T07:26:00Z</time>
      </trkpt>
      <trkpt lat="45.84486" lon="3.01355">
        <ele>737</ele>
        <time>2011-05-15T07:26:03Z</time>
      </trkpt>
      <trkpt lat="45.84488" lon="3.01409">
        <ele>732</ele>
        <time>2011-05-15T07:26:08Z</time>
      </trkpt>
      <trkpt lat="45.84499" lon="3.01461">
        <ele>728</ele>
        <time>2011-05-15T07:26:13Z</time>
      </trkpt>
      <trkpt lat="45.84512" lon="3.01491">
        <ele>730</ele>
        <time>2011-05-15T07:26:19Z</time>
      </trkpt>
      <trkpt lat="45.84516" lon="3.01496">
        <ele>731</ele>
        <time>2011-05-15T07:26:20Z</time>
      </trkpt>
      <trkpt lat="45.8455" lon="3.01494">
        <ele>734</ele>
        <time>2011-05-15T07:26:29Z</time>
      </trkpt>
      <trkpt lat="45.84575" lon="3.0149">
        <ele>737</ele>
        <time>2011-05-15T07:26:39Z</time>
      </trkpt>
      <trkpt lat="45.84595" lon="3.01491">
        <ele>739</ele>
        <time>2011-05-15T07:26:49Z</time>
      </trkpt>
      <trkpt lat="45.84618" lon="3.01496">
        <ele>741</ele>
        <time>2011-05-15T07:26:57Z</time>
      </trkpt>
      <trkpt lat="45.84638" lon="3.015">
        <ele>742</ele>
        <time>2011-05-15T07:27:04Z</time>
      </trkpt>
      <trkpt lat="45.84655" lon="3.01509">
        <ele>742</ele>
        <time>2011-05-15T07:27:11Z</time>
      </trkpt>
      <trkpt lat="45.84698" lon="3.0152">
        <ele>745</ele>
        <time>2011-05-15T07:27:23Z</time>
      </trkpt>
      <trkpt lat="45.84744" lon="3.01534">
        <ele>745</ele>
        <time>2011-05-15T07:27:33Z</time>
      </trkpt>
      <trkpt lat="45.8479" lon="3.01569">
        <ele>743</ele>
        <time>2011-05-15T07:27:42Z</time>
      </trkpt>
      <trkpt lat="45.84821" lon="3.01604">
        <ele>742</ele>
        <time>2011-05-15T07:27:49Z</time>
      </trkpt>
      <trkpt lat="45.84837" lon="3.01625">
        <ele>741</ele>
        <time>2011-05-15T07:27:53Z</time>
      </trkpt>
      <trkpt lat="45.84843" lon="3.01633">
        <ele>741</ele>
        <time>2011-05-15T07:27:55Z</time>
      </trkpt>
      <trkpt lat="45.84865" lon="3.01657">
        <ele>742</ele>
        <time>2011-05-15T07:28:02Z</time>
      </trkpt>
      <trkpt lat="45.84887" lon="3.0172">
        <ele>743</ele>
        <time>2011-05-15T07:28:13Z</time>
      </trkpt>
      <trkpt lat="45.84903" lon="3.01778">
        <ele>745</ele>
        <time>2011-05-15T07:28:25Z</time>
      </trkpt>
      <trkpt lat="45.84913" lon="3.01825">
        <ele>746</ele>
        <time>2011-05-15T07:28:35Z</time>
      </trkpt>
      <trkpt lat="45.8492" lon="3.01885">
        <ele>747</ele>
        <time>2011-05-15T07:28:46Z</time>
      </trkpt>
      <trkpt lat="45.84939" lon="3.01941">
        <ele>749</ele>
        <time>2011-05-15T07:28:58Z</time>
      </trkpt>
      <trkpt lat="45.84962" lon="3.01987">
        <ele>752</ele>
        <time>2011-05-15T07:29:10Z</time>
      </trkpt>
      <trkpt lat="45.84988" lon="3.02026">
        <ele>752</ele>
        <time>2011-05-15T07:29:21Z</time>
      </trkpt>
      <trkpt lat="45.8501" lon="3.02054">
        <ele>750</ele>
        <time>2011-05-15T07:29:26Z</time>
      </trkpt>
      <trkpt lat="45.85067" lon="3.02092">
        <ele>749</ele>
        <time>2011-05-15T07:29:36Z</time>
      </trkpt>
      <trkpt lat="45.85108" lon="3.02105">
        <ele>750</ele>
        <time>2011-05-15T07:29:45Z</time>
      </trkpt>
      <trkpt lat="45.8515" lon="3.0211">
        <ele>751</ele>
        <time>2011-05-15T07:29:56Z</time>
      </trkpt>
      <trkpt lat="45.85184" lon="3.02116">
        <ele>753</ele>
        <time>2011-05-15T07:30:04Z</time>
      </trkpt>
      <trkpt lat="45.85229" lon="3.02122">
        <ele>753</ele>
        <time>2011-05-15T07:30:14Z</time>
      </trkpt>
      <trkpt lat="45.85242" lon="3.02123">
        <ele>753</ele>
        <time>2011-05-15T07:30:17Z</time>
      </trkpt>
      <trkpt lat="45.85268" lon="3.02105">
        <ele>754</ele>
        <time>2011-05-15T07:30:24Z</time>
      </trkpt>
      <trkpt lat="45.85275" lon="3.0209">
        <ele>756</ele>
        <time>2011-05-15T07:30:28Z</time>
      </trkpt>
      <trkpt lat="45.85285" lon="3.02051">
        <ele>759</ele>
        <time>2011-05-15T07:30:38Z</time>
      </trkpt>
      <trkpt lat="45.85288" lon="3.02015">
        <ele>762</ele>
        <time>2011-05-15T07:30:48Z</time>
      </trkpt>
      <trkpt lat="45.85284" lon="3.01976">
        <ele>764</ele>
        <time>2011-05-15T07:30:57Z</time>
      </trkpt>
      <trkpt lat="45.85282" lon="3.01958">
        <ele>764</ele>
        <time>2011-05-15T07:31:01Z</time>
      </trkpt>
      <trkpt lat="45.85287" lon="3.01956">
        <ele>764</ele>
        <time>2011-05-15T07:31:05Z</time>
      </trkpt>
      <trkpt lat="45.85322" lon="3.01972">
        <ele>763</ele>
        <time>2011-05-15T07:31:16Z</time>
      </trkpt>
      <trkpt lat="45.85352" lon="3.01997">
        <ele>762</ele>
        <time>2011-05-15T07:31:24Z</time>
      </trkpt>
      <trkpt lat="45.85369" lon="3.02009">
        <ele>762</ele>
        <time>2011-05-15T07:31:28Z</time>
      </trkpt>
      <trkpt lat="45.85382" lon="3.02018">
        <ele>762</ele>
        <time>2011-05-15T07:31:31Z</time>
      </trkpt>
      <trkpt lat="45.85418" lon="3.02018">
        <ele>762</ele>
        <time>2011-05-15T07:31:40Z</time>
      </trkpt>
      <trkpt lat="45.85443" lon="3.01976">
        <ele>762</ele>
        <time>2011-05-15T07:31:51Z</time>
      </trkpt>
      <trkpt lat="45.85462" lon="3.01927">
        <ele>762</ele>
        <time>2011-05-15T07:32:01Z</time>
      </trkpt>
      <trkpt lat="45.85477" lon="3.01886">
        <ele>763</ele>
        <time>2011-05-15T07:32:11Z</time>
      </trkpt>
      <trkpt lat="45.85489" lon="3.01847">
        <ele>765</ele>
        <time>2011-05-15T07:32:20Z</time>
      </trkpt>
      <trkpt lat="45.855" lon="3.01802">
        <ele>766</ele>
        <time>2011-05-15T07:32:29Z</time>
      </trkpt>
      <trkpt lat="45.85517" lon="3.01763">
        <ele>766</ele>
        <time>2011-05-15T07:32:38Z</time>
      </trkpt>
      <trkpt lat="45.85543" lon="3.01722">
        <ele>767</ele>
        <time>2011-05-15T07:32:47Z</time>
      </trkpt>
      <trkpt lat="45.85566" lon="3.01661">
        <ele>769</ele>
        <time>2011-05-15T07:32:59Z</time>
      </trkpt>
      <trkpt lat="45.85568" lon="3.01588">
        <ele>770</ele>
        <time>2011-05-15T07:33:12Z</time>
      </trkpt>
      <trkpt lat="45.85561" lon="3.01533">
        <ele>772</ele>
        <time>2011-05-15T07:33:23Z</time>
      </trkpt>
      <trkpt lat="45.85553" lon="3.01479">
        <ele>772</ele>
        <time>2011-05-15T07:33:34Z</time>
      </trkpt>
      <trkpt lat="45.8554" lon="3.01425">
        <ele>773</ele>
        <time>2011-05-15T07:33:45Z</time>
      </trkpt>
      <trkpt lat="45.8552" lon="3.01383">
        <ele>775</ele>
        <time>2011-05-15T07:33:56Z</time>
      </trkpt>
      <trkpt lat="45.85515" lon="3.01363">
        <ele>775</ele>
        <time>2011-05-15T07:34:05Z</time>
      </trkpt>
      <trkpt lat="45.85517" lon="3.01361">
        <ele>774</ele>
        <time>2011-05-15T07:35:11Z</time>
      </trkpt>
      <trkpt lat="45.85511" lon="3.01353">
        <ele>774</ele>
        <time>2011-05-15T07:35:21Z</time>
      </trkpt>
      <trkpt lat="45.85511" lon="3.01355">
        <ele>774</ele>
        <time>2011-05-15T07:35:31Z</time>
      </trkpt>
      <trkpt lat="45.85512" lon="3.01359">
        <ele>774</ele>
        <time>2011-05-15T07:35:34Z</time>
      </trkpt>
      <trkpt lat="45.85513" lon="3.01364">
        <ele>774</ele>
        <time>2011-05-15T07:35:47Z</time>
      </trkpt>
      <trkpt lat="45.85512" lon="3.01364">
        <ele>774</ele>
        <time>2011-05-15T07:38:34Z</time>
      </trkpt>
      <trkpt lat="45.85504" lon="3.01358">
        <ele>775</ele>
        <time>2011-05-15T07:38:40Z</time>
      </trkpt>
      <trkpt lat="45.85495" lon="3.01345">
        <ele>777</ele>
        <time>2011-05-15T07:38:46Z</time>
      </trkpt>
      <trkpt lat="45.85474" lon="3.01311">
        <ele>779</ele>
        <time>2011-05-15T07:38:57Z</time>
      </trkpt>
      <trkpt lat="45.85451" lon="3.0127">
        <ele>779</ele>
        <time>2011-05-15T07:39:07Z</time>
      </trkpt>
      <trkpt lat="45.85422" lon="3.01223">
        <ele>779</ele>
        <time>2011-05-15T07:39:18Z</time>
      </trkpt>
      <trkpt lat="45.85391" lon="3.01171">
        <ele>781</ele>
        <time>2011-05-15T07:39:30Z</time>
      </trkpt>
      <trkpt lat="45.85356" lon="3.01115">
        <ele>780</ele>
        <time>2011-05-15T07:39:43Z</time>
      </trkpt>
      <trkpt lat="45.85322" lon="3.01067">
        <ele>779</ele>
        <time>2011-05-15T07:39:54Z</time>
      </trkpt>
      <trkpt lat="45.85298" lon="3.00989">
        <ele>779</ele>
        <time>2011-05-15T07:40:06Z</time>
      </trkpt>
      <trkpt lat="45.85267" lon="3.00899">
        <ele>780</ele>
        <time>2011-05-15T07:40:20Z</time>
      </trkpt>
      <trkpt lat="45.85241" lon="3.00818">
        <ele>781</ele>
        <time>2011-05-15T07:40:33Z</time>
      </trkpt>
      <trkpt lat="45.85218" lon="3.00752">
        <ele>784</ele>
        <time>2011-05-15T07:40:45Z</time>
      </trkpt>
      <trkpt lat="45.85206" lon="3.00706">
        <ele>786</ele>
        <time>2011-05-15T07:40:54Z</time>
      </trkpt>
      <trkpt lat="45.85196" lon="3.00655">
        <ele>789</ele>
        <time>2011-05-15T07:41:04Z</time>
      </trkpt>
      <trkpt lat="45.85188" lon="3.00602">
        <ele>791</ele>
        <time>2011-05-15T07:41:14Z</time>
      </trkpt>
      <trkpt lat="45.85181" lon="3.00547">
        <ele>792</ele>
        <time>2011-05-15T07:41:25Z</time>
      </trkpt>
      <trkpt lat="45.8518" lon="3.00507">
        <ele>794</ele>
        <time>2011-05-15T07:41:34Z</time>
      </trkpt>
      <trkpt lat="45.85173" lon="3.00469">
        <ele>795</ele>
        <time>2011-05-15T07:41:43Z</time>
      </trkpt>
      <trkpt lat="45.85178" lon="3.00421">
        <ele>798</ele>
        <time>2011-05-15T07:41:54Z</time>
      </trkpt>
      <trkpt lat="45.85197" lon="3.00377">
        <ele>797</ele>
        <time>2011-05-15T07:42:04Z</time>
      </trkpt>
      <trkpt lat="45.85204" lon="3.00364">
        <ele>797</ele>
        <time>2011-05-15T07:42:07Z</time>
      </trkpt>
      <trkpt lat="45.85224" lon="3.00326">
        <ele>795</ele>
        <time>2011-05-15T07:42:13Z</time>
      </trkpt>
      <trkpt lat="45.85254" lon="3.00268">
        <ele>794</ele>
        <time>2011-05-15T07:42:22Z</time>
      </trkpt>
      <trkpt lat="45.8527" lon="3.00234">
        <ele>793</ele>
        <time>2011-05-15T07:42:28Z</time>
      </trkpt>
      <trkpt lat="45.85297" lon="3.00184">
        <ele>793</ele>
        <time>2011-05-15T07:42:38Z</time>
      </trkpt>
      <trkpt lat="45.85306" lon="3.00171">
        <ele>793</ele>
        <time>2011-05-15T07:42:41Z</time>
      </trkpt>
      <trkpt lat="45.85319" lon="3.00141">
        <ele>793</ele>
        <time>2011-05-15T07:42:47Z</time>
      </trkpt>
      <trkpt lat="45.85326" lon="3.00121">
        <ele>793</ele>
        <time>2011-05-15T07:42:51Z</time>
      </trkpt>
      <trkpt lat="45.85342" lon="3.00088">
        <ele>794</ele>
        <time>2011-05-15T07:42:59Z</time>
      </trkpt>
      <trkpt lat="45.85363" lon="3.00039">
        <ele>795</ele>
        <time>2011-05-15T07:43:09Z</time>
      </trkpt>
      <trkpt lat="45.85364" lon="3.00029">
        <ele>794</ele>
        <time>2011-05-15T07:43:11Z</time>
      </trkpt>
      <trkpt lat="45.85358" lon="3.00009">
        <ele>795</ele>
        <time>2011-05-15T07:43:16Z</time>
      </trkpt>
      <trkpt lat="45.85334" lon="2.99991">
        <ele>798</ele>
        <time>2011-05-15T07:43:28Z</time>
      </trkpt>
      <trkpt lat="45.85305" lon="2.9997">
        <ele>800</ele>
        <time>2011-05-15T07:43:38Z</time>
      </trkpt>
      <trkpt lat="45.85275" lon="2.99953">
        <ele>801</ele>
        <time>2011-05-15T07:43:45Z</time>
      </trkpt>
      <trkpt lat="45.85246" lon="2.99934">
        <ele>803</ele>
        <time>2011-05-15T07:43:54Z</time>
      </trkpt>
      <trkpt lat="45.85228" lon="2.99918">
        <ele>805</ele>
        <time>2011-05-15T07:44:02Z</time>
      </trkpt>
      <trkpt lat="45.85216" lon="2.99897">
        <ele>806</ele>
        <time>2011-05-15T07:44:12Z</time>
      </trkpt>
      <trkpt lat="45.85201" lon="2.99876">
        <ele>807</ele>
        <time>2011-05-15T07:44:21Z</time>
      </trkpt>
      <trkpt lat="45.85173" lon="2.99859">
        <ele>808</ele>
        <time>2011-05-15T07:44:32Z</time>
      </trkpt>
      <trkpt lat="45.8514" lon="2.99843">
        <ele>811</ele>
        <time>2011-05-15T07:44:42Z</time>
      </trkpt>
      <trkpt lat="45.85113" lon="2.99825">
        <ele>814</ele>
        <time>2011-05-15T07:44:53Z</time>
      </trkpt>
      <trkpt lat="45.85099" lon="2.99806">
        <ele>816</ele>
        <time>2011-05-15T07:44:59Z</time>
      </trkpt>
      <trkpt lat="45.85054" lon="2.99774">
        <ele>818</ele>
        <time>2011-05-15T07:45:11Z</time>
      </trkpt>
      <trkpt lat="45.85026" lon="2.99759">
        <ele>818</ele>
        <time>2011-05-15T07:45:19Z</time>
      </trkpt>
      <trkpt lat="45.84991" lon="2.99733">
        <ele>817</ele>
        <time>2011-05-15T07:45:28Z</time>
      </trkpt>
      <trkpt lat="45.84966" lon="2.99702">
        <ele>818</ele>
        <time>2011-05-15T07:45:37Z</time>
      </trkpt>
      <trkpt lat="45.84918" lon="2.99667">
        <ele>819</ele>
        <time>2011-05-15T07:45:47Z</time>
      </trkpt>
      <trkpt lat="45.84894" lon="2.99632">
        <ele>818</ele>
        <time>2011-05-15T07:45:55Z</time>
      </trkpt>
      <trkpt lat="45.84876" lon="2.99607">
        <ele>819</ele>
        <time>2011-05-15T07:46:02Z</time>
      </trkpt>
      <trkpt lat="45.84852" lon="2.99571">
        <ele>819</ele>
        <time>2011-05-15T07:46:11Z</time>
      </trkpt>
      <trkpt lat="45.84849" lon="2.99569">
        <ele>819</ele>
        <time>2011-05-15T07:46:12Z</time>
      </trkpt>
      <trkpt lat="45.8482" lon="2.99524">
        <ele>820</ele>
        <time>2011-05-15T07:46:22Z</time>
      </trkpt>
      <trkpt lat="45.848" lon="2.99497">
        <ele>822</ele>
        <time>2011-05-15T07:46:29Z</time>
      </trkpt>
      <trkpt lat="45.84774" lon="2.99469">
        <ele>824</ele>
        <time>2011-05-15T07:46:38Z</time>
      </trkpt>
      <trkpt lat="45.84747" lon="2.99443">
        <ele>825</ele>
        <time>2011-05-15T07:46:48Z</time>
      </trkpt>
      <trkpt lat="45.84726" lon="2.99419">
        <ele>827</ele>
        <time>2011-05-15T07:46:55Z</time>
      </trkpt>
      <trkpt lat="45.84704" lon="2.99388">
        <ele>829</ele>
        <time>2011-05-15T07:47:06Z</time>
      </trkpt>
      <trkpt lat="45.84677" lon="2.99356">
        <ele>831</ele>
        <time>2011-05-15T07:47:16Z</time>
      </trkpt>
      <trkpt lat="45.84651" lon="2.99329">
        <ele>831</ele>
        <time>2011-05-15T07:47:26Z</time>
      </trkpt>
      <trkpt lat="45.8464" lon="2.99314">
        <ele>832</ele>
        <time>2011-05-15T07:47:31Z</time>
      </trkpt>
      <trkpt lat="45.84598" lon="2.99279">
        <ele>834</ele>
        <time>2011-05-15T07:47:43Z</time>
      </trkpt>
      <trkpt lat="45.84562" lon="2.99264">
        <ele>834</ele>
        <time>2011-05-15T07:47:52Z</time>
      </trkpt>
      <trkpt lat="45.84525" lon="2.99243">
        <ele>834</ele>
        <time>2011-05-15T07:47:59Z</time>
      </trkpt>
      <trkpt lat="45.84485" lon="2.99225">
        <ele>835</ele>
        <time>2011-05-15T07:48:07Z</time>
      </trkpt>
      <trkpt lat="45.84478" lon="2.99217">
        <ele>835</ele>
        <time>2011-05-15T07:48:09Z</time>
      </trkpt>
      <trkpt lat="45.84463" lon="2.99207">
        <ele>835</ele>
        <time>2011-05-15T07:48:11Z</time>
      </trkpt>
      <trkpt lat="45.84425" lon="2.99185">
        <ele>835</ele>
        <time>2011-05-15T07:48:17Z</time>
      </trkpt>
      <trkpt lat="45.84386" lon="2.99155">
        <ele>836</ele>
        <time>2011-05-15T07:48:26Z</time>
      </trkpt>
      <trkpt lat="45.84363" lon="2.99133">
        <ele>836</ele>
        <time>2011-05-15T07:48:34Z</time>
      </trkpt>
      <trkpt lat="45.84341" lon="2.99115">
        <ele>837</ele>
        <time>2011-05-15T07:48:40Z</time>
      </trkpt>
      <trkpt lat="45.84315" lon="2.99095">
        <ele>839</ele>
        <time>2011-05-15T07:48:47Z</time>
      </trkpt>
      <trkpt lat="45.84305" lon="2.99087">
        <ele>840</ele>
        <time>2011-05-15T07:48:50Z</time>
      </trkpt>
      <trkpt lat="45.84288" lon="2.99073">
        <ele>841</ele>
        <time>2011-05-15T07:48:55Z</time>
      </trkpt>
      <trkpt lat="45.84259" lon="2.99048">
        <ele>842</ele>
        <time>2011-05-15T07:49:04Z</time>
      </trkpt>
      <trkpt lat="45.84233" lon="2.99022">
        <ele>844</ele>
        <time>2011-05-15T07:49:14Z</time>
      </trkpt>
      <trkpt lat="45.84213" lon="2.99002">
        <ele>844</ele>
        <time>2011-05-15T07:49:21Z</time>
      </trkpt>
      <trkpt lat="45.84187" lon="2.98974">
        <ele>845</ele>
        <time>2011-05-15T07:49:30Z</time>
      </trkpt>
      <trkpt lat="45.84172" lon="2.98954">
        <ele>846</ele>
        <time>2011-05-15T07:49:35Z</time>
      </trkpt>
      <trkpt lat="45.84109" lon="2.98918">
        <ele>847</ele>
        <time>2011-05-15T07:49:50Z</time>
      </trkpt>
      <trkpt lat="45.84092" lon="2.989">
        <ele>848</ele>
        <time>2011-05-15T07:49:59Z</time>
      </trkpt>
      <trkpt lat="45.84068" lon="2.98883">
        <ele>848</ele>
        <time>2011-05-15T07:50:09Z</time>
      </trkpt>
      <trkpt lat="45.84045" lon="2.98876">
        <ele>849</ele>
        <time>2011-05-15T07:50:17Z</time>
      </trkpt>
      <trkpt lat="45.84001" lon="2.98855">
        <ele>850</ele>
        <time>2011-05-15T07:50:26Z</time>
      </trkpt>
      <trkpt lat="45.83984" lon="2.98839">
        <ele>850</ele>
        <time>2011-05-15T07:50:31Z</time>
      </trkpt>
      <trkpt lat="45.83947" lon="2.98807">
        <ele>852</ele>
        <time>2011-05-15T07:50:42Z</time>
      </trkpt>
      <trkpt lat="45.83906" lon="2.98771">
        <ele>853</ele>
        <time>2011-05-15T07:50:52Z</time>
      </trkpt>
      <trkpt lat="45.83884" lon="2.98751">
        <ele>854</ele>
        <time>2011-05-15T07:50:59Z</time>
      </trkpt>
      <trkpt lat="45.83858" lon="2.98726">
        <ele>856</ele>
        <time>2011-05-15T07:51:07Z</time>
      </trkpt>
      <trkpt lat="45.83842" lon="2.98677">
        <ele>856</ele>
        <time>2011-05-15T07:51:17Z</time>
      </trkpt>
      <trkpt lat="45.83833" lon="2.98635">
        <ele>859</ele>
        <time>2011-05-15T07:51:26Z</time>
      </trkpt>
      <trkpt lat="45.83816" lon="2.9861">
        <ele>861</ele>
        <time>2011-05-15T07:51:35Z</time>
      </trkpt>
      <trkpt lat="45.83802" lon="2.98575">
        <ele>864</ele>
        <time>2011-05-15T07:51:44Z</time>
      </trkpt>
      <trkpt lat="45.83789" lon="2.9854">
        <ele>867</ele>
        <time>2011-05-15T07:51:54Z</time>
      </trkpt>
      <trkpt lat="45.83789" lon="2.98537">
        <ele>867</ele>
        <time>2011-05-15T07:51:55Z</time>
      </trkpt>
      <trkpt lat="45.83788" lon="2.98533">
        <ele>867</ele>
        <time>2011-05-15T07:51:56Z</time>
      </trkpt>
      <trkpt lat="45.83789" lon="2.98518">
        <ele>868</ele>
        <time>2011-05-15T07:52:00Z</time>
      </trkpt>
      <trkpt lat="45.83793" lon="2.98505">
        <ele>871</ele>
        <time>2011-05-15T07:52:05Z</time>
      </trkpt>
      <trkpt lat="45.83807" lon="2.98482">
        <ele>872</ele>
        <time>2011-05-15T07:52:14Z</time>
      </trkpt>
      <trkpt lat="45.8381" lon="2.98476">
        <ele>873</ele>
        <time>2011-05-15T07:52:16Z</time>
      </trkpt>
      <trkpt lat="45.83822" lon="2.9844">
        <ele>874</ele>
        <time>2011-05-15T07:52:26Z</time>
      </trkpt>
      <trkpt lat="45.83836" lon="2.98401">
        <ele>876</ele>
        <time>2011-05-15T07:52:36Z</time>
      </trkpt>
      <trkpt lat="45.83836" lon="2.98365">
        <ele>879</ele>
        <time>2011-05-15T07:52:46Z</time>
      </trkpt>
      <trkpt lat="45.83833" lon="2.98331">
        <ele>881</ele>
        <time>2011-05-15T07:52:55Z</time>
      </trkpt>
      <trkpt lat="45.8384" lon="2.98303">
        <ele>883</ele>
        <time>2011-05-15T07:53:03Z</time>
      </trkpt>
      <trkpt lat="45.83847" lon="2.98267">
        <ele>886</ele>
        <time>2011-05-15T07:53:14Z</time>
      </trkpt>
      <trkpt lat="45.83851" lon="2.98231">
        <ele>888</ele>
        <time>2011-05-15T07:53:24Z</time>
      </trkpt>
      <trkpt lat="45.83853" lon="2.98191">
        <ele>889</ele>
        <time>2011-05-15T07:53:34Z</time>
      </trkpt>
      <trkpt lat="45.83852" lon="2.98145">
        <ele>890</ele>
        <time>2011-05-15T07:53:45Z</time>
      </trkpt>
      <trkpt lat="45.83848" lon="2.98083">
        <ele>892</ele>
        <time>2011-05-15T07:54:00Z</time>
      </trkpt>
      <trkpt lat="45.83844" lon="2.98036">
        <ele>893</ele>
        <time>2011-05-15T07:54:11Z</time>
      </trkpt>
      <trkpt lat="45.83839" lon="2.97995">
        <ele>895</ele>
        <time>2011-05-15T07:54:22Z</time>
      </trkpt>
      <trkpt lat="45.8384" lon="2.97946">
        <ele>895</ele>
        <time>2011-05-15T07:54:32Z</time>
      </trkpt>
      <trkpt lat="45.83841" lon="2.97898">
        <ele>896</ele>
        <time>2011-05-15T07:54:42Z</time>
      </trkpt>
      <trkpt lat="45.83838" lon="2.97853">
        <ele>897</ele>
        <time>2011-05-15T07:54:51Z</time>
      </trkpt>
      <trkpt lat="45.83841" lon="2.97804">
        <ele>899</ele>
        <time>2011-05-15T07:55:02Z</time>
      </trkpt>
      <trkpt lat="45.83836" lon="2.97759">
        <ele>902</ele>
        <time>2011-05-15T07:55:13Z</time>
      </trkpt>
      <trkpt lat="45.83843" lon="2.9772">
        <ele>904</ele>
        <time>2011-05-15T07:55:23Z</time>
      </trkpt>
      <trkpt lat="45.83836" lon="2.97667">
        <ele>906</ele>
        <time>2011-05-15T07:55:35Z</time>
      </trkpt>
      <trkpt lat="45.83838" lon="2.97622">
        <ele>906</ele>
        <time>2011-05-15T07:55:44Z</time>
      </trkpt>
      <trkpt lat="45.83838" lon="2.97564">
        <ele>908</ele>
        <time>2011-05-15T07:55:56Z</time>
      </trkpt>
      <trkpt lat="45.83834" lon="2.97516">
        <ele>910</ele>
        <time>2011-05-15T07:56:05Z</time>
      </trkpt>
      <trkpt lat="45.83831" lon="2.97486">
        <ele>911</ele>
        <time>2011-05-15T07:56:12Z</time>
      </trkpt>
      <trkpt lat="45.83825" lon="2.97443">
        <ele>912</ele>
        <time>2011-05-15T07:56:24Z</time>
      </trkpt>
      <trkpt lat="45.83819" lon="2.97406">
        <ele>913</ele>
        <time>2011-05-15T07:56:33Z</time>
      </trkpt>
      <trkpt lat="45.83815" lon="2.97387">
        <ele>914</ele>
        <time>2011-05-15T07:56:37Z</time>
      </trkpt>
      <trkpt lat="45.8381" lon="2.97324">
        <ele>915</ele>
        <time>2011-05-15T07:56:52Z</time>
      </trkpt>
      <trkpt lat="45.83792" lon="2.97283">
        <ele>916</ele>
        <time>2011-05-15T07:57:02Z</time>
      </trkpt>
      <trkpt lat="45.83785" lon="2.97239">
        <ele>917</ele>
        <time>2011-05-15T07:57:11Z</time>
      </trkpt>
      <trkpt lat="45.83782" lon="2.97204">
        <ele>918</ele>
        <time>2011-05-15T07:57:20Z</time>
      </trkpt>
      <trkpt lat="45.83778" lon="2.97197">
        <ele>918</ele>
        <time>2011-05-15T07:57:34Z</time>
      </trkpt>
      <trkpt lat="45.8377" lon="2.97194">
        <ele>919</ele>
        <time>2011-05-15T07:57:51Z</time>
      </trkpt>
      <trkpt lat="45.83734" lon="2.97174">
        <ele>921</ele>
        <time>2011-05-15T07:58:04Z</time>
      </trkpt>
      <trkpt lat="45.83717" lon="2.97163">
        <ele>921</ele>
        <time>2011-05-15T07:58:10Z</time>
      </trkpt>
      <trkpt lat="45.83695" lon="2.97148">
        <ele>922</ele>
        <time>2011-05-15T07:58:15Z</time>
      </trkpt>
      <trkpt lat="45.83666" lon="2.97126">
        <ele>923</ele>
        <time>2011-05-15T07:58:25Z</time>
      </trkpt>
      <trkpt lat="45.83651" lon="2.97106">
        <ele>925</ele>
        <time>2011-05-15T07:58:33Z</time>
      </trkpt>
      <trkpt lat="45.8363" lon="2.97083">
        <ele>928</ele>
        <time>2011-05-15T07:58:42Z</time>
      </trkpt>
      <trkpt lat="45.83613" lon="2.97063">
        <ele>931</ele>
        <time>2011-05-15T07:58:51Z</time>
      </trkpt>
      <trkpt lat="45.83589" lon="2.97042">
        <ele>934</ele>
        <time>2011-05-15T07:59:00Z</time>
      </trkpt>
      <trkpt lat="45.83569" lon="2.97022">
        <ele>936</ele>
        <time>2011-05-15T07:59:10Z</time>
      </trkpt>
      <trkpt lat="45.83557" lon="2.97008">
        <ele>938</ele>
        <time>2011-05-15T07:59:18Z</time>
      </trkpt>
      <trkpt lat="45.83542" lon="2.96981">
        <ele>939</ele>
        <time>2011-05-15T07:59:28Z</time>
      </trkpt>
      <trkpt lat="45.83521" lon="2.96954">
        <ele>941</ele>
        <time>2011-05-15T07:59:40Z</time>
      </trkpt>
      <trkpt lat="45.83501" lon="2.96936">
        <ele>942</ele>
        <time>2011-05-15T07:59:49Z</time>
      </trkpt>
      <trkpt lat="45.83499" lon="2.96935">
        <ele>942</ele>
        <time>2011-05-15T07:59:50Z</time>
      </trkpt>
      <trkpt lat="45.83467" lon="2.96904">
        <ele>943</ele>
        <time>2011-05-15T08:00:02Z</time>
      </trkpt>
      <trkpt lat="45.83444" lon="2.96883">
        <ele>944</ele>
        <time>2011-05-15T08:00:11Z</time>
      </trkpt>
      <trkpt lat="45.8342" lon="2.96848">
        <ele>946</ele>
        <time>2011-05-15T08:00:22Z</time>
      </trkpt>
      <trkpt lat="45.834" lon="2.96816">
        <ele>946</ele>
        <time>2011-05-15T08:00:30Z</time>
      </trkpt>
      <trkpt lat="45.83389" lon="2.96796">
        <ele>946</ele>
        <time>2011-05-15T08:00:36Z</time>
      </trkpt>
      <trkpt lat="45.83377" lon="2.96764">
        <ele>947</ele>
        <time>2011-05-15T08:00:42Z</time>
      </trkpt>
      <trkpt lat="45.83365" lon="2.96726">
        <ele>948</ele>
        <time>2011-05-15T08:00:51Z</time>
      </trkpt>
      <trkpt lat="45.83352" lon="2.96683">
        <ele>948</ele>
        <time>2011-05-15T08:01:00Z</time>
      </trkpt>
      <trkpt lat="45.83342" lon="2.96658">
        <ele>948</ele>
        <time>2011-05-15T08:01:06Z</time>
      </trkpt>
      <trkpt lat="45.83337" lon="2.9661">
        <ele>950</ele>
        <time>2011-05-15T08:01:14Z</time>
      </trkpt>
      <trkpt lat="45.83332" lon="2.96572">
        <ele>951</ele>
        <time>2011-05-15T08:01:20Z</time>
      </trkpt>
      <trkpt lat="45.83327" lon="2.96545">
        <ele>952</ele>
        <time>2011-05-15T08:01:27Z</time>
      </trkpt>
      <trkpt lat="45.83316" lon="2.96503">
        <ele>953</ele>
        <time>2011-05-15T08:01:34Z</time>
      </trkpt>
      <trkpt lat="45.83305" lon="2.96466">
        <ele>955</ele>
        <time>2011-05-15T08:01:41Z</time>
      </trkpt>
      <trkpt lat="45.83296" lon="2.96436">
        <ele>957</ele>
        <time>2011-05-15T08:01:48Z</time>
      </trkpt>
      <trkpt lat="45.83294" lon="2.96433">
        <ele>957</ele>
        <time>2011-05-15T08:01:49Z</time>
      </trkpt>
      <trkpt lat="45.83296" lon="2.9642">
        <ele>958</ele>
        <time>2011-05-15T08:01:53Z</time>
      </trkpt>
      <trkpt lat="45.83289" lon="2.964">
        <ele>959</ele>
        <time>2011-05-15T08:01:59Z</time>
      </trkpt>
      <trkpt lat="45.83282" lon="2.96373">
        <ele>960</ele>
        <time>2011-05-15T08:02:05Z</time>
      </trkpt>
      <trkpt lat="45.8326" lon="2.96334">
        <ele>962</ele>
        <time>2011-05-15T08:02:13Z</time>
      </trkpt>
      <trkpt lat="45.83249" lon="2.96301">
        <ele>965</ele>
        <time>2011-05-15T08:02:22Z</time>
      </trkpt>
      <trkpt lat="45.83246" lon="2.9629">
        <ele>966</ele>
        <time>2011-05-15T08:02:26Z</time>
      </trkpt>
      <trkpt lat="45.83229" lon="2.96253">
        <ele>969</ele>
        <time>2011-05-15T08:02:36Z</time>
      </trkpt>
      <trkpt lat="45.83223" lon="2.96216">
        <ele>970</ele>
        <time>2011-05-15T08:02:45Z</time>
      </trkpt>
      <trkpt lat="45.83223" lon="2.96176">
        <ele>973</ele>
        <time>2011-05-15T08:02:54Z</time>
      </trkpt>
      <trkpt lat="45.83214" lon="2.96146">
        <ele>974</ele>
        <time>2011-05-15T08:03:04Z</time>
      </trkpt>
      <trkpt lat="45.83198" lon="2.96129">
        <ele>976</ele>
        <time>2011-05-15T08:03:14Z</time>
      </trkpt>
      <trkpt lat="45.83197" lon="2.96125">
        <ele>977</ele>
        <time>2011-05-15T08:03:17Z</time>
      </trkpt>
      <trkpt lat="45.83184" lon="2.96105">
        <ele>980</ele>
        <time>2011-05-15T08:03:26Z</time>
      </trkpt>
      <trkpt lat="45.83179" lon="2.96089">
        <ele>982</ele>
        <time>2011-05-15T08:03:34Z</time>
      </trkpt>
      <trkpt lat="45.83177" lon="2.96086">
        <ele>982</ele>
        <time>2011-05-15T08:03:36Z</time>
      </trkpt>
      <trkpt lat="45.83164" lon="2.96071">
        <ele>984</ele>
        <time>2011-05-15T08:03:44Z</time>
      </trkpt>
      <trkpt lat="45.83155" lon="2.96052">
        <ele>987</ele>
        <time>2011-05-15T08:03:56Z</time>
      </trkpt>
      <trkpt lat="45.83142" lon="2.9603">
        <ele>990</ele>
        <time>2011-05-15T08:04:06Z</time>
      </trkpt>
      <trkpt lat="45.83141" lon="2.9602">
        <ele>992</ele>
        <time>2011-05-15T08:04:12Z</time>
      </trkpt>
      <trkpt lat="45.8314" lon="2.95999">
        <ele>995</ele>
        <time>2011-05-15T08:04:24Z</time>
      </trkpt>
      <trkpt lat="45.83127" lon="2.95981">
        <ele>998</ele>
        <time>2011-05-15T08:04:37Z</time>
      </trkpt>
      <trkpt lat="45.83125" lon="2.95967">
        <ele>1001</ele>
        <time>2011-05-15T08:04:49Z</time>
      </trkpt>
      <trkpt lat="45.83111" lon="2.95949">
        <ele>1005</ele>
        <time>2011-05-15T08:05:03Z</time>
      </trkpt>
      <trkpt lat="45.83109" lon="2.95946">
        <ele>1005</ele>
        <time>2011-05-15T08:05:04Z</time>
      </trkpt>
      <trkpt lat="45.83106" lon="2.95929">
        <ele>1009</ele>
        <time>2011-05-15T08:05:16Z</time>
      </trkpt>
      <trkpt lat="45.83094" lon="2.95908">
        <ele>1012</ele>
        <time>2011-05-15T08:05:32Z</time>
      </trkpt>
      <trkpt lat="45.83085" lon="2.95898">
        <ele>1014</ele>
        <time>2011-05-15T08:05:43Z</time>
      </trkpt>
      <trkpt lat="45.83077" lon="2.95896">
        <ele>1017</ele>
        <time>2011-05-15T08:05:53Z</time>
      </trkpt>
      <trkpt lat="45.83066" lon="2.95887">
        <ele>1018</ele>
        <time>2011-05-15T08:06:00Z</time>
      </trkpt>
      <trkpt lat="45.83056" lon="2.95882">
        <ele>1020</ele>
        <time>2011-05-15T08:06:04Z</time>
      </trkpt>
      <trkpt lat="45.83052" lon="2.95876">
        <ele>1021</ele>
        <time>2011-05-15T08:06:08Z</time>
      </trkpt>
      <trkpt lat="45.83048" lon="2.95859">
        <ele>1025</ele>
        <time>2011-05-15T08:06:20Z</time>
      </trkpt>
      <trkpt lat="45.83048" lon="2.95854">
        <ele>1025</ele>
        <time>2011-05-15T08:06:22Z</time>
      </trkpt>
      <trkpt lat="45.83045" lon="2.95841">
        <ele>1026</ele>
        <time>2011-05-15T08:06:26Z</time>
      </trkpt>
      <trkpt lat="45.83031" lon="2.95841">
        <ele>1025</ele>
        <time>2011-05-15T08:06:38Z</time>
      </trkpt>
      <trkpt lat="45.83029" lon="2.95839">
        <ele>1024</ele>
        <time>2011-05-15T08:08:43Z</time>
      </trkpt>
      <trkpt lat="45.83049" lon="2.95832">
        <ele>1024</ele>
        <time>2011-05-15T08:08:52Z</time>
      </trkpt>
      <trkpt lat="45.83078" lon="2.95807">
        <ele>1026</ele>
        <time>2011-05-15T08:09:04Z</time>
      </trkpt>
      <trkpt lat="45.83098" lon="2.95785">
        <ele>1027</ele>
        <time>2011-05-15T08:09:12Z</time>
      </trkpt>
      <trkpt lat="45.83107" lon="2.95772">
        <ele>1027</ele>
        <time>2011-05-15T08:09:16Z</time>
      </trkpt>
      <trkpt lat="45.83117" lon="2.9573">
        <ele>1028</ele>
        <time>2011-05-15T08:09:25Z</time>
      </trkpt>
      <trkpt lat="45.8312" lon="2.95691">
        <ele>1029</ele>
        <time>2011-05-15T08:09:32Z</time>
      </trkpt>
      <trkpt lat="45.83121" lon="2.95643">
        <ele>1029</ele>
        <time>2011-05-15T08:09:41Z</time>
      </trkpt>
      <trkpt lat="45.83123" lon="2.95591">
        <ele>1028</ele>
        <time>2011-05-15T08:09:51Z</time>
      </trkpt>
      <trkpt lat="45.83111" lon="2.95532">
        <ele>1028</ele>
        <time>2011-05-15T08:10:00Z</time>
      </trkpt>
      <trkpt lat="45.83104" lon="2.95453">
        <ele>1031</ele>
        <time>2011-05-15T08:10:11Z</time>
      </trkpt>
      <trkpt lat="45.83101" lon="2.9544">
        <ele>1031</ele>
        <time>2011-05-15T08:10:13Z</time>
      </trkpt>
      <trkpt lat="45.8308" lon="2.95396">
        <ele>1032</ele>
        <time>2011-05-15T08:10:20Z</time>
      </trkpt>
      <trkpt lat="45.83076" lon="2.95384">
        <ele>1032</ele>
        <time>2011-05-15T08:10:23Z</time>
      </trkpt>
      <trkpt lat="45.83061" lon="2.95371">
        <ele>1031</ele>
        <time>2011-05-15T08:10:29Z</time>
      </trkpt>
      <trkpt lat="45.8306" lon="2.9537">
        <ele>1032</ele>
        <time>2011-05-15T08:10:33Z</time>
      </trkpt>
      <trkpt lat="45.83057" lon="2.95366">
        <ele>1033</ele>
        <time>2011-05-15T08:10:35Z</time>
      </trkpt>
      <trkpt lat="45.83058" lon="2.95378">
        <ele>1034</ele>
        <time>2011-05-15T08:10:41Z</time>
      </trkpt>
      <trkpt lat="45.83053" lon="2.95376">
        <ele>1035</ele>
        <time>2011-05-15T08:10:45Z</time>
      </trkpt>
      <trkpt lat="45.8303" lon="2.9538">
        <ele>1036</ele>
        <time>2011-05-15T08:10:53Z</time>
      </trkpt>
      <trkpt lat="45.8301" lon="2.95361">
        <ele>1037</ele>
        <time>2011-05-15T08:11:02Z</time>
      </trkpt>
      <trkpt lat="45.82997" lon="2.95343">
        <ele>1039</ele>
        <time>2011-05-15T08:11:13Z</time>
      </trkpt>
      <trkpt lat="45.82985" lon="2.9533">
        <ele>1041</ele>
        <time>2011-05-15T08:11:22Z</time>
      </trkpt>
      <trkpt lat="45.82977" lon="2.95317">
        <ele>1042</ele>
        <time>2011-05-15T08:11:31Z</time>
      </trkpt>
      <trkpt lat="45.82965" lon="2.95306">
        <ele>1044</ele>
        <time>2011-05-15T08:11:42Z</time>
      </trkpt>
      <trkpt lat="45.82953" lon="2.95287">
        <ele>1045</ele>
        <time>2011-05-15T08:11:51Z</time>
      </trkpt>
      <trkpt lat="45.82948" lon="2.95278">
        <ele>1045</ele>
        <time>2011-05-15T08:11:55Z</time>
      </trkpt>
      <trkpt lat="45.82935" lon="2.95269">
        <ele>1046</ele>
        <time>2011-05-15T08:12:00Z</time>
      </trkpt>
      <trkpt lat="45.82919" lon="2.95261">
        <ele>1048</ele>
        <time>2011-05-15T08:12:10Z</time>
      </trkpt>
      <trkpt lat="45.82897" lon="2.95245">
        <ele>1050</ele>
        <time>2011-05-15T08:12:21Z</time>
      </trkpt>
      <trkpt lat="45.82877" lon="2.95226">
        <ele>1050</ele>
        <time>2011-05-15T08:12:32Z</time>
      </trkpt>
      <trkpt lat="45.82856" lon="2.95219">
        <ele>1052</ele>
        <time>2011-05-15T08:12:42Z</time>
      </trkpt>
      <trkpt lat="45.82849" lon="2.95214">
        <ele>1053</ele>
        <time>2011-05-15T08:12:46Z</time>
      </trkpt>
      <trkpt lat="45.82837" lon="2.95212">
        <ele>1055</ele>
        <time>2011-05-15T08:12:54Z</time>
      </trkpt>
      <trkpt lat="45.8282" lon="2.95209">
        <ele>1057</ele>
        <time>2011-05-15T08:13:01Z</time>
      </trkpt>
      <trkpt lat="45.82801" lon="2.95205">
        <ele>1058</ele>
        <time>2011-05-15T08:13:12Z</time>
      </trkpt>
      <trkpt lat="45.82785" lon="2.9519">
        <ele>1060</ele>
        <time>2011-05-15T08:13:24Z</time>
      </trkpt>
      <trkpt lat="45.82786" lon="2.95181">
        <ele>1062</ele>
        <time>2011-05-15T08:13:32Z</time>
      </trkpt>
      <trkpt lat="45.82788" lon="2.95185">
        <ele>1063</ele>
        <time>2011-05-15T08:13:40Z</time>
      </trkpt>
      <trkpt lat="45.82773" lon="2.95184">
        <ele>1067</ele>
        <time>2011-05-15T08:13:55Z</time>
      </trkpt>
      <trkpt lat="45.82759" lon="2.95192">
        <ele>1068</ele>
        <time>2011-05-15T08:14:05Z</time>
      </trkpt>
      <trkpt lat="45.82735" lon="2.95197">
        <ele>1067</ele>
        <time>2011-05-15T08:14:14Z</time>
      </trkpt>
      <trkpt lat="45.82716" lon="2.95195">
        <ele>1068</ele>
        <time>2011-05-15T08:14:22Z</time>
      </trkpt>
      <trkpt lat="45.82681" lon="2.95184">
        <ele>1065</ele>
        <time>2011-05-15T08:14:31Z</time>
      </trkpt>
      <trkpt lat="45.8267" lon="2.9517">
        <ele>1065</ele>
        <time>2011-05-15T08:14:38Z</time>
      </trkpt>
      <trkpt lat="45.82658" lon="2.95158">
        <ele>1066</ele>
        <time>2011-05-15T08:14:46Z</time>
      </trkpt>
      <trkpt lat="45.82638" lon="2.9514">
        <ele>1069</ele>
        <time>2011-05-15T08:14:57Z</time>
      </trkpt>
      <trkpt lat="45.82616" lon="2.95126">
        <ele>1070</ele>
        <time>2011-05-15T08:15:05Z</time>
      </trkpt>
      <trkpt lat="45.82596" lon="2.95122">
        <ele>1071</ele>
        <time>2011-05-15T08:15:13Z</time>
      </trkpt>
      <trkpt lat="45.82585" lon="2.95123">
        <ele>1072</ele>
        <time>2011-05-15T08:15:18Z</time>
      </trkpt>
      <trkpt lat="45.82581" lon="2.95122">
        <ele>1071</ele>
        <time>2011-05-15T08:15:30Z</time>
      </trkpt>
      <trkpt lat="45.82579" lon="2.9512">
        <ele>1068</ele>
        <time>2011-05-15T08:16:22Z</time>
      </trkpt>
      <trkpt lat="45.82578" lon="2.95119">
        <ele>1065</ele>
        <time>2011-05-15T08:17:25Z</time>
      </trkpt>
      <trkpt lat="45.82574" lon="2.95123">
        <ele>1062</ele>
        <time>2011-05-15T08:18:39Z</time>
      </trkpt>
      <trkpt lat="45.82569" lon="2.95129">
        <ele>1061</ele>
        <time>2011-05-15T08:19:05Z</time>
      </trkpt>
      <trkpt lat="45.82563" lon="2.95132">
        <ele>1061</ele>
        <time>2011-05-15T08:19:08Z</time>
      </trkpt>
      <trkpt lat="45.82551" lon="2.95128">
        <ele>1061</ele>
        <time>2011-05-15T08:19:12Z</time>
      </trkpt>
      <trkpt lat="45.82532" lon="2.95126">
        <ele>1063</ele>
        <time>2011-05-15T08:19:21Z</time>
      </trkpt>
      <trkpt lat="45.82519" lon="2.95128">
        <ele>1064</ele>
        <time>2011-05-15T08:19:25Z</time>
      </trkpt>
      <trkpt lat="45.82506" lon="2.95132">
        <ele>1066</ele>
        <time>2011-05-15T08:19:33Z</time>
      </trkpt>
      <trkpt lat="45.82489" lon="2.95131">
        <ele>1069</ele>
        <time>2011-05-15T08:19:44Z</time>
      </trkpt>
      <trkpt lat="45.82477" lon="2.95116">
        <ele>1070</ele>
        <time>2011-05-15T08:19:53Z</time>
      </trkpt>
      <trkpt lat="45.82467" lon="2.95094">
        <ele>1072</ele>
        <time>2011-05-15T08:20:03Z</time>
      </trkpt>
      <trkpt lat="45.82452" lon="2.95093">
        <ele>1075</ele>
        <time>2011-05-15T08:20:14Z</time>
      </trkpt>
      <trkpt lat="45.82439" lon="2.95092">
        <ele>1078</ele>
        <time>2011-05-15T08:20:24Z</time>
      </trkpt>
      <trkpt lat="45.82425" lon="2.95085">
        <ele>1080</ele>
        <time>2011-05-15T08:20:35Z</time>
      </trkpt>
      <trkpt lat="45.82418" lon="2.95073">
        <ele>1082</ele>
        <time>2011-05-15T08:20:43Z</time>
      </trkpt>
      <trkpt lat="45.82417" lon="2.95066">
        <ele>1083</ele>
        <time>2011-05-15T08:20:47Z</time>
      </trkpt>
      <trkpt lat="45.82428" lon="2.95053">
        <ele>1085</ele>
        <time>2011-05-15T08:20:58Z</time>
      </trkpt>
      <trkpt lat="45.8243" lon="2.95049">
        <ele>1086</ele>
        <time>2011-05-15T08:21:01Z</time>
      </trkpt>
      <trkpt lat="45.82433" lon="2.95035">
        <ele>1088</ele>
        <time>2011-05-15T08:21:12Z</time>
      </trkpt>
      <trkpt lat="45.8243" lon="2.95032">
        <ele>1089</ele>
        <time>2011-05-15T08:21:25Z</time>
      </trkpt>
      <trkpt lat="45.82431" lon="2.9503">
        <ele>1089</ele>
        <time>2011-05-15T08:21:59Z</time>
      </trkpt>
      <trkpt lat="45.82431" lon="2.95032">
        <ele>1089</ele>
        <time>2011-05-15T08:22:14Z</time>
      </trkpt>
      <trkpt lat="45.82432" lon="2.95032">
        <ele>1089</ele>
        <time>2011-05-15T08:22:49Z</time>
      </trkpt>
      <trkpt lat="45.82428" lon="2.95032">
        <ele>1089</ele>
        <time>2011-05-15T08:23:07Z</time>
      </trkpt>
      <trkpt lat="45.82433" lon="2.95031">
        <ele>1089</ele>
        <time>2011-05-15T08:23:27Z</time>
      </trkpt>
      <trkpt lat="45.82431" lon="2.95029">
        <ele>1089</ele>
        <time>2011-05-15T08:23:32Z</time>
      </trkpt>
      <trkpt lat="45.82424" lon="2.95024">
        <ele>1091</ele>
        <time>2011-05-15T08:23:36Z</time>
      </trkpt>
      <trkpt lat="45.82418" lon="2.95022">
        <ele>1091</ele>
        <time>2011-05-15T08:23:38Z</time>
      </trkpt>
      <trkpt lat="45.82399" lon="2.95024">
        <ele>1094</ele>
        <time>2011-05-15T08:23:48Z</time>
      </trkpt>
      <trkpt lat="45.82394" lon="2.95027">
        <ele>1095</ele>
        <time>2011-05-15T08:23:51Z</time>
      </trkpt>
      <trkpt lat="45.8238" lon="2.95047">
        <ele>1096</ele>
        <time>2011-05-15T08:24:03Z</time>
      </trkpt>
      <trkpt lat="45.82379" lon="2.95051">
        <ele>1096</ele>
        <time>2011-05-15T08:24:04Z</time>
      </trkpt>
      <trkpt lat="45.82373" lon="2.95085">
        <ele>1099</ele>
        <time>2011-05-15T08:24:17Z</time>
      </trkpt>
      <trkpt lat="45.82375" lon="2.95109">
        <ele>1100</ele>
        <time>2011-05-15T08:24:26Z</time>
      </trkpt>
      <trkpt lat="45.82383" lon="2.95146">
        <ele>1100</ele>
        <time>2011-05-15T08:24:38Z</time>
      </trkpt>
      <trkpt lat="45.82382" lon="2.95183">
        <ele>1097</ele>
        <time>2011-05-15T08:24:46Z</time>
      </trkpt>
      <trkpt lat="45.82381" lon="2.95202">
        <ele>1095</ele>
        <time>2011-05-15T08:24:49Z</time>
      </trkpt>
      <trkpt lat="45.82388" lon="2.95248">
        <ele>1096</ele>
        <time>2011-05-15T08:24:57Z</time>
      </trkpt>
      <trkpt lat="45.82393" lon="2.95263">
        <ele>1097</ele>
        <time>2011-05-15T08:25:01Z</time>
      </trkpt>
      <trkpt lat="45.82404" lon="2.95297">
        <ele>1100</ele>
        <time>2011-05-15T08:25:12Z</time>
      </trkpt>
      <trkpt lat="45.82422" lon="2.95321">
        <ele>1103</ele>
        <time>2011-05-15T08:25:23Z</time>
      </trkpt>
      <trkpt lat="45.82431" lon="2.95336">
        <ele>1106</ele>
        <time>2011-05-15T08:25:30Z</time>
      </trkpt>
      <trkpt lat="45.82443" lon="2.95352">
        <ele>1109</ele>
        <time>2011-05-15T08:25:40Z</time>
      </trkpt>
      <trkpt lat="45.82448" lon="2.95358">
        <ele>1111</ele>
        <time>2011-05-15T08:25:45Z</time>
      </trkpt>
      <trkpt lat="45.82456" lon="2.95375">
        <ele>1114</ele>
        <time>2011-05-15T08:25:56Z</time>
      </trkpt>
      <trkpt lat="45.82458" lon="2.95377">
        <ele>1115</ele>
        <time>2011-05-15T08:25:57Z</time>
      </trkpt>
      <trkpt lat="45.82471" lon="2.95395">
        <ele>1118</ele>
        <time>2011-05-15T08:26:07Z</time>
      </trkpt>
      <trkpt lat="45.82473" lon="2.95402">
        <ele>1118</ele>
        <time>2011-05-15T08:26:18Z</time>
      </trkpt>
      <trkpt lat="45.8247" lon="2.95403">
        <ele>1119</ele>
        <time>2011-05-15T08:28:36Z</time>
      </trkpt>
      <trkpt lat="45.82469" lon="2.95414">
        <ele>1118</ele>
        <time>2011-05-15T08:28:39Z</time>
      </trkpt>
      <trkpt lat="45.82472" lon="2.95447">
        <ele>1116</ele>
        <time>2011-05-15T08:28:43Z</time>
      </trkpt>
      <trkpt lat="45.82472" lon="2.95491">
        <ele>1110</ele>
        <time>2011-05-15T08:28:47Z</time>
      </trkpt>
      <trkpt lat="45.82474" lon="2.95513">
        <ele>1107</ele>
        <time>2011-05-15T08:28:49Z</time>
      </trkpt>
      <trkpt lat="45.82477" lon="2.95538">
        <ele>1104</ele>
        <time>2011-05-15T08:28:52Z</time>
      </trkpt>
      <trkpt lat="45.82479" lon="2.95558">
        <ele>1100</ele>
        <time>2011-05-15T08:28:54Z</time>
      </trkpt>
      <trkpt lat="45.82481" lon="2.95596">
        <ele>1095</ele>
        <time>2011-05-15T08:28:58Z</time>
      </trkpt>
      <trkpt lat="45.82482" lon="2.95605">
        <ele>1093</ele>
        <time>2011-05-15T08:28:59Z</time>
      </trkpt>
      <trkpt lat="45.82488" lon="2.9564">
        <ele>1087</ele>
        <time>2011-05-15T08:29:04Z</time>
      </trkpt>
      <trkpt lat="45.82497" lon="2.95662">
        <ele>1083</ele>
        <time>2011-05-15T08:29:08Z</time>
      </trkpt>
      <trkpt lat="45.82502" lon="2.95682">
        <ele>1079</ele>
        <time>2011-05-15T08:29:12Z</time>
      </trkpt>
      <trkpt lat="45.82504" lon="2.95686">
        <ele>1078</ele>
        <time>2011-05-15T08:29:13Z</time>
      </trkpt>
      <trkpt lat="45.82514" lon="2.95705">
        <ele>1073</ele>
        <time>2011-05-15T08:29:17Z</time>
      </trkpt>
      <trkpt lat="45.82516" lon="2.95712">
        <ele>1071</ele>
        <time>2011-05-15T08:29:19Z</time>
      </trkpt>
      <trkpt lat="45.82516" lon="2.95715">
        <ele>1069</ele>
        <time>2011-05-15T08:29:21Z</time>
      </trkpt>
      <trkpt lat="45.82512" lon="2.95729">
        <ele>1063</ele>
        <time>2011-05-15T08:29:25Z</time>
      </trkpt>
      <trkpt lat="45.82515" lon="2.9574">
        <ele>1060</ele>
        <time>2011-05-15T08:29:29Z</time>
      </trkpt>
      <trkpt lat="45.82517" lon="2.9575">
        <ele>1056</ele>
        <time>2011-05-15T08:29:32Z</time>
      </trkpt>
      <trkpt lat="45.82516" lon="2.95764">
        <ele>1052</ele>
        <time>2011-05-15T08:29:35Z</time>
      </trkpt>
      <trkpt lat="45.82522" lon="2.95777">
        <ele>1049</ele>
        <time>2011-05-15T08:29:38Z</time>
      </trkpt>
      <trkpt lat="45.82522" lon="2.9578">
        <ele>1048</ele>
        <time>2011-05-15T08:29:39Z</time>
      </trkpt>
      <trkpt lat="45.82516" lon="2.958">
        <ele>1044</ele>
        <time>2011-05-15T08:29:43Z</time>
      </trkpt>
      <trkpt lat="45.82508" lon="2.95811">
        <ele>1039</ele>
        <time>2011-05-15T08:29:47Z</time>
      </trkpt>
      <trkpt lat="45.82503" lon="2.95824">
        <ele>1035</ele>
        <time>2011-05-15T08:29:50Z</time>
      </trkpt>
      <trkpt lat="45.82502" lon="2.95834">
        <ele>1032</ele>
        <time>2011-05-15T08:29:52Z</time>
      </trkpt>
      <trkpt lat="45.82496" lon="2.95849">
        <ele>1028</ele>
        <time>2011-05-15T08:29:55Z</time>
      </trkpt>
      <trkpt lat="45.82493" lon="2.95856">
        <ele>1026</ele>
        <time>2011-05-15T08:29:57Z</time>
      </trkpt>
      <trkpt lat="45.82492" lon="2.95875">
        <ele>1022</ele>
        <time>2011-05-15T08:30:01Z</time>
      </trkpt>
      <trkpt lat="45.82487" lon="2.95899">
        <ele>1019</ele>
        <time>2011-05-15T08:30:04Z</time>
      </trkpt>
      <trkpt lat="45.82476" lon="2.95927">
        <ele>1013</ele>
        <time>2011-05-15T08:30:08Z</time>
      </trkpt>
      <trkpt lat="45.82473" lon="2.9594">
        <ele>1010</ele>
        <time>2011-05-15T08:30:10Z</time>
      </trkpt>
      <trkpt lat="45.82471" lon="2.95946">
        <ele>1008</ele>
        <time>2011-05-15T08:30:11Z</time>
      </trkpt>
      <trkpt lat="45.82467" lon="2.95957">
        <ele>1003</ele>
        <time>2011-05-15T08:30:13Z</time>
      </trkpt>
      <trkpt lat="45.8246" lon="2.95967">
        <ele>1000</ele>
        <time>2011-05-15T08:30:15Z</time>
      </trkpt>
      <trkpt lat="45.82451" lon="2.95994">
        <ele>995</ele>
        <time>2011-05-15T08:30:19Z</time>
      </trkpt>
      <trkpt lat="45.82445" lon="2.96017">
        <ele>995</ele>
        <time>2011-05-15T08:30:23Z</time>
      </trkpt>
      <trkpt lat="45.82443" lon="2.96014">
        <ele>993</ele>
        <time>2011-05-15T08:30:27Z</time>
      </trkpt>
      <trkpt lat="45.82434" lon="2.96015">
        <ele>987</ele>
        <time>2011-05-15T08:30:30Z</time>
      </trkpt>
      <trkpt lat="45.82428" lon="2.96021">
        <ele>984</ele>
        <time>2011-05-15T08:30:33Z</time>
      </trkpt>
      <trkpt lat="45.82397" lon="2.9605">
        <ele>985</ele>
        <time>2011-05-15T08:30:39Z</time>
      </trkpt>
      <trkpt lat="45.82386" lon="2.96055">
        <ele>985</ele>
        <time>2011-05-15T08:30:41Z</time>
      </trkpt>
      <trkpt lat="45.8238" lon="2.96064">
        <ele>984</ele>
        <time>2011-05-15T08:30:43Z</time>
      </trkpt>
      <trkpt lat="45.8238" lon="2.96077">
        <ele>981</ele>
        <time>2011-05-15T08:30:45Z</time>
      </trkpt>
      <trkpt lat="45.82386" lon="2.961">
        <ele>978</ele>
        <time>2011-05-15T08:30:50Z</time>
      </trkpt>
      <trkpt lat="45.82391" lon="2.96109">
        <ele>977</ele>
        <time>2011-05-15T08:30:52Z</time>
      </trkpt>
      <trkpt lat="45.82398" lon="2.96117">
        <ele>976</ele>
        <time>2011-05-15T08:30:56Z</time>
      </trkpt>
      <trkpt lat="45.82412" lon="2.96136">
        <ele>973</ele>
        <time>2011-05-15T08:31:02Z</time>
      </trkpt>
      <trkpt lat="45.8243" lon="2.96155">
        <ele>970</ele>
        <time>2011-05-15T08:31:08Z</time>
      </trkpt>
      <trkpt lat="45.82443" lon="2.96212">
        <ele>965</ele>
        <time>2011-05-15T08:31:13Z</time>
      </trkpt>
      <trkpt lat="45.82461" lon="2.96262">
        <ele>960</ele>
        <time>2011-05-15T08:31:17Z</time>
      </trkpt>
      <trkpt lat="45.82464" lon="2.96276">
        <ele>960</ele>
        <time>2011-05-15T08:31:23Z</time>
      </trkpt>
      <trkpt lat="45.82461" lon="2.96283">
        <ele>961</ele>
        <time>2011-05-15T08:31:51Z</time>
      </trkpt>
      <trkpt lat="45.82461" lon="2.96288">
        <ele>960</ele>
        <time>2011-05-15T08:32:01Z</time>
      </trkpt>
      <trkpt lat="45.82466" lon="2.96292">
        <ele>960</ele>
        <time>2011-05-15T08:32:11Z</time>
      </trkpt>
      <trkpt lat="45.82487" lon="2.96291">
        <ele>962</ele>
        <time>2011-05-15T08:34:04Z</time>
      </trkpt>
      <trkpt lat="45.82504" lon="2.96267">
        <ele>962</ele>
        <time>2011-05-15T08:34:12Z</time>
      </trkpt>
      <trkpt lat="45.82532" lon="2.96243">
        <ele>964</ele>
        <time>2011-05-15T08:34:21Z</time>
      </trkpt>
      <trkpt lat="45.82572" lon="2.96215">
        <ele>966</ele>
        <time>2011-05-15T08:34:33Z</time>
      </trkpt>
      <trkpt lat="45.82599" lon="2.96192">
        <ele>968</ele>
        <time>2011-05-15T08:34:43Z</time>
      </trkpt>
      <trkpt lat="45.82619" lon="2.96186">
        <ele>971</ele>
        <time>2011-05-15T08:34:49Z</time>
      </trkpt>
      <trkpt lat="45.82651" lon="2.96178">
        <ele>973</ele>
        <time>2011-05-15T08:34:58Z</time>
      </trkpt>
      <trkpt lat="45.82681" lon="2.96178">
        <ele>976</ele>
        <time>2011-05-15T08:35:07Z</time>
      </trkpt>
      <trkpt lat="45.82707" lon="2.96174">
        <ele>977</ele>
        <time>2011-05-15T08:35:15Z</time>
      </trkpt>
      <trkpt lat="45.82732" lon="2.96161">
        <ele>978</ele>
        <time>2011-05-15T08:35:23Z</time>
      </trkpt>
      <trkpt lat="45.82761" lon="2.96139">
        <ele>978</ele>
        <time>2011-05-15T08:35:33Z</time>
      </trkpt>
      <trkpt lat="45.82793" lon="2.96123">
        <ele>977</ele>
        <time>2011-05-15T08:35:44Z</time>
      </trkpt>
      <trkpt lat="45.82821" lon="2.96103">
        <ele>978</ele>
        <time>2011-05-15T08:35:52Z</time>
      </trkpt>
      <trkpt lat="45.82852" lon="2.96079">
        <ele>981</ele>
        <time>2011-05-15T08:36:01Z</time>
      </trkpt>
      <trkpt lat="45.82874" lon="2.9607">
        <ele>983</ele>
        <time>2011-05-15T08:36:06Z</time>
      </trkpt>
      <trkpt lat="45.82904" lon="2.96057">
        <ele>985</ele>
        <time>2011-05-15T08:36:14Z</time>
      </trkpt>
      <trkpt lat="45.82914" lon="2.96032">
        <ele>988</ele>
        <time>2011-05-15T08:36:22Z</time>
      </trkpt>
      <trkpt lat="45.82927" lon="2.9601">
        <ele>990</ele>
        <time>2011-05-15T08:36:29Z</time>
      </trkpt>
      <trkpt lat="45.82931" lon="2.96007">
        <ele>991</ele>
        <time>2011-05-15T08:36:31Z</time>
      </trkpt>
      <trkpt lat="45.82939" lon="2.95986">
        <ele>994</ele>
        <time>2011-05-15T08:36:39Z</time>
      </trkpt>
      <trkpt lat="45.82941" lon="2.95983">
        <ele>994</ele>
        <time>2011-05-15T08:36:40Z</time>
      </trkpt>
      <trkpt lat="45.82965" lon="2.95956">
        <ele>997</ele>
        <time>2011-05-15T08:36:52Z</time>
      </trkpt>
      <trkpt lat="45.8297" lon="2.95951">
        <ele>998</ele>
        <time>2011-05-15T08:36:55Z</time>
      </trkpt>
      <trkpt lat="45.82985" lon="2.95934">
        <ele>1001</ele>
        <time>2011-05-15T08:37:04Z</time>
      </trkpt>
      <trkpt lat="45.82991" lon="2.95924">
        <ele>1002</ele>
        <time>2011-05-15T08:37:09Z</time>
      </trkpt>
      <trkpt lat="45.82998" lon="2.9591">
        <ele>1003</ele>
        <time>2011-05-15T08:37:14Z</time>
      </trkpt>
      <trkpt lat="45.83003" lon="2.95899">
        <ele>1003</ele>
        <time>2011-05-15T08:37:19Z</time>
      </trkpt>
      <trkpt lat="45.83006" lon="2.95891">
        <ele>1005</ele>
        <time>2011-05-15T08:37:22Z</time>
      </trkpt>
      <trkpt lat="45.83016" lon="2.95865">
        <ele>1006</ele>
        <time>2011-05-15T08:37:32Z</time>
      </trkpt>
      <trkpt lat="45.83041" lon="2.95843">
        <ele>1007</ele>
        <time>2011-05-15T08:37:42Z</time>
      </trkpt>
      <trkpt lat="45.8306" lon="2.95831">
        <ele>1008</ele>
        <time>2011-05-15T08:37:52Z</time>
      </trkpt>
      <trkpt lat="45.83073" lon="2.95814">
        <ele>1007</ele>
        <time>2011-05-15T08:38:03Z</time>
      </trkpt>
      <trkpt lat="45.83082" lon="2.95804">
        <ele>1008</ele>
        <time>2011-05-15T08:38:22Z</time>
      </trkpt>
      <trkpt lat="45.83093" lon="2.95785">
        <ele>1008</ele>
        <time>2011-05-15T08:38:30Z</time>
      </trkpt>
      <trkpt lat="45.83105" lon="2.9575">
        <ele>1009</ele>
        <time>2011-05-15T08:38:42Z</time>
      </trkpt>
      <trkpt lat="45.83109" lon="2.95738">
        <ele>1010</ele>
        <time>2011-05-15T08:38:46Z</time>
      </trkpt>
      <trkpt lat="45.83114" lon="2.95707">
        <ele>1010</ele>
        <time>2011-05-15T08:38:55Z</time>
      </trkpt>
      <trkpt lat="45.83124" lon="2.95662">
        <ele>1011</ele>
        <time>2011-05-15T08:39:05Z</time>
      </trkpt>
      <trkpt lat="45.83112" lon="2.95614">
        <ele>1011</ele>
        <time>2011-05-15T08:39:13Z</time>
      </trkpt>
      <trkpt lat="45.83109" lon="2.95571">
        <ele>1010</ele>
        <time>2011-05-15T08:39:20Z</time>
      </trkpt>
      <trkpt lat="45.8312" lon="2.9553">
        <ele>1010</ele>
        <time>2011-05-15T08:39:28Z</time>
      </trkpt>
      <trkpt lat="45.83141" lon="2.9552">
        <ele>1008</ele>
        <time>2011-05-15T08:39:36Z</time>
      </trkpt>
      <trkpt lat="45.83143" lon="2.95519">
        <ele>1010</ele>
        <time>2011-05-15T08:39:39Z</time>
      </trkpt>
      <trkpt lat="45.83163" lon="2.95534">
        <ele>1013</ele>
        <time>2011-05-15T08:39:50Z</time>
      </trkpt>
      <trkpt lat="45.83187" lon="2.95547">
        <ele>1016</ele>
        <time>2011-05-15T08:40:01Z</time>
      </trkpt>
      <trkpt lat="45.83205" lon="2.95549">
        <ele>1018</ele>
        <time>2011-05-15T08:40:12Z</time>
      </trkpt>
      <trkpt lat="45.83232" lon="2.95548">
        <ele>1021</ele>
        <time>2011-05-15T08:40:23Z</time>
      </trkpt>
      <trkpt lat="45.83253" lon="2.95548">
        <ele>1022</ele>
        <time>2011-05-15T08:40:33Z</time>
      </trkpt>
      <trkpt lat="45.83273" lon="2.95542">
        <ele>1024</ele>
        <time>2011-05-15T08:40:41Z</time>
      </trkpt>
      <trkpt lat="45.83296" lon="2.95547">
        <ele>1028</ele>
        <time>2011-05-15T08:40:53Z</time>
      </trkpt>
      <trkpt lat="45.83308" lon="2.95552">
        <ele>1029</ele>
        <time>2011-05-15T08:41:00Z</time>
      </trkpt>
      <trkpt lat="45.83323" lon="2.9555">
        <ele>1032</ele>
        <time>2011-05-15T08:41:11Z</time>
      </trkpt>
      <trkpt lat="45.83336" lon="2.95551">
        <ele>1035</ele>
        <time>2011-05-15T08:41:19Z</time>
      </trkpt>
      <trkpt lat="45.83354" lon="2.95553">
        <ele>1038</ele>
        <time>2011-05-15T08:41:30Z</time>
      </trkpt>
      <trkpt lat="45.83367" lon="2.95558">
        <ele>1042</ele>
        <time>2011-05-15T08:41:37Z</time>
      </trkpt>
      <trkpt lat="45.83387" lon="2.95576">
        <ele>1042</ele>
        <time>2011-05-15T08:41:48Z</time>
      </trkpt>
      <trkpt lat="45.83407" lon="2.95606">
        <ele>1042</ele>
        <time>2011-05-15T08:41:57Z</time>
      </trkpt>
      <trkpt lat="45.83407" lon="2.95636">
        <ele>1043</ele>
        <time>2011-05-15T08:42:07Z</time>
      </trkpt>
      <trkpt lat="45.83418" lon="2.95688">
        <ele>1044</ele>
        <time>2011-05-15T08:42:17Z</time>
      </trkpt>
      <trkpt lat="45.83434" lon="2.95733">
        <ele>1045</ele>
        <time>2011-05-15T08:42:24Z</time>
      </trkpt>
      <trkpt lat="45.8346" lon="2.95774">
        <ele>1044</ele>
        <time>2011-05-15T08:42:34Z</time>
      </trkpt>
      <trkpt lat="45.83485" lon="2.95811">
        <ele>1043</ele>
        <time>2011-05-15T08:42:41Z</time>
      </trkpt>
      <trkpt lat="45.83509" lon="2.95832">
        <ele>1041</ele>
        <time>2011-05-15T08:42:47Z</time>
      </trkpt>
      <trkpt lat="45.83513" lon="2.95836">
        <ele>1039</ele>
        <time>2011-05-15T08:42:48Z</time>
      </trkpt>
      <trkpt lat="45.83532" lon="2.95858">
        <ele>1035</ele>
        <time>2011-05-15T08:42:51Z</time>
      </trkpt>
      <trkpt lat="45.83537" lon="2.95862">
        <ele>1034</ele>
        <time>2011-05-15T08:42:52Z</time>
      </trkpt>
      <trkpt lat="45.83547" lon="2.95868">
        <ele>1030</ele>
        <time>2011-05-15T08:42:54Z</time>
      </trkpt>
      <trkpt lat="45.83563" lon="2.9588">
        <ele>1025</ele>
        <time>2011-05-15T08:42:57Z</time>
      </trkpt>
      <trkpt lat="45.83574" lon="2.95891">
        <ele>1022</ele>
        <time>2011-05-15T08:42:59Z</time>
      </trkpt>
      <trkpt lat="45.83604" lon="2.95912">
        <ele>1018</ele>
        <time>2011-05-15T08:43:03Z</time>
      </trkpt>
      <trkpt lat="45.83628" lon="2.95924">
        <ele>1014</ele>
        <time>2011-05-15T08:43:06Z</time>
      </trkpt>
      <trkpt lat="45.83633" lon="2.95926">
        <ele>1014</ele>
        <time>2011-05-15T08:43:07Z</time>
      </trkpt>
      <trkpt lat="45.83646" lon="2.95916">
        <ele>1010</ele>
        <time>2011-05-15T08:43:11Z</time>
      </trkpt>
      <trkpt lat="45.83654" lon="2.9591">
        <ele>1009</ele>
        <time>2011-05-15T08:43:13Z</time>
      </trkpt>
      <trkpt lat="45.83679" lon="2.95912">
        <ele>1009</ele>
        <time>2011-05-15T08:43:21Z</time>
      </trkpt>
      <trkpt lat="45.83693" lon="2.95912">
        <ele>1009</ele>
        <time>2011-05-15T08:43:31Z</time>
      </trkpt>
      <trkpt lat="45.83693" lon="2.95913">
        <ele>1009</ele>
        <time>2011-05-15T08:44:00Z</time>
      </trkpt>
      <trkpt lat="45.83712" lon="2.95892">
        <ele>1008</ele>
        <time>2011-05-15T08:44:07Z</time>
      </trkpt>
      <trkpt lat="45.8372" lon="2.95889">
        <ele>1007</ele>
        <time>2011-05-15T08:44:09Z</time>
      </trkpt>
      <trkpt lat="45.83738" lon="2.95888">
        <ele>1006</ele>
        <time>2011-05-15T08:44:13Z</time>
      </trkpt>
      <trkpt lat="45.83752" lon="2.95884">
        <ele>1005</ele>
        <time>2011-05-15T08:44:15Z</time>
      </trkpt>
      <trkpt lat="45.83765" lon="2.9588">
        <ele>1004</ele>
        <time>2011-05-15T08:44:17Z</time>
      </trkpt>
      <trkpt lat="45.83787" lon="2.95868">
        <ele>1003</ele>
        <time>2011-05-15T08:44:20Z</time>
      </trkpt>
      <trkpt lat="45.83813" lon="2.95856">
        <ele>1001</ele>
        <time>2011-05-15T08:44:24Z</time>
      </trkpt>
      <trkpt lat="45.83859" lon="2.95826">
        <ele>998</ele>
        <time>2011-05-15T08:44:30Z</time>
      </trkpt>
      <trkpt lat="45.83865" lon="2.95822">
        <ele>998</ele>
        <time>2011-05-15T08:44:31Z</time>
      </trkpt>
      <trkpt lat="45.83896" lon="2.95815">
        <ele>995</ele>
        <time>2011-05-15T08:44:35Z</time>
      </trkpt>
      <trkpt lat="45.83925" lon="2.95809">
        <ele>992</ele>
        <time>2011-05-15T08:44:39Z</time>
      </trkpt>
      <trkpt lat="45.83938" lon="2.95802">
        <ele>990</ele>
        <time>2011-05-15T08:44:41Z</time>
      </trkpt>
      <trkpt lat="45.83981" lon="2.95749">
        <ele>988</ele>
        <time>2011-05-15T08:44:47Z</time>
      </trkpt>
      <trkpt lat="45.84" lon="2.95727">
        <ele>987</ele>
        <time>2011-05-15T08:44:50Z</time>
      </trkpt>
      <trkpt lat="45.8401" lon="2.95717">
        <ele>986</ele>
        <time>2011-05-15T08:44:52Z</time>
      </trkpt>
      <trkpt lat="45.84035" lon="2.95713">
        <ele>985</ele>
        <time>2011-05-15T08:44:56Z</time>
      </trkpt>
      <trkpt lat="45.84062" lon="2.95708">
        <ele>986</ele>
        <time>2011-05-15T08:45:01Z</time>
      </trkpt>
      <trkpt lat="45.84109" lon="2.95719">
        <ele>986</ele>
        <time>2011-05-15T08:45:09Z</time>
      </trkpt>
      <trkpt lat="45.84157" lon="2.95729">
        <ele>987</ele>
        <time>2011-05-15T08:45:18Z</time>
      </trkpt>
      <trkpt lat="45.84189" lon="2.95732">
        <ele>988</ele>
        <time>2011-05-15T08:45:25Z</time>
      </trkpt>
      <trkpt lat="45.84212" lon="2.95733">
        <ele>989</ele>
        <time>2011-05-15T08:45:29Z</time>
      </trkpt>
      <trkpt lat="45.84241" lon="2.95728">
        <ele>989</ele>
        <time>2011-05-15T08:45:34Z</time>
      </trkpt>
      <trkpt lat="45.84261" lon="2.95729">
        <ele>989</ele>
        <time>2011-05-15T08:45:38Z</time>
      </trkpt>
      <trkpt lat="45.84278" lon="2.9573">
        <ele>990</ele>
        <time>2011-05-15T08:45:41Z</time>
      </trkpt>
      <trkpt lat="45.84307" lon="2.95731">
        <ele>990</ele>
        <time>2011-05-15T08:45:47Z</time>
      </trkpt>
      <trkpt lat="45.84349" lon="2.95756">
        <ele>991</ele>
        <time>2011-05-15T08:45:56Z</time>
      </trkpt>
      <trkpt lat="45.84385" lon="2.95761">
        <ele>993</ele>
        <time>2011-05-15T08:46:04Z</time>
      </trkpt>
      <trkpt lat="45.84418" lon="2.95767">
        <ele>994</ele>
        <time>2011-05-15T08:46:12Z</time>
      </trkpt>
      <trkpt lat="45.84448" lon="2.95786">
        <ele>997</ele>
        <time>2011-05-15T08:46:20Z</time>
      </trkpt>
      <trkpt lat="45.84479" lon="2.95795">
        <ele>997</ele>
        <time>2011-05-15T08:46:29Z</time>
      </trkpt>
      <trkpt lat="45.84497" lon="2.95802">
        <ele>996</ele>
        <time>2011-05-15T08:46:33Z</time>
      </trkpt>
      <trkpt lat="45.84542" lon="2.95816">
        <ele>996</ele>
        <time>2011-05-15T08:46:42Z</time>
      </trkpt>
      <trkpt lat="45.84572" lon="2.95825">
        <ele>996</ele>
        <time>2011-05-15T08:46:49Z</time>
      </trkpt>
      <trkpt lat="45.84585" lon="2.95832">
        <ele>995</ele>
        <time>2011-05-15T08:46:52Z</time>
      </trkpt>
      <trkpt lat="45.84631" lon="2.95847">
        <ele>992</ele>
        <time>2011-05-15T08:47:00Z</time>
      </trkpt>
      <trkpt lat="45.84664" lon="2.95855">
        <ele>990</ele>
        <time>2011-05-15T08:47:05Z</time>
      </trkpt>
      <trkpt lat="45.84684" lon="2.95861">
        <ele>988</ele>
        <time>2011-05-15T08:47:08Z</time>
      </trkpt>
      <trkpt lat="45.84716" lon="2.95879">
        <ele>988</ele>
        <time>2011-05-15T08:47:12Z</time>
      </trkpt>
      <trkpt lat="45.84763" lon="2.95907">
        <ele>985</ele>
        <time>2011-05-15T08:47:19Z</time>
      </trkpt>
      <trkpt lat="45.84786" lon="2.95934">
        <ele>985</ele>
        <time>2011-05-15T08:47:24Z</time>
      </trkpt>
      <trkpt lat="45.84821" lon="2.95982">
        <ele>985</ele>
        <time>2011-05-15T08:47:30Z</time>
      </trkpt>
      <trkpt lat="45.84849" lon="2.96033">
        <ele>988</ele>
        <time>2011-05-15T08:47:41Z</time>
      </trkpt>
      <trkpt lat="45.84868" lon="2.96048">
        <ele>990</ele>
        <time>2011-05-15T08:47:49Z</time>
      </trkpt>
      <trkpt lat="45.8488" lon="2.96062">
        <ele>992</ele>
        <time>2011-05-15T08:47:54Z</time>
      </trkpt>
      <trkpt lat="45.84901" lon="2.9608">
        <ele>994</ele>
        <time>2011-05-15T08:48:02Z</time>
      </trkpt>
      <trkpt lat="45.8493" lon="2.96103">
        <ele>995</ele>
        <time>2011-05-15T08:48:12Z</time>
      </trkpt>
      <trkpt lat="45.84952" lon="2.96127">
        <ele>998</ele>
        <time>2011-05-15T08:48:20Z</time>
      </trkpt>
      <trkpt lat="45.84972" lon="2.96155">
        <ele>1000</ele>
        <time>2011-05-15T08:48:28Z</time>
      </trkpt>
      <trkpt lat="45.8499" lon="2.96179">
        <ele>1001</ele>
        <time>2011-05-15T08:48:36Z</time>
      </trkpt>
      <trkpt lat="45.85005" lon="2.96224">
        <ele>1003</ele>
        <time>2011-05-15T08:48:44Z</time>
      </trkpt>
      <trkpt lat="45.85011" lon="2.96228">
        <ele>1004</ele>
        <time>2011-05-15T08:48:47Z</time>
      </trkpt>
      <trkpt lat="45.85025" lon="2.96242">
        <ele>1007</ele>
        <time>2011-05-15T08:48:56Z</time>
      </trkpt>
      <trkpt lat="45.85026" lon="2.96246">
        <ele>1007</ele>
        <time>2011-05-15T08:48:57Z</time>
      </trkpt>
      <trkpt lat="45.85035" lon="2.96264">
        <ele>1010</ele>
        <time>2011-05-15T08:49:05Z</time>
      </trkpt>
      <trkpt lat="45.85038" lon="2.9627">
        <ele>1010</ele>
        <time>2011-05-15T08:49:07Z</time>
      </trkpt>
      <trkpt lat="45.85043" lon="2.96281">
        <ele>1011</ele>
        <time>2011-05-15T08:49:11Z</time>
      </trkpt>
      <trkpt lat="45.85061" lon="2.96297">
        <ele>1014</ele>
        <time>2011-05-15T08:49:22Z</time>
      </trkpt>
      <trkpt lat="45.85074" lon="2.96313">
        <ele>1017</ele>
        <time>2011-05-15T08:49:32Z</time>
      </trkpt>
      <trkpt lat="45.85085" lon="2.9632">
        <ele>1018</ele>
        <time>2011-05-15T08:49:38Z</time>
      </trkpt>
      <trkpt lat="45.85097" lon="2.96325">
        <ele>1020</ele>
        <time>2011-05-15T08:49:46Z</time>
      </trkpt>
      <trkpt lat="45.8511" lon="2.96348">
        <ele>1022</ele>
        <time>2011-05-15T08:49:56Z</time>
      </trkpt>
      <trkpt lat="45.85112" lon="2.96351">
        <ele>1023</ele>
        <time>2011-05-15T08:49:57Z</time>
      </trkpt>
      <trkpt lat="45.85123" lon="2.96372">
        <ele>1024</ele>
        <time>2011-05-15T08:50:06Z</time>
      </trkpt>
      <trkpt lat="45.85126" lon="2.96378">
        <ele>1025</ele>
        <time>2011-05-15T08:50:09Z</time>
      </trkpt>
      <trkpt lat="45.85136" lon="2.96407">
        <ele>1026</ele>
        <time>2011-05-15T08:50:17Z</time>
      </trkpt>
      <trkpt lat="45.85145" lon="2.96425">
        <ele>1027</ele>
        <time>2011-05-15T08:50:27Z</time>
      </trkpt>
      <trkpt lat="45.85152" lon="2.96406">
        <ele>1030</ele>
        <time>2011-05-15T08:52:50Z</time>
      </trkpt>
      <trkpt lat="45.85158" lon="2.96407">
        <ele>1033</ele>
        <time>2011-05-15T08:55:38Z</time>
      </trkpt>
      <trkpt lat="45.85157" lon="2.96409">
        <ele>1036</ele>
        <time>2011-05-15T08:55:56Z</time>
      </trkpt>
      <trkpt lat="45.85151" lon="2.96432">
        <ele>1039</ele>
        <time>2011-05-15T08:56:08Z</time>
      </trkpt>
      <trkpt lat="45.85148" lon="2.96452">
        <ele>1042</ele>
        <time>2011-05-15T08:56:16Z</time>
      </trkpt>
      <trkpt lat="45.85146" lon="2.96476">
        <ele>1045</ele>
        <time>2011-05-15T08:56:23Z</time>
      </trkpt>
      <trkpt lat="45.85141" lon="2.96484">
        <ele>1047</ele>
        <time>2011-05-15T08:56:28Z</time>
      </trkpt>
      <trkpt lat="45.85135" lon="2.96504">
        <ele>1050</ele>
        <time>2011-05-15T08:56:45Z</time>
      </trkpt>
      <trkpt lat="45.85128" lon="2.96511">
        <ele>1054</ele>
        <time>2011-05-15T08:57:00Z</time>
      </trkpt>
      <trkpt lat="45.85126" lon="2.96524">
        <ele>1057</ele>
        <time>2011-05-15T08:57:14Z</time>
      </trkpt>
      <trkpt lat="45.85118" lon="2.96548">
        <ele>1060</ele>
        <time>2011-05-15T08:57:35Z</time>
      </trkpt>
      <trkpt lat="45.85114" lon="2.96572">
        <ele>1063</ele>
        <time>2011-05-15T08:57:48Z</time>
      </trkpt>
      <trkpt lat="45.85111" lon="2.9658">
        <ele>1064</ele>
        <time>2011-05-15T08:57:53Z</time>
      </trkpt>
      <trkpt lat="45.85097" lon="2.96595">
        <ele>1067</ele>
        <time>2011-05-15T08:58:04Z</time>
      </trkpt>
      <trkpt lat="45.85096" lon="2.96596">
        <ele>1068</ele>
        <time>2011-05-15T08:58:07Z</time>
      </trkpt>
      <trkpt lat="45.85092" lon="2.96606">
        <ele>1070</ele>
        <time>2011-05-15T08:58:13Z</time>
      </trkpt>
      <trkpt lat="45.85082" lon="2.96623">
        <ele>1073</ele>
        <time>2011-05-15T08:58:25Z</time>
      </trkpt>
      <trkpt lat="45.85075" lon="2.96631">
        <ele>1076</ele>
        <time>2011-05-15T08:58:35Z</time>
      </trkpt>
      <trkpt lat="45.85057" lon="2.96643">
        <ele>1079</ele>
        <time>2011-05-15T08:58:46Z</time>
      </trkpt>
      <trkpt lat="45.85054" lon="2.96661">
        <ele>1083</ele>
        <time>2011-05-15T08:59:01Z</time>
      </trkpt>
      <trkpt lat="45.8504" lon="2.96675">
        <ele>1085</ele>
        <time>2011-05-15T08:59:15Z</time>
      </trkpt>
      <trkpt lat="45.85037" lon="2.96676">
        <ele>1086</ele>
        <time>2011-05-15T08:59:17Z</time>
      </trkpt>
      <trkpt lat="45.85033" lon="2.96679">
        <ele>1087</ele>
        <time>2011-05-15T08:59:20Z</time>
      </trkpt>
      <trkpt lat="45.85028" lon="2.96685">
        <ele>1090</ele>
        <time>2011-05-15T08:59:29Z</time>
      </trkpt>
      <trkpt lat="45.85018" lon="2.96692">
        <ele>1094</ele>
        <time>2011-05-15T08:59:42Z</time>
      </trkpt>
      <trkpt lat="45.85003" lon="2.96704">
        <ele>1096</ele>
        <time>2011-05-15T08:59:52Z</time>
      </trkpt>
      <trkpt lat="45.84997" lon="2.96709">
        <ele>1099</ele>
        <time>2011-05-15T09:00:04Z</time>
      </trkpt>
      <trkpt lat="45.84985" lon="2.96716">
        <ele>1103</ele>
        <time>2011-05-15T09:00:16Z</time>
      </trkpt>
      <trkpt lat="45.84974" lon="2.96724">
        <ele>1106</ele>
        <time>2011-05-15T09:00:39Z</time>
      </trkpt>
      <trkpt lat="45.84967" lon="2.96724">
        <ele>1109</ele>
        <time>2011-05-15T09:01:03Z</time>
      </trkpt>
      <trkpt lat="45.84957" lon="2.96729">
        <ele>1112</ele>
        <time>2011-05-15T09:01:20Z</time>
      </trkpt>
      <trkpt lat="45.84944" lon="2.96733">
        <ele>1115</ele>
        <time>2011-05-15T09:01:44Z</time>
      </trkpt>
      <trkpt lat="45.84939" lon="2.96739">
        <ele>1119</ele>
        <time>2011-05-15T09:02:07Z</time>
      </trkpt>
      <trkpt lat="45.84939" lon="2.9674">
        <ele>1119</ele>
        <time>2011-05-15T09:02:08Z</time>
      </trkpt>
      <trkpt lat="45.84927" lon="2.96747">
        <ele>1122</ele>
        <time>2011-05-15T09:02:20Z</time>
      </trkpt>
      <trkpt lat="45.84915" lon="2.96746">
        <ele>1123</ele>
        <time>2011-05-15T09:02:29Z</time>
      </trkpt>
      <trkpt lat="45.84915" lon="2.96746">
        <ele>1124</ele>
        <time>2011-05-15T09:02:30Z</time>
      </trkpt>
      <trkpt lat="45.84915" lon="2.96745">
        <ele>1125</ele>
        <time>2011-05-15T09:02:35Z</time>
      </trkpt>
      <trkpt lat="45.84912" lon="2.96754">
        <ele>1126</ele>
        <time>2011-05-15T09:02:48Z</time>
      </trkpt>
      <trkpt lat="45.84915" lon="2.96759">
        <ele>1125</ele>
        <time>2011-05-15T09:04:28Z</time>
      </trkpt>
      <trkpt lat="45.84908" lon="2.96787">
        <ele>1127</ele>
        <time>2011-05-15T09:04:40Z</time>
      </trkpt>
      <trkpt lat="45.84904" lon="2.96793">
        <ele>1128</ele>
        <time>2011-05-15T09:04:49Z</time>
      </trkpt>
      <trkpt lat="45.84904" lon="2.96796">
        <ele>1128</ele>
        <time>2011-05-15T09:04:52Z</time>
      </trkpt>
      <trkpt lat="45.84902" lon="2.96805">
        <ele>1129</ele>
        <time>2011-05-15T09:04:57Z</time>
      </trkpt>
      <trkpt lat="45.849" lon="2.96809">
        <ele>1130</ele>
        <time>2011-05-15T09:04:59Z</time>
      </trkpt>
      <trkpt lat="45.84893" lon="2.96821">
        <ele>1132</ele>
        <time>2011-05-15T09:05:07Z</time>
      </trkpt>
      <trkpt lat="45.84891" lon="2.96824">
        <ele>1132</ele>
        <time>2011-05-15T09:05:09Z</time>
      </trkpt>
      <trkpt lat="45.84887" lon="2.96829">
        <ele>1134</ele>
        <time>2011-05-15T09:05:13Z</time>
      </trkpt>
      <trkpt lat="45.8488" lon="2.9684">
        <ele>1135</ele>
        <time>2011-05-15T09:05:21Z</time>
      </trkpt>
      <trkpt lat="45.84876" lon="2.96847">
        <ele>1136</ele>
        <time>2011-05-15T09:05:26Z</time>
      </trkpt>
      <trkpt lat="45.84864" lon="2.96861">
        <ele>1140</ele>
        <time>2011-05-15T09:05:37Z</time>
      </trkpt>
      <trkpt lat="45.84864" lon="2.96862">
        <ele>1140</ele>
        <time>2011-05-15T09:05:38Z</time>
      </trkpt>
      <trkpt lat="45.84853" lon="2.96864">
        <ele>1143</ele>
        <time>2011-05-15T09:05:47Z</time>
      </trkpt>
      <trkpt lat="45.84847" lon="2.96869">
        <ele>1146</ele>
        <time>2011-05-15T09:05:53Z</time>
      </trkpt>
      <trkpt lat="45.8484" lon="2.96884">
        <ele>1148</ele>
        <time>2011-05-15T09:06:05Z</time>
      </trkpt>
      <trkpt lat="45.84833" lon="2.96889">
        <ele>1150</ele>
        <time>2011-05-15T09:06:10Z</time>
      </trkpt>
      <trkpt lat="45.84819" lon="2.96884">
        <ele>1152</ele>
        <time>2011-05-15T09:06:25Z</time>
      </trkpt>
      <trkpt lat="45.84803" lon="2.96887">
        <ele>1153</ele>
        <time>2011-05-15T09:06:40Z</time>
      </trkpt>
      <trkpt lat="45.84787" lon="2.9688">
        <ele>1153</ele>
        <time>2011-05-15T09:06:51Z</time>
      </trkpt>
      <trkpt lat="45.84781" lon="2.96876">
        <ele>1154</ele>
        <time>2011-05-15T09:06:54Z</time>
      </trkpt>
      <trkpt lat="45.84764" lon="2.96867">
        <ele>1155</ele>
        <time>2011-05-15T09:07:01Z</time>
      </trkpt>
      <trkpt lat="45.8474" lon="2.96844">
        <ele>1156</ele>
        <time>2011-05-15T09:07:13Z</time>
      </trkpt>
      <trkpt lat="45.84721" lon="2.96817">
        <ele>1157</ele>
        <time>2011-05-15T09:07:24Z</time>
      </trkpt>
      <trkpt lat="45.84711" lon="2.96806">
        <ele>1158</ele>
        <time>2011-05-15T09:07:30Z</time>
      </trkpt>
      <trkpt lat="45.84695" lon="2.96774">
        <ele>1159</ele>
        <time>2011-05-15T09:07:41Z</time>
      </trkpt>
      <trkpt lat="45.84685" lon="2.96743">
        <ele>1159</ele>
        <time>2011-05-15T09:07:49Z</time>
      </trkpt>
      <trkpt lat="45.84677" lon="2.96712">
        <ele>1160</ele>
        <time>2011-05-15T09:07:57Z</time>
      </trkpt>
      <trkpt lat="45.8467" lon="2.96682">
        <ele>1161</ele>
        <time>2011-05-15T09:08:05Z</time>
      </trkpt>
      <trkpt lat="45.84667" lon="2.96675">
        <ele>1161</ele>
        <time>2011-05-15T09:08:08Z</time>
      </trkpt>
      <trkpt lat="45.84665" lon="2.96672">
        <ele>1161</ele>
        <time>2011-05-15T09:08:23Z</time>
      </trkpt>
      <trkpt lat="45.84658" lon="2.96669">
        <ele>1160</ele>
        <time>2011-05-15T09:08:33Z</time>
      </trkpt>
      <trkpt lat="45.84645" lon="2.96661">
        <ele>1157</ele>
        <time>2011-05-15T09:08:38Z</time>
      </trkpt>
      <trkpt lat="45.84633" lon="2.96656">
        <ele>1153</ele>
        <time>2011-05-15T09:08:41Z</time>
      </trkpt>
      <trkpt lat="45.84624" lon="2.96651">
        <ele>1150</ele>
        <time>2011-05-15T09:08:44Z</time>
      </trkpt>
      <trkpt lat="45.84604" lon="2.96622">
        <ele>1144</ele>
        <time>2011-05-15T09:08:50Z</time>
      </trkpt>
      <trkpt lat="45.84603" lon="2.96617">
        <ele>1142</ele>
        <time>2011-05-15T09:08:51Z</time>
      </trkpt>
      <trkpt lat="45.8459" lon="2.96599">
        <ele>1136</ele>
        <time>2011-05-15T09:08:55Z</time>
      </trkpt>
      <trkpt lat="45.84586" lon="2.96596">
        <ele>1135</ele>
        <time>2011-05-15T09:08:56Z</time>
      </trkpt>
      <trkpt lat="45.84577" lon="2.9659">
        <ele>1133</ele>
        <time>2011-05-15T09:08:58Z</time>
      </trkpt>
      <trkpt lat="45.84559" lon="2.96578">
        <ele>1127</ele>
        <time>2011-05-15T09:09:01Z</time>
      </trkpt>
      <trkpt lat="45.84544" lon="2.96553">
        <ele>1122</ele>
        <time>2011-05-15T09:09:06Z</time>
      </trkpt>
      <trkpt lat="45.84532" lon="2.96541">
        <ele>1122</ele>
        <time>2011-05-15T09:09:08Z</time>
      </trkpt>
      <trkpt lat="45.84506" lon="2.96521">
        <ele>1128</ele>
        <time>2011-05-15T09:09:15Z</time>
      </trkpt>
      <trkpt lat="45.845" lon="2.96516">
        <ele>1128</ele>
        <time>2011-05-15T09:09:18Z</time>
      </trkpt>
      <trkpt lat="45.8449" lon="2.96513">
        <ele>1131</ele>
        <time>2011-05-15T09:09:24Z</time>
      </trkpt>
      <trkpt lat="45.84485" lon="2.96505">
        <ele>1132</ele>
        <time>2011-05-15T09:09:27Z</time>
      </trkpt>
      <trkpt lat="45.84474" lon="2.96492">
        <ele>1133</ele>
        <time>2011-05-15T09:09:33Z</time>
      </trkpt>
      <trkpt lat="45.84463" lon="2.96471">
        <ele>1134</ele>
        <time>2011-05-15T09:09:40Z</time>
      </trkpt>
      <trkpt lat="45.84462" lon="2.96468">
        <ele>1135</ele>
        <time>2011-05-15T09:09:53Z</time>
      </trkpt>
      <trkpt lat="45.84453" lon="2.96461">
        <ele>1136</ele>
        <time>2011-05-15T09:09:58Z</time>
      </trkpt>
      <trkpt lat="45.84444" lon="2.9645">
        <ele>1139</ele>
        <time>2011-05-15T09:10:06Z</time>
      </trkpt>
      <trkpt lat="45.84427" lon="2.96442">
        <ele>1140</ele>
        <time>2011-05-15T09:10:18Z</time>
      </trkpt>
      <trkpt lat="45.84422" lon="2.96445">
        <ele>1142</ele>
        <time>2011-05-15T09:10:21Z</time>
      </trkpt>
      <trkpt lat="45.84406" lon="2.96453">
        <ele>1144</ele>
        <time>2011-05-15T09:10:32Z</time>
      </trkpt>
      <trkpt lat="45.84395" lon="2.96461">
        <ele>1145</ele>
        <time>2011-05-15T09:10:40Z</time>
      </trkpt>
      <trkpt lat="45.84394" lon="2.96464">
        <ele>1146</ele>
        <time>2011-05-15T09:10:42Z</time>
      </trkpt>
      <trkpt lat="45.84395" lon="2.96471">
        <ele>1147</ele>
        <time>2011-05-15T09:10:48Z</time>
      </trkpt>
      <trkpt lat="45.84395" lon="2.96472">
        <ele>1147</ele>
        <time>2011-05-15T09:10:49Z</time>
      </trkpt>
      <trkpt lat="45.84396" lon="2.96478">
        <ele>1148</ele>
        <time>2011-05-15T09:10:52Z</time>
      </trkpt>
      <trkpt lat="45.84394" lon="2.96492">
        <ele>1151</ele>
        <time>2011-05-15T09:11:00Z</time>
      </trkpt>
      <trkpt lat="45.84395" lon="2.96493">
        <ele>1152</ele>
        <time>2011-05-15T09:11:01Z</time>
      </trkpt>
      <trkpt lat="45.84397" lon="2.96497">
        <ele>1152</ele>
        <time>2011-05-15T09:11:05Z</time>
      </trkpt>
      <trkpt lat="45.84387" lon="2.96506">
        <ele>1155</ele>
        <time>2011-05-15T09:11:16Z</time>
      </trkpt>
      <trkpt lat="45.84378" lon="2.96514">
        <ele>1156</ele>
        <time>2011-05-15T09:11:25Z</time>
      </trkpt>
      <trkpt lat="45.84373" lon="2.96517">
        <ele>1155</ele>
        <time>2011-05-15T09:11:34Z</time>
      </trkpt>
      <trkpt lat="45.84371" lon="2.96518">
        <ele>1155</ele>
        <time>2011-05-15T09:12:47Z</time>
      </trkpt>
      <trkpt lat="45.84354" lon="2.96518">
        <ele>1154</ele>
        <time>2011-05-15T09:12:53Z</time>
      </trkpt>
      <trkpt lat="45.84317" lon="2.965">
        <ele>1149</ele>
        <time>2011-05-15T09:13:00Z</time>
      </trkpt>
      <trkpt lat="45.8431" lon="2.96497">
        <ele>1149</ele>
        <time>2011-05-15T09:13:01Z</time>
      </trkpt>
      <trkpt lat="45.84291" lon="2.96486">
        <ele>1146</ele>
        <time>2011-05-15T09:13:04Z</time>
      </trkpt>
      <trkpt lat="45.84262" lon="2.96455">
        <ele>1145</ele>
        <time>2011-05-15T09:13:12Z</time>
      </trkpt>
      <trkpt lat="45.84254" lon="2.96442">
        <ele>1145</ele>
        <time>2011-05-15T09:13:15Z</time>
      </trkpt>
      <trkpt lat="45.84222" lon="2.96401">
        <ele>1146</ele>
        <time>2011-05-15T09:13:25Z</time>
      </trkpt>
      <trkpt lat="45.84208" lon="2.96374">
        <ele>1147</ele>
        <time>2011-05-15T09:13:32Z</time>
      </trkpt>
      <trkpt lat="45.8418" lon="2.96347">
        <ele>1145</ele>
        <time>2011-05-15T09:13:39Z</time>
      </trkpt>
      <trkpt lat="45.8416" lon="2.96335">
        <ele>1139</ele>
        <time>2011-05-15T09:13:42Z</time>
      </trkpt>
      <trkpt lat="45.84153" lon="2.96332">
        <ele>1137</ele>
        <time>2011-05-15T09:13:43Z</time>
      </trkpt>
      <trkpt lat="45.84132" lon="2.96317">
        <ele>1132</ele>
        <time>2011-05-15T09:13:46Z</time>
      </trkpt>
      <trkpt lat="45.84127" lon="2.96311">
        <ele>1131</ele>
        <time>2011-05-15T09:13:47Z</time>
      </trkpt>
      <trkpt lat="45.84117" lon="2.96302">
        <ele>1128</ele>
        <time>2011-05-15T09:13:49Z</time>
      </trkpt>
      <trkpt lat="45.84101" lon="2.96285">
        <ele>1123</ele>
        <time>2011-05-15T09:13:52Z</time>
      </trkpt>
      <trkpt lat="45.84095" lon="2.96279">
        <ele>1122</ele>
        <time>2011-05-15T09:13:53Z</time>
      </trkpt>
      <trkpt lat="45.8408" lon="2.96262">
        <ele>1116</ele>
        <time>2011-05-15T09:13:56Z</time>
      </trkpt>
      <trkpt lat="45.84071" lon="2.96254">
        <ele>1113</ele>
        <time>2011-05-15T09:13:58Z</time>
      </trkpt>
      <trkpt lat="45.84057" lon="2.96247">
        <ele>1109</ele>
        <time>2011-05-15T09:14:02Z</time>
      </trkpt>
      <trkpt lat="45.84055" lon="2.96246">
        <ele>1109</ele>
        <time>2011-05-15T09:14:03Z</time>
      </trkpt>
      <trkpt lat="45.84045" lon="2.9624">
        <ele>1107</ele>
        <time>2011-05-15T09:14:06Z</time>
      </trkpt>
      <trkpt lat="45.84006" lon="2.9623">
        <ele>1102</ele>
        <time>2011-05-15T09:14:12Z</time>
      </trkpt>
      <trkpt lat="45.83993" lon="2.96228">
        <ele>1100</ele>
        <time>2011-05-15T09:14:14Z</time>
      </trkpt>
      <trkpt lat="45.83957" lon="2.96216">
        <ele>1101</ele>
        <time>2011-05-15T09:14:21Z</time>
      </trkpt>
      <trkpt lat="45.83922" lon="2.96214">
        <ele>1101</ele>
        <time>2011-05-15T09:14:28Z</time>
      </trkpt>
      <trkpt lat="45.83907" lon="2.96219">
        <ele>1100</ele>
        <time>2011-05-15T09:14:30Z</time>
      </trkpt>
      <trkpt lat="45.83884" lon="2.96218">
        <ele>1096</ele>
        <time>2011-05-15T09:14:34Z</time>
      </trkpt>
      <trkpt lat="45.83855" lon="2.96221">
        <ele>1092</ele>
        <time>2011-05-15T09:14:38Z</time>
      </trkpt>
      <trkpt lat="45.83827" lon="2.96221">
        <ele>1085</ele>
        <time>2011-05-15T09:14:43Z</time>
      </trkpt>
      <trkpt lat="45.83808" lon="2.96221">
        <ele>1081</ele>
        <time>2011-05-15T09:14:46Z</time>
      </trkpt>
      <trkpt lat="45.83788" lon="2.96222">
        <ele>1078</ele>
        <time>2011-05-15T09:14:49Z</time>
      </trkpt>
      <trkpt lat="45.8378" lon="2.96222">
        <ele>1075</ele>
        <time>2011-05-15T09:14:50Z</time>
      </trkpt>
      <trkpt lat="45.83763" lon="2.96215">
        <ele>1071</ele>
        <time>2011-05-15T09:14:53Z</time>
      </trkpt>
      <trkpt lat="45.83754" lon="2.96209">
        <ele>1068</ele>
        <time>2011-05-15T09:14:55Z</time>
      </trkpt>
      <trkpt lat="45.83746" lon="2.96193">
        <ele>1064</ele>
        <time>2011-05-15T09:14:58Z</time>
      </trkpt>
      <trkpt lat="45.83745" lon="2.96186">
        <ele>1063</ele>
        <time>2011-05-15T09:14:59Z</time>
      </trkpt>
      <trkpt lat="45.83742" lon="2.96158">
        <ele>1058</ele>
        <time>2011-05-15T09:15:03Z</time>
      </trkpt>
      <trkpt lat="45.8374" lon="2.96134">
        <ele>1052</ele>
        <time>2011-05-15T09:15:06Z</time>
      </trkpt>
      <trkpt lat="45.83738" lon="2.96118">
        <ele>1049</ele>
        <time>2011-05-15T09:15:08Z</time>
      </trkpt>
      <trkpt lat="45.83737" lon="2.96109">
        <ele>1048</ele>
        <time>2011-05-15T09:15:09Z</time>
      </trkpt>
      <trkpt lat="45.83731" lon="2.96079">
        <ele>1047</ele>
        <time>2011-05-15T09:15:13Z</time>
      </trkpt>
      <trkpt lat="45.83726" lon="2.96036">
        <ele>1043</ele>
        <time>2011-05-15T09:15:17Z</time>
      </trkpt>
      <trkpt lat="45.83723" lon="2.96029">
        <ele>1042</ele>
        <time>2011-05-15T09:15:18Z</time>
      </trkpt>
      <trkpt lat="45.83709" lon="2.96019">
        <ele>1037</ele>
        <time>2011-05-15T09:15:21Z</time>
      </trkpt>
      <trkpt lat="45.8369" lon="2.95999">
        <ele>1032</ele>
        <time>2011-05-15T09:15:25Z</time>
      </trkpt>
      <trkpt lat="45.83679" lon="2.95987">
        <ele>1031</ele>
        <time>2011-05-15T09:15:28Z</time>
      </trkpt>
      <trkpt lat="45.83682" lon="2.95959">
        <ele>1027</ele>
        <time>2011-05-15T09:15:34Z</time>
      </trkpt>
      <trkpt lat="45.8369" lon="2.95942">
        <ele>1024</ele>
        <time>2011-05-15T09:15:37Z</time>
      </trkpt>
      <trkpt lat="45.83688" lon="2.95924">
        <ele>1022</ele>
        <time>2011-05-15T09:15:40Z</time>
      </trkpt>
      <trkpt lat="45.83688" lon="2.95914">
        <ele>1022</ele>
        <time>2011-05-15T09:15:55Z</time>
      </trkpt>
      <trkpt lat="45.83691" lon="2.95924">
        <ele>1023</ele>
        <time>2011-05-15T09:17:56Z</time>
      </trkpt>
      <trkpt lat="45.83712" lon="2.95913">
        <ele>1022</ele>
        <time>2011-05-15T09:18:02Z</time>
      </trkpt>
      <trkpt lat="45.83731" lon="2.95905">
        <ele>1021</ele>
        <time>2011-05-15T09:18:05Z</time>
      </trkpt>
      <trkpt lat="45.83737" lon="2.95904">
        <ele>1020</ele>
        <time>2011-05-15T09:18:06Z</time>
      </trkpt>
      <trkpt lat="45.83759" lon="2.95896">
        <ele>1019</ele>
        <time>2011-05-15T09:18:09Z</time>
      </trkpt>
      <trkpt lat="45.83785" lon="2.95875">
        <ele>1018</ele>
        <time>2011-05-15T09:18:13Z</time>
      </trkpt>
      <trkpt lat="45.83808" lon="2.95858">
        <ele>1015</ele>
        <time>2011-05-15T09:18:16Z</time>
      </trkpt>
      <trkpt lat="45.83832" lon="2.95843">
        <ele>1014</ele>
        <time>2011-05-15T09:18:19Z</time>
      </trkpt>
      <trkpt lat="45.83873" lon="2.95812">
        <ele>1011</ele>
        <time>2011-05-15T09:18:24Z</time>
      </trkpt>
      <trkpt lat="45.83912" lon="2.95796">
        <ele>1008</ele>
        <time>2011-05-15T09:18:29Z</time>
      </trkpt>
      <trkpt lat="45.83919" lon="2.95795">
        <ele>1006</ele>
        <time>2011-05-15T09:18:30Z</time>
      </trkpt>
      <trkpt lat="45.83946" lon="2.95777">
        <ele>1004</ele>
        <time>2011-05-15T09:18:34Z</time>
      </trkpt>
      <trkpt lat="45.83984" lon="2.9574">
        <ele>1001</ele>
        <time>2011-05-15T09:18:40Z</time>
      </trkpt>
      <trkpt lat="45.84001" lon="2.95722">
        <ele>1000</ele>
        <time>2011-05-15T09:18:43Z</time>
      </trkpt>
      <trkpt lat="45.84042" lon="2.9569">
        <ele>999</ele>
        <time>2011-05-15T09:18:48Z</time>
      </trkpt>
      <trkpt lat="45.8406" lon="2.95689">
        <ele>999</ele>
        <time>2011-05-15T09:18:51Z</time>
      </trkpt>
      <trkpt lat="45.84086" lon="2.95693">
        <ele>999</ele>
        <time>2011-05-15T09:18:55Z</time>
      </trkpt>
      <trkpt lat="45.8411" lon="2.95697">
        <ele>999</ele>
        <time>2011-05-15T09:18:59Z</time>
      </trkpt>
      <trkpt lat="45.84153" lon="2.95699">
        <ele>999</ele>
        <time>2011-05-15T09:19:06Z</time>
      </trkpt>
      <trkpt lat="45.84187" lon="2.95708">
        <ele>1000</ele>
        <time>2011-05-15T09:19:12Z</time>
      </trkpt>
      <trkpt lat="45.84198" lon="2.9571">
        <ele>1000</ele>
        <time>2011-05-15T09:19:14Z</time>
      </trkpt>
      <trkpt lat="45.84226" lon="2.95716">
        <ele>1001</ele>
        <time>2011-05-15T09:19:20Z</time>
      </trkpt>
      <trkpt lat="45.84244" lon="2.95715">
        <ele>1001</ele>
        <time>2011-05-15T09:19:24Z</time>
      </trkpt>
      <trkpt lat="45.84265" lon="2.95716">
        <ele>1001</ele>
        <time>2011-05-15T09:19:28Z</time>
      </trkpt>
      <trkpt lat="45.84293" lon="2.95713">
        <ele>1001</ele>
        <time>2011-05-15T09:19:33Z</time>
      </trkpt>
      <trkpt lat="45.84323" lon="2.95718">
        <ele>1002</ele>
        <time>2011-05-15T09:19:40Z</time>
      </trkpt>
      <trkpt lat="45.84346" lon="2.95719">
        <ele>1003</ele>
        <time>2011-05-15T09:19:45Z</time>
      </trkpt>
      <trkpt lat="45.84388" lon="2.95725">
        <ele>1005</ele>
        <time>2011-05-15T09:19:53Z</time>
      </trkpt>
      <trkpt lat="45.84407" lon="2.95731">
        <ele>1006</ele>
        <time>2011-05-15T09:19:58Z</time>
      </trkpt>
      <trkpt lat="45.84414" lon="2.9573">
        <ele>1006</ele>
        <time>2011-05-15T09:20:00Z</time>
      </trkpt>
      <trkpt lat="45.84435" lon="2.95743">
        <ele>1008</ele>
        <time>2011-05-15T09:20:06Z</time>
      </trkpt>
      <trkpt lat="45.84445" lon="2.9575">
        <ele>1009</ele>
        <time>2011-05-15T09:20:10Z</time>
      </trkpt>
      <trkpt lat="45.84452" lon="2.95757">
        <ele>1009</ele>
        <time>2011-05-15T09:20:12Z</time>
      </trkpt>
      <trkpt lat="45.84488" lon="2.9577">
        <ele>1010</ele>
        <time>2011-05-15T09:20:20Z</time>
      </trkpt>
      <trkpt lat="45.84526" lon="2.95784">
        <ele>1009</ele>
        <time>2011-05-15T09:20:29Z</time>
      </trkpt>
      <trkpt lat="45.84558" lon="2.95794">
        <ele>1009</ele>
        <time>2011-05-15T09:20:37Z</time>
      </trkpt>
      <trkpt lat="45.8459" lon="2.95812">
        <ele>1009</ele>
        <time>2011-05-15T09:20:44Z</time>
      </trkpt>
      <trkpt lat="45.84631" lon="2.95814">
        <ele>1007</ele>
        <time>2011-05-15T09:20:50Z</time>
      </trkpt>
      <trkpt lat="45.84648" lon="2.95823">
        <ele>1006</ele>
        <time>2011-05-15T09:20:53Z</time>
      </trkpt>
      <trkpt lat="45.84691" lon="2.95827">
        <ele>1002</ele>
        <time>2011-05-15T09:20:59Z</time>
      </trkpt>
      <trkpt lat="45.84696" lon="2.95829">
        <ele>1003</ele>
        <time>2011-05-15T09:21:00Z</time>
      </trkpt>
      <trkpt lat="45.84736" lon="2.95855">
        <ele>1001</ele>
        <time>2011-05-15T09:21:05Z</time>
      </trkpt>
      <trkpt lat="45.84755" lon="2.95874">
        <ele>1000</ele>
        <time>2011-05-15T09:21:08Z</time>
      </trkpt>
      <trkpt lat="45.84781" lon="2.95884">
        <ele>999</ele>
        <time>2011-05-15T09:21:13Z</time>
      </trkpt>
      <trkpt lat="45.848" lon="2.95914">
        <ele>999</ele>
        <time>2011-05-15T09:21:18Z</time>
      </trkpt>
      <trkpt lat="45.84828" lon="2.95955">
        <ele>1001</ele>
        <time>2011-05-15T09:21:26Z</time>
      </trkpt>
      <trkpt lat="45.84845" lon="2.95983">
        <ele>1002</ele>
        <time>2011-05-15T09:21:33Z</time>
      </trkpt>
      <trkpt lat="45.84865" lon="2.96003">
        <ele>1003</ele>
        <time>2011-05-15T09:21:40Z</time>
      </trkpt>
      <trkpt lat="45.84888" lon="2.96031">
        <ele>1007</ele>
        <time>2011-05-15T09:21:48Z</time>
      </trkpt>
      <trkpt lat="45.8489" lon="2.96034">
        <ele>1007</ele>
        <time>2011-05-15T09:21:49Z</time>
      </trkpt>
      <trkpt lat="45.84895" lon="2.96041">
        <ele>1007</ele>
        <time>2011-05-15T09:21:51Z</time>
      </trkpt>
      <trkpt lat="45.84916" lon="2.96054">
        <ele>1008</ele>
        <time>2011-05-15T09:21:57Z</time>
      </trkpt>
      <trkpt lat="45.8492" lon="2.96059">
        <ele>1008</ele>
        <time>2011-05-15T09:21:59Z</time>
      </trkpt>
      <trkpt lat="45.84937" lon="2.96081">
        <ele>1010</ele>
        <time>2011-05-15T09:22:06Z</time>
      </trkpt>
      <trkpt lat="45.84956" lon="2.96096">
        <ele>1011</ele>
        <time>2011-05-15T09:22:13Z</time>
      </trkpt>
      <trkpt lat="45.84973" lon="2.96118">
        <ele>1012</ele>
        <time>2011-05-15T09:22:21Z</time>
      </trkpt>
      <trkpt lat="45.84995" lon="2.96145">
        <ele>1014</ele>
        <time>2011-05-15T09:22:29Z</time>
      </trkpt>
      <trkpt lat="45.85015" lon="2.9616">
        <ele>1016</ele>
        <time>2011-05-15T09:22:38Z</time>
      </trkpt>
      <trkpt lat="45.85016" lon="2.96165">
        <ele>1017</ele>
        <time>2011-05-15T09:22:39Z</time>
      </trkpt>
      <trkpt lat="45.8504" lon="2.96182">
        <ele>1020</ele>
        <time>2011-05-15T09:22:49Z</time>
      </trkpt>
      <trkpt lat="45.85043" lon="2.96191">
        <ele>1021</ele>
        <time>2011-05-15T09:22:53Z</time>
      </trkpt>
      <trkpt lat="45.85057" lon="2.96221">
        <ele>1024</ele>
        <time>2011-05-15T09:23:03Z</time>
      </trkpt>
      <trkpt lat="45.85062" lon="2.96231">
        <ele>1025</ele>
        <time>2011-05-15T09:23:07Z</time>
      </trkpt>
      <trkpt lat="45.85072" lon="2.96244">
        <ele>1027</ele>
        <time>2011-05-15T09:23:14Z</time>
      </trkpt>
      <trkpt lat="45.85077" lon="2.96254">
        <ele>1029</ele>
        <time>2011-05-15T09:23:20Z</time>
      </trkpt>
      <trkpt lat="45.85084" lon="2.96277">
        <ele>1031</ele>
        <time>2011-05-15T09:23:30Z</time>
      </trkpt>
      <trkpt lat="45.85098" lon="2.96299">
        <ele>1034</ele>
        <time>2011-05-15T09:23:40Z</time>
      </trkpt>
      <trkpt lat="45.85102" lon="2.96306">
        <ele>1035</ele>
        <time>2011-05-15T09:23:44Z</time>
      </trkpt>
      <trkpt lat="45.85117" lon="2.96333">
        <ele>1038</ele>
        <time>2011-05-15T09:23:56Z</time>
      </trkpt>
      <trkpt lat="45.8514" lon="2.96358">
        <ele>1040</ele>
        <time>2011-05-15T09:24:07Z</time>
      </trkpt>
      <trkpt lat="45.85152" lon="2.96368">
        <ele>1041</ele>
        <time>2011-05-15T09:24:13Z</time>
      </trkpt>
      <trkpt lat="45.85159" lon="2.9638">
        <ele>1041</ele>
        <time>2011-05-15T09:24:17Z</time>
      </trkpt>
      <trkpt lat="45.85165" lon="2.96393">
        <ele>1042</ele>
        <time>2011-05-15T09:24:28Z</time>
      </trkpt>
      <trkpt lat="45.85182" lon="2.96397">
        <ele>1043</ele>
        <time>2011-05-15T09:25:45Z</time>
      </trkpt>
      <trkpt lat="45.85211" lon="2.96411">
        <ele>1043</ele>
        <time>2011-05-15T09:25:51Z</time>
      </trkpt>
      <trkpt lat="45.85232" lon="2.96458">
        <ele>1039</ele>
        <time>2011-05-15T09:25:57Z</time>
      </trkpt>
      <trkpt lat="45.85237" lon="2.9647">
        <ele>1039</ele>
        <time>2011-05-15T09:25:58Z</time>
      </trkpt>
      <trkpt lat="45.85243" lon="2.96491">
        <ele>1038</ele>
        <time>2011-05-15T09:26:00Z</time>
      </trkpt>
      <trkpt lat="45.85262" lon="2.96567">
        <ele>1035</ele>
        <time>2011-05-15T09:26:07Z</time>
      </trkpt>
      <trkpt lat="45.85274" lon="2.96597">
        <ele>1034</ele>
        <time>2011-05-15T09:26:10Z</time>
      </trkpt>
      <trkpt lat="45.85285" lon="2.9661">
        <ele>1033</ele>
        <time>2011-05-15T09:26:12Z</time>
      </trkpt>
      <trkpt lat="45.85292" lon="2.96621">
        <ele>1031</ele>
        <time>2011-05-15T09:26:14Z</time>
      </trkpt>
      <trkpt lat="45.85293" lon="2.96635">
        <ele>1031</ele>
        <time>2011-05-15T09:26:16Z</time>
      </trkpt>
      <trkpt lat="45.853" lon="2.96669">
        <ele>1030</ele>
        <time>2011-05-15T09:26:19Z</time>
      </trkpt>
      <trkpt lat="45.85299" lon="2.96678">
        <ele>1029</ele>
        <time>2011-05-15T09:26:21Z</time>
      </trkpt>
      <trkpt lat="45.85308" lon="2.96699">
        <ele>1029</ele>
        <time>2011-05-15T09:26:26Z</time>
      </trkpt>
      <trkpt lat="45.85327" lon="2.96715">
        <ele>1025</ele>
        <time>2011-05-15T09:26:30Z</time>
      </trkpt>
      <trkpt lat="45.85344" lon="2.96727">
        <ele>1021</ele>
        <time>2011-05-15T09:26:34Z</time>
      </trkpt>
      <trkpt lat="45.85352" lon="2.9673">
        <ele>1021</ele>
        <time>2011-05-15T09:26:35Z</time>
      </trkpt>
      <trkpt lat="45.85372" lon="2.96737">
        <ele>1018</ele>
        <time>2011-05-15T09:26:38Z</time>
      </trkpt>
      <trkpt lat="45.85391" lon="2.96739">
        <ele>1015</ele>
        <time>2011-05-15T09:26:41Z</time>
      </trkpt>
      <trkpt lat="45.85404" lon="2.96741">
        <ele>1012</ele>
        <time>2011-05-15T09:26:44Z</time>
      </trkpt>
      <trkpt lat="45.85414" lon="2.96738">
        <ele>1011</ele>
        <time>2011-05-15T09:26:46Z</time>
      </trkpt>
      <trkpt lat="45.85427" lon="2.9674">
        <ele>1011</ele>
        <time>2011-05-15T09:26:49Z</time>
      </trkpt>
      <trkpt lat="45.85447" lon="2.96744">
        <ele>1008</ele>
        <time>2011-05-15T09:26:56Z</time>
      </trkpt>
      <trkpt lat="45.85459" lon="2.96749">
        <ele>1006</ele>
        <time>2011-05-15T09:27:02Z</time>
      </trkpt>
      <trkpt lat="45.85483" lon="2.96747">
        <ele>1004</ele>
        <time>2011-05-15T09:27:08Z</time>
      </trkpt>
      <trkpt lat="45.855" lon="2.96741">
        <ele>1003</ele>
        <time>2011-05-15T09:27:13Z</time>
      </trkpt>
      <trkpt lat="45.8552" lon="2.96741">
        <ele>1001</ele>
        <time>2011-05-15T09:27:18Z</time>
      </trkpt>
      <trkpt lat="45.85544" lon="2.96739">
        <ele>998</ele>
        <time>2011-05-15T09:27:25Z</time>
      </trkpt>
      <trkpt lat="45.85568" lon="2.9673">
        <ele>997</ele>
        <time>2011-05-15T09:27:33Z</time>
      </trkpt>
      <trkpt lat="45.85574" lon="2.96729">
        <ele>994</ele>
        <time>2011-05-15T09:27:41Z</time>
      </trkpt>
      <trkpt lat="45.85567" lon="2.96741">
        <ele>990</ele>
        <time>2011-05-15T09:27:46Z</time>
      </trkpt>
      <trkpt lat="45.85559" lon="2.96758">
        <ele>986</ele>
        <time>2011-05-15T09:27:52Z</time>
      </trkpt>
      <trkpt lat="45.85551" lon="2.96772">
        <ele>984</ele>
        <time>2011-05-15T09:27:56Z</time>
      </trkpt>
      <trkpt lat="45.85537" lon="2.96802">
        <ele>983</ele>
        <time>2011-05-15T09:28:04Z</time>
      </trkpt>
      <trkpt lat="45.85524" lon="2.9682">
        <ele>982</ele>
        <time>2011-05-15T09:28:09Z</time>
      </trkpt>
      <trkpt lat="45.8552" lon="2.96822">
        <ele>980</ele>
        <time>2011-05-15T09:28:11Z</time>
      </trkpt>
      <trkpt lat="45.85516" lon="2.96825">
        <ele>976</ele>
        <time>2011-05-15T09:28:13Z</time>
      </trkpt>
      <trkpt lat="45.85515" lon="2.96829">
        <ele>974</ele>
        <time>2011-05-15T09:28:15Z</time>
      </trkpt>
      <trkpt lat="45.85514" lon="2.96831">
        <ele>974</ele>
        <time>2011-05-15T09:28:16Z</time>
      </trkpt>
      <trkpt lat="45.85517" lon="2.96838">
        <ele>973</ele>
        <time>2011-05-15T09:28:19Z</time>
      </trkpt>
      <trkpt lat="45.85519" lon="2.9684">
        <ele>972</ele>
        <time>2011-05-15T09:28:21Z</time>
      </trkpt>
      <trkpt lat="45.85531" lon="2.9686">
        <ele>968</ele>
        <time>2011-05-15T09:28:27Z</time>
      </trkpt>
      <trkpt lat="45.85539" lon="2.96869">
        <ele>964</ele>
        <time>2011-05-15T09:28:31Z</time>
      </trkpt>
      <trkpt lat="45.85544" lon="2.96873">
        <ele>962</ele>
        <time>2011-05-15T09:28:33Z</time>
      </trkpt>
      <trkpt lat="45.85557" lon="2.9688">
        <ele>958</ele>
        <time>2011-05-15T09:28:37Z</time>
      </trkpt>
      <trkpt lat="45.85562" lon="2.96882">
        <ele>955</ele>
        <time>2011-05-15T09:28:38Z</time>
      </trkpt>
      <trkpt lat="45.8557" lon="2.96892">
        <ele>952</ele>
        <time>2011-05-15T09:28:41Z</time>
      </trkpt>
      <trkpt lat="45.85581" lon="2.96904">
        <ele>948</ele>
        <time>2011-05-15T09:28:45Z</time>
      </trkpt>
      <trkpt lat="45.85591" lon="2.96937">
        <ele>945</ele>
        <time>2011-05-15T09:28:53Z</time>
      </trkpt>
      <trkpt lat="45.85587" lon="2.96936">
        <ele>945</ele>
        <time>2011-05-15T09:29:06Z</time>
      </trkpt>
      <trkpt lat="45.85586" lon="2.96936">
        <ele>945</ele>
        <time>2011-05-15T09:29:22Z</time>
      </trkpt>
      <trkpt lat="45.85587" lon="2.96936">
        <ele>945</ele>
        <time>2011-05-15T09:29:33Z</time>
      </trkpt>
      <trkpt lat="45.85601" lon="2.96942">
        <ele>940</ele>
        <time>2011-05-15T09:29:38Z</time>
      </trkpt>
      <trkpt lat="45.85617" lon="2.96936">
        <ele>936</ele>
        <time>2011-05-15T09:29:41Z</time>
      </trkpt>
      <trkpt lat="45.85623" lon="2.96934">
        <ele>936</ele>
        <time>2011-05-15T09:29:42Z</time>
      </trkpt>
      <trkpt lat="45.85641" lon="2.96939">
        <ele>928</ele>
        <time>2011-05-15T09:29:46Z</time>
      </trkpt>
      <trkpt lat="45.85652" lon="2.9695">
        <ele>924</ele>
        <time>2011-05-15T09:29:49Z</time>
      </trkpt>
      <trkpt lat="45.85663" lon="2.96957">
        <ele>918</ele>
        <time>2011-05-15T09:29:52Z</time>
      </trkpt>
      <trkpt lat="45.85669" lon="2.96959">
        <ele>919</ele>
        <time>2011-05-15T09:29:53Z</time>
      </trkpt>
      <trkpt lat="45.85703" lon="2.96974">
        <ele>913</ele>
        <time>2011-05-15T09:29:58Z</time>
      </trkpt>
      <trkpt lat="45.85759" lon="2.9698">
        <ele>908</ele>
        <time>2011-05-15T09:30:03Z</time>
      </trkpt>
      <trkpt lat="45.85774" lon="2.96976">
        <ele>905</ele>
        <time>2011-05-15T09:30:05Z</time>
      </trkpt>
      <trkpt lat="45.8581" lon="2.96978">
        <ele>901</ele>
        <time>2011-05-15T09:30:09Z</time>
      </trkpt>
      <trkpt lat="45.85832" lon="2.96979">
        <ele>898</ele>
        <time>2011-05-15T09:30:11Z</time>
      </trkpt>
      <trkpt lat="45.8585" lon="2.96983">
        <ele>894</ele>
        <time>2011-05-15T09:30:13Z</time>
      </trkpt>
      <trkpt lat="45.85867" lon="2.96993">
        <ele>892</ele>
        <time>2011-05-15T09:30:18Z</time>
      </trkpt>
      <trkpt lat="45.8588" lon="2.96995">
        <ele>893</ele>
        <time>2011-05-15T09:30:37Z</time>
      </trkpt>
      <trkpt lat="45.85875" lon="2.97038">
        <ele>893</ele>
        <time>2011-05-15T09:30:50Z</time>
      </trkpt>
      <trkpt lat="45.85862" lon="2.97073">
        <ele>893</ele>
        <time>2011-05-15T09:30:59Z</time>
      </trkpt>
      <trkpt lat="45.85851" lon="2.97105">
        <ele>894</ele>
        <time>2011-05-15T09:31:08Z</time>
      </trkpt>
      <trkpt lat="45.85836" lon="2.97143">
        <ele>894</ele>
        <time>2011-05-15T09:31:17Z</time>
      </trkpt>
      <trkpt lat="45.8583" lon="2.97178">
        <ele>892</ele>
        <time>2011-05-15T09:31:23Z</time>
      </trkpt>
      <trkpt lat="45.85822" lon="2.97221">
        <ele>891</ele>
        <time>2011-05-15T09:31:28Z</time>
      </trkpt>
      <trkpt lat="45.85819" lon="2.97231">
        <ele>889</ele>
        <time>2011-05-15T09:31:30Z</time>
      </trkpt>
      <trkpt lat="45.85811" lon="2.97257">
        <ele>888</ele>
        <time>2011-05-15T09:31:39Z</time>
      </trkpt>
      <trkpt lat="45.85808" lon="2.97277">
        <ele>889</ele>
        <time>2011-05-15T09:31:46Z</time>
      </trkpt>
      <trkpt lat="45.8581" lon="2.97282">
        <ele>888</ele>
        <time>2011-05-15T09:31:48Z</time>
      </trkpt>
      <trkpt lat="45.85806" lon="2.97308">
        <ele>888</ele>
        <time>2011-05-15T09:31:56Z</time>
      </trkpt>
      <trkpt lat="45.85816" lon="2.97313">
        <ele>888</ele>
        <time>2011-05-15T09:32:00Z</time>
      </trkpt>
      <trkpt lat="45.85835" lon="2.97316">
        <ele>887</ele>
        <time>2011-05-15T09:32:06Z</time>
      </trkpt>
      <trkpt lat="45.85838" lon="2.97326">
        <ele>887</ele>
        <time>2011-05-15T09:32:10Z</time>
      </trkpt>
      <trkpt lat="45.85835" lon="2.97343">
        <ele>887</ele>
        <time>2011-05-15T09:32:16Z</time>
      </trkpt>
      <trkpt lat="45.85835" lon="2.97371">
        <ele>886</ele>
        <time>2011-05-15T09:32:25Z</time>
      </trkpt>
      <trkpt lat="45.85834" lon="2.97377">
        <ele>886</ele>
        <time>2011-05-15T09:33:12Z</time>
      </trkpt>
      <trkpt lat="45.85843" lon="2.97369">
        <ele>884</ele>
        <time>2011-05-15T09:33:16Z</time>
      </trkpt>
      <trkpt lat="45.85875" lon="2.97358">
        <ele>883</ele>
        <time>2011-05-15T09:33:22Z</time>
      </trkpt>
      <trkpt lat="45.859" lon="2.97349">
        <ele>881</ele>
        <time>2011-05-15T09:33:26Z</time>
      </trkpt>
      <trkpt lat="45.85916" lon="2.9735">
        <ele>880</ele>
        <time>2011-05-15T09:33:29Z</time>
      </trkpt>
      <trkpt lat="45.85924" lon="2.97351">
        <ele>880</ele>
        <time>2011-05-15T09:33:34Z</time>
      </trkpt>
      <trkpt lat="45.85929" lon="2.97372">
        <ele>880</ele>
        <time>2011-05-15T09:33:39Z</time>
      </trkpt>
      <trkpt lat="45.8594" lon="2.97395">
        <ele>878</ele>
        <time>2011-05-15T09:33:46Z</time>
      </trkpt>
      <trkpt lat="45.85981" lon="2.97433">
        <ele>875</ele>
        <time>2011-05-15T09:33:55Z</time>
      </trkpt>
      <trkpt lat="45.8603" lon="2.97448">
        <ele>874</ele>
        <time>2011-05-15T09:34:01Z</time>
      </trkpt>
      <trkpt lat="45.86045" lon="2.97466">
        <ele>873</ele>
        <time>2011-05-15T09:34:03Z</time>
      </trkpt>
      <trkpt lat="45.86064" lon="2.97487">
        <ele>873</ele>
        <time>2011-05-15T09:34:05Z</time>
      </trkpt>
      <trkpt lat="45.86117" lon="2.975">
        <ele>872</ele>
        <time>2011-05-15T09:34:10Z</time>
      </trkpt>
      <trkpt lat="45.8614" lon="2.975">
        <ele>871</ele>
        <time>2011-05-15T09:34:13Z</time>
      </trkpt>
      <trkpt lat="45.86178" lon="2.97538">
        <ele>870</ele>
        <time>2011-05-15T09:34:20Z</time>
      </trkpt>
      <trkpt lat="45.86207" lon="2.97582">
        <ele>868</ele>
        <time>2011-05-15T09:34:26Z</time>
      </trkpt>
      <trkpt lat="45.86221" lon="2.97599">
        <ele>867</ele>
        <time>2011-05-15T09:34:30Z</time>
      </trkpt>
      <trkpt lat="45.86237" lon="2.97634">
        <ele>866</ele>
        <time>2011-05-15T09:34:34Z</time>
      </trkpt>
      <trkpt lat="45.86249" lon="2.97662">
        <ele>865</ele>
        <time>2011-05-15T09:34:37Z</time>
      </trkpt>
      <trkpt lat="45.86283" lon="2.97702">
        <ele>863</ele>
        <time>2011-05-15T09:34:41Z</time>
      </trkpt>
      <trkpt lat="45.86308" lon="2.97716">
        <ele>863</ele>
        <time>2011-05-15T09:34:44Z</time>
      </trkpt>
      <trkpt lat="45.86337" lon="2.97742">
        <ele>862</ele>
        <time>2011-05-15T09:34:50Z</time>
      </trkpt>
      <trkpt lat="45.86344" lon="2.97752">
        <ele>861</ele>
        <time>2011-05-15T09:34:51Z</time>
      </trkpt>
      <trkpt lat="45.86353" lon="2.97759">
        <ele>860</ele>
        <time>2011-05-15T09:34:53Z</time>
      </trkpt>
      <trkpt lat="45.86357" lon="2.97761">
        <ele>860</ele>
        <time>2011-05-15T09:34:54Z</time>
      </trkpt>
      <trkpt lat="45.86388" lon="2.97764">
        <ele>858</ele>
        <time>2011-05-15T09:34:58Z</time>
      </trkpt>
      <trkpt lat="45.86424" lon="2.97778">
        <ele>856</ele>
        <time>2011-05-15T09:35:04Z</time>
      </trkpt>
      <trkpt lat="45.86449" lon="2.97792">
        <ele>855</ele>
        <time>2011-05-15T09:35:07Z</time>
      </trkpt>
      <trkpt lat="45.8647" lon="2.97805">
        <ele>854</ele>
        <time>2011-05-15T09:35:10Z</time>
      </trkpt>
      <trkpt lat="45.86508" lon="2.97852">
        <ele>852</ele>
        <time>2011-05-15T09:35:15Z</time>
      </trkpt>
      <trkpt lat="45.86515" lon="2.9786">
        <ele>851</ele>
        <time>2011-05-15T09:35:16Z</time>
      </trkpt>
      <trkpt lat="45.86553" lon="2.97905">
        <ele>849</ele>
        <time>2011-05-15T09:35:22Z</time>
      </trkpt>
      <trkpt lat="45.86572" lon="2.97918">
        <ele>847</ele>
        <time>2011-05-15T09:35:26Z</time>
      </trkpt>
      <trkpt lat="45.86578" lon="2.97926">
        <ele>846</ele>
        <time>2011-05-15T09:35:28Z</time>
      </trkpt>
      <trkpt lat="45.86618" lon="2.97934">
        <ele>845</ele>
        <time>2011-05-15T09:35:35Z</time>
      </trkpt>
      <trkpt lat="45.86632" lon="2.97943">
        <ele>844</ele>
        <time>2011-05-15T09:35:38Z</time>
      </trkpt>
      <trkpt lat="45.86658" lon="2.97956">
        <ele>843</ele>
        <time>2011-05-15T09:35:42Z</time>
      </trkpt>
      <trkpt lat="45.8668" lon="2.97975">
        <ele>841</ele>
        <time>2011-05-15T09:35:45Z</time>
      </trkpt>
      <trkpt lat="45.86708" lon="2.9799">
        <ele>840</ele>
        <time>2011-05-15T09:35:50Z</time>
      </trkpt>
      <trkpt lat="45.8674" lon="2.98002">
        <ele>839</ele>
        <time>2011-05-15T09:35:56Z</time>
      </trkpt>
      <trkpt lat="45.86762" lon="2.9802">
        <ele>837</ele>
        <time>2011-05-15T09:36:00Z</time>
      </trkpt>
      <trkpt lat="45.8678" lon="2.98039">
        <ele>837</ele>
        <time>2011-05-15T09:36:03Z</time>
      </trkpt>
      <trkpt lat="45.8681" lon="2.98108">
        <ele>836</ele>
        <time>2011-05-15T09:36:12Z</time>
      </trkpt>
      <trkpt lat="45.8682" lon="2.98164">
        <ele>835</ele>
        <time>2011-05-15T09:36:19Z</time>
      </trkpt>
      <trkpt lat="45.86828" lon="2.98215">
        <ele>834</ele>
        <time>2011-05-15T09:36:27Z</time>
      </trkpt>
      <trkpt lat="45.86842" lon="2.98243">
        <ele>836</ele>
        <time>2011-05-15T09:36:46Z</time>
      </trkpt>
      <trkpt lat="45.86852" lon="2.98266">
        <ele>836</ele>
        <time>2011-05-15T09:36:51Z</time>
      </trkpt>
      <trkpt lat="45.86888" lon="2.98303">
        <ele>836</ele>
        <time>2011-05-15T09:36:56Z</time>
      </trkpt>
      <trkpt lat="45.86914" lon="2.98335">
        <ele>838</ele>
        <time>2011-05-15T09:37:01Z</time>
      </trkpt>
      <trkpt lat="45.86948" lon="2.9834">
        <ele>837</ele>
        <time>2011-05-15T09:37:08Z</time>
      </trkpt>
      <trkpt lat="45.86961" lon="2.98341">
        <ele>837</ele>
        <time>2011-05-15T09:37:10Z</time>
      </trkpt>
      <trkpt lat="45.86979" lon="2.98346">
        <ele>837</ele>
        <time>2011-05-15T09:37:13Z</time>
      </trkpt>
      <trkpt lat="45.86993" lon="2.98351">
        <ele>836</ele>
        <time>2011-05-15T09:37:16Z</time>
      </trkpt>
      <trkpt lat="45.87017" lon="2.9837">
        <ele>836</ele>
        <time>2011-05-15T09:37:20Z</time>
      </trkpt>
      <trkpt lat="45.87043" lon="2.98392">
        <ele>835</ele>
        <time>2011-05-15T09:37:24Z</time>
      </trkpt>
      <trkpt lat="45.87069" lon="2.98409">
        <ele>834</ele>
        <time>2011-05-15T09:37:28Z</time>
      </trkpt>
      <trkpt lat="45.871" lon="2.98431">
        <ele>831</ele>
        <time>2011-05-15T09:37:33Z</time>
      </trkpt>
      <trkpt lat="45.87136" lon="2.98447">
        <ele>827</ele>
        <time>2011-05-15T09:37:37Z</time>
      </trkpt>
      <trkpt lat="45.87145" lon="2.9845">
        <ele>827</ele>
        <time>2011-05-15T09:37:38Z</time>
      </trkpt>
      <trkpt lat="45.87159" lon="2.98455">
        <ele>826</ele>
        <time>2011-05-15T09:37:40Z</time>
      </trkpt>
      <trkpt lat="45.87166" lon="2.98459">
        <ele>826</ele>
        <time>2011-05-15T09:37:41Z</time>
      </trkpt>
      <trkpt lat="45.87188" lon="2.98475">
        <ele>825</ele>
        <time>2011-05-15T09:37:44Z</time>
      </trkpt>
      <trkpt lat="45.87236" lon="2.98492">
        <ele>824</ele>
        <time>2011-05-15T09:37:51Z</time>
      </trkpt>
      <trkpt lat="45.8724" lon="2.98495">
        <ele>823</ele>
        <time>2011-05-15T09:37:52Z</time>
      </trkpt>
      <trkpt lat="45.87272" lon="2.98528">
        <ele>820</ele>
        <time>2011-05-15T09:37:59Z</time>
      </trkpt>
      <trkpt lat="45.87312" lon="2.98558">
        <ele>820</ele>
        <time>2011-05-15T09:38:06Z</time>
      </trkpt>
      <trkpt lat="45.87328" lon="2.98566">
        <ele>820</ele>
        <time>2011-05-15T09:38:28Z</time>
      </trkpt>
      <trkpt lat="45.8734" lon="2.98573">
        <ele>818</ele>
        <time>2011-05-15T09:38:32Z</time>
      </trkpt>
      <trkpt lat="45.87375" lon="2.98582">
        <ele>816</ele>
        <time>2011-05-15T09:38:37Z</time>
      </trkpt>
      <trkpt lat="45.87388" lon="2.98581">
        <ele>814</ele>
        <time>2011-05-15T09:38:39Z</time>
      </trkpt>
      <trkpt lat="45.87407" lon="2.9858">
        <ele>812</ele>
        <time>2011-05-15T09:38:41Z</time>
      </trkpt>
      <trkpt lat="45.87459" lon="2.9859">
        <ele>808</ele>
        <time>2011-05-15T09:38:46Z</time>
      </trkpt>
      <trkpt lat="45.87466" lon="2.986">
        <ele>807</ele>
        <time>2011-05-15T09:38:47Z</time>
      </trkpt>
      <trkpt lat="45.87493" lon="2.98652">
        <ele>805</ele>
        <time>2011-05-15T09:38:52Z</time>
      </trkpt>
      <trkpt lat="45.87501" lon="2.98671">
        <ele>804</ele>
        <time>2011-05-15T09:38:54Z</time>
      </trkpt>
      <trkpt lat="45.87523" lon="2.98709">
        <ele>801</ele>
        <time>2011-05-15T09:38:57Z</time>
      </trkpt>
      <trkpt lat="45.87552" lon="2.98744">
        <ele>801</ele>
        <time>2011-05-15T09:39:02Z</time>
      </trkpt>
      <trkpt lat="45.87598" lon="2.98813">
        <ele>800</ele>
        <time>2011-05-15T09:39:12Z</time>
      </trkpt>
      <trkpt lat="45.87634" lon="2.98884">
        <ele>798</ele>
        <time>2011-05-15T09:39:22Z</time>
      </trkpt>
      <trkpt lat="45.87646" lon="2.9891">
        <ele>798</ele>
        <time>2011-05-15T09:39:26Z</time>
      </trkpt>
      <trkpt lat="45.87696" lon="2.98993">
        <ele>797</ele>
        <time>2011-05-15T09:39:40Z</time>
      </trkpt>
      <trkpt lat="45.87712" lon="2.99032">
        <ele>796</ele>
        <time>2011-05-15T09:39:46Z</time>
      </trkpt>
      <trkpt lat="45.87741" lon="2.99105">
        <ele>796</ele>
        <time>2011-05-15T09:39:56Z</time>
      </trkpt>
      <trkpt lat="45.87748" lon="2.99119">
        <ele>796</ele>
        <time>2011-05-15T09:39:58Z</time>
      </trkpt>
      <trkpt lat="45.87798" lon="2.9921">
        <ele>796</ele>
        <time>2011-05-15T09:40:11Z</time>
      </trkpt>
      <trkpt lat="45.87846" lon="2.99295">
        <ele>796</ele>
        <time>2011-05-15T09:40:24Z</time>
      </trkpt>
      <trkpt lat="45.87889" lon="2.99355">
        <ele>795</ele>
        <time>2011-05-15T09:40:34Z</time>
      </trkpt>
      <trkpt lat="45.87899" lon="2.99365">
        <ele>795</ele>
        <time>2011-05-15T09:40:36Z</time>
      </trkpt>
      <trkpt lat="45.87926" lon="2.99386">
        <ele>795</ele>
        <time>2011-05-15T09:40:43Z</time>
      </trkpt>
      <trkpt lat="45.87951" lon="2.99382">
        <ele>795</ele>
        <time>2011-05-15T09:40:49Z</time>
      </trkpt>
      <trkpt lat="45.87965" lon="2.9938">
        <ele>796</ele>
        <time>2011-05-15T09:40:52Z</time>
      </trkpt>
      <trkpt lat="45.87993" lon="2.99379">
        <ele>793</ele>
        <time>2011-05-15T09:40:57Z</time>
      </trkpt>
      <trkpt lat="45.88007" lon="2.99381">
        <ele>792</ele>
        <time>2011-05-15T09:40:59Z</time>
      </trkpt>
      <trkpt lat="45.88066" lon="2.99415">
        <ele>788</ele>
        <time>2011-05-15T09:41:07Z</time>
      </trkpt>
      <trkpt lat="45.88081" lon="2.99425">
        <ele>788</ele>
        <time>2011-05-15T09:41:09Z</time>
      </trkpt>
      <trkpt lat="45.88107" lon="2.99427">
        <ele>788</ele>
        <time>2011-05-15T09:41:14Z</time>
      </trkpt>
      <trkpt lat="45.88117" lon="2.99379">
        <ele>790</ele>
        <time>2011-05-15T09:41:21Z</time>
      </trkpt>
      <trkpt lat="45.88129" lon="2.9933">
        <ele>790</ele>
        <time>2011-05-15T09:41:27Z</time>
      </trkpt>
      <trkpt lat="45.88143" lon="2.99288">
        <ele>790</ele>
        <time>2011-05-15T09:41:36Z</time>
      </trkpt>
      <trkpt lat="45.88162" lon="2.99268">
        <ele>790</ele>
        <time>2011-05-15T09:41:42Z</time>
      </trkpt>
      <trkpt lat="45.88189" lon="2.99238">
        <ele>793</ele>
        <time>2011-05-15T09:41:49Z</time>
      </trkpt>
      <trkpt lat="45.88209" lon="2.99197">
        <ele>794</ele>
        <time>2011-05-15T09:41:57Z</time>
      </trkpt>
      <trkpt lat="45.88227" lon="2.9917">
        <ele>794</ele>
        <time>2011-05-15T09:42:07Z</time>
      </trkpt>
      <trkpt lat="45.88239" lon="2.99162">
        <ele>793</ele>
        <time>2011-05-15T09:42:11Z</time>
      </trkpt>
      <trkpt lat="45.88264" lon="2.99151">
        <ele>791</ele>
        <time>2011-05-15T09:42:14Z</time>
      </trkpt>
      <trkpt lat="45.88294" lon="2.99164">
        <ele>791</ele>
        <time>2011-05-15T09:42:18Z</time>
      </trkpt>
      <trkpt lat="45.88299" lon="2.99168">
        <ele>791</ele>
        <time>2011-05-15T09:42:19Z</time>
      </trkpt>
      <trkpt lat="45.88309" lon="2.99175">
        <ele>791</ele>
        <time>2011-05-15T09:42:21Z</time>
      </trkpt>
      <trkpt lat="45.88324" lon="2.9919">
        <ele>792</ele>
        <time>2011-05-15T09:42:25Z</time>
      </trkpt>
      <trkpt lat="45.88344" lon="2.99222">
        <ele>794</ele>
        <time>2011-05-15T09:42:34Z</time>
      </trkpt>
      <trkpt lat="45.88361" lon="2.99247">
        <ele>796</ele>
        <time>2011-05-15T09:42:43Z</time>
      </trkpt>
      <trkpt lat="45.8838" lon="2.99282">
        <ele>799</ele>
        <time>2011-05-15T09:42:55Z</time>
      </trkpt>
      <trkpt lat="45.88392" lon="2.99309">
        <ele>801</ele>
        <time>2011-05-15T09:43:04Z</time>
      </trkpt>
      <trkpt lat="45.884" lon="2.99342">
        <ele>804</ele>
        <time>2011-05-15T09:43:14Z</time>
      </trkpt>
      <trkpt lat="45.88402" lon="2.99363">
        <ele>806</ele>
        <time>2011-05-15T09:43:20Z</time>
      </trkpt>
      <trkpt lat="45.88405" lon="2.99391">
        <ele>808</ele>
        <time>2011-05-15T09:43:28Z</time>
      </trkpt>
      <trkpt lat="45.8842" lon="2.99434">
        <ele>810</ele>
        <time>2011-05-15T09:43:41Z</time>
      </trkpt>
      <trkpt lat="45.88431" lon="2.99451">
        <ele>813</ele>
        <time>2011-05-15T09:43:49Z</time>
      </trkpt>
      <trkpt lat="45.88443" lon="2.99471">
        <ele>814</ele>
        <time>2011-05-15T09:43:58Z</time>
      </trkpt>
      <trkpt lat="45.88463" lon="2.995">
        <ele>815</ele>
        <time>2011-05-15T09:44:09Z</time>
      </trkpt>
      <trkpt lat="45.88485" lon="2.99532">
        <ele>817</ele>
        <time>2011-05-15T09:44:21Z</time>
      </trkpt>
      <trkpt lat="45.88508" lon="2.99562">
        <ele>820</ele>
        <time>2011-05-15T09:44:33Z</time>
      </trkpt>
      <trkpt lat="45.88524" lon="2.99595">
        <ele>822</ele>
        <time>2011-05-15T09:44:44Z</time>
      </trkpt>
      <trkpt lat="45.88541" lon="2.99631">
        <ele>824</ele>
        <time>2011-05-15T09:44:55Z</time>
      </trkpt>
      <trkpt lat="45.88564" lon="2.99678">
        <ele>825</ele>
        <time>2011-05-15T09:45:08Z</time>
      </trkpt>
      <trkpt lat="45.88577" lon="2.99718">
        <ele>824</ele>
        <time>2011-05-15T09:45:16Z</time>
      </trkpt>
      <trkpt lat="45.88571" lon="2.99733">
        <ele>824</ele>
        <time>2011-05-15T09:45:21Z</time>
      </trkpt>
      <trkpt lat="45.88541" lon="2.99763">
        <ele>825</ele>
        <time>2011-05-15T09:45:31Z</time>
      </trkpt>
      <trkpt lat="45.88509" lon="2.99795">
        <ele>824</ele>
        <time>2011-05-15T09:45:39Z</time>
      </trkpt>
      <trkpt lat="45.8849" lon="2.99819">
        <ele>822</ele>
        <time>2011-05-15T09:45:43Z</time>
      </trkpt>
      <trkpt lat="45.8848" lon="2.99857">
        <ele>816</ele>
        <time>2011-05-15T09:45:47Z</time>
      </trkpt>
      <trkpt lat="45.88474" lon="2.99903">
        <ele>811</ele>
        <time>2011-05-15T09:45:51Z</time>
      </trkpt>
      <trkpt lat="45.88459" lon="2.99937">
        <ele>805</ele>
        <time>2011-05-15T09:45:54Z</time>
      </trkpt>
      <trkpt lat="45.88452" lon="2.99949">
        <ele>805</ele>
        <time>2011-05-15T09:45:55Z</time>
      </trkpt>
      <trkpt lat="45.8843" lon="2.99989">
        <ele>800</ele>
        <time>2011-05-15T09:45:58Z</time>
      </trkpt>
      <trkpt lat="45.88417" lon="3.00013">
        <ele>799</ele>
        <time>2011-05-15T09:46:00Z</time>
      </trkpt>
      <trkpt lat="45.88373" lon="3.00087">
        <ele>800</ele>
        <time>2011-05-15T09:46:08Z</time>
      </trkpt>
      <trkpt lat="45.88369" lon="3.00094">
        <ele>800</ele>
        <time>2011-05-15T09:46:09Z</time>
      </trkpt>
      <trkpt lat="45.88347" lon="3.00139">
        <ele>799</ele>
        <time>2011-05-15T09:46:16Z</time>
      </trkpt>
      <trkpt lat="45.88309" lon="3.00212">
        <ele>797</ele>
        <time>2011-05-15T09:46:25Z</time>
      </trkpt>
      <trkpt lat="45.88276" lon="3.00307">
        <ele>793</ele>
        <time>2011-05-15T09:46:35Z</time>
      </trkpt>
      <trkpt lat="45.88254" lon="3.00362">
        <ele>791</ele>
        <time>2011-05-15T09:46:40Z</time>
      </trkpt>
      <trkpt lat="45.88239" lon="3.00388">
        <ele>789</ele>
        <time>2011-05-15T09:46:43Z</time>
      </trkpt>
      <trkpt lat="45.88223" lon="3.00399">
        <ele>788</ele>
        <time>2011-05-15T09:46:46Z</time>
      </trkpt>
      <trkpt lat="45.88214" lon="3.00389">
        <ele>788</ele>
        <time>2011-05-15T09:46:48Z</time>
      </trkpt>
      <trkpt lat="45.88195" lon="3.0039">
        <ele>788</ele>
        <time>2011-05-15T09:46:54Z</time>
      </trkpt>
      <trkpt lat="45.88195" lon="3.00398">
        <ele>787</ele>
        <time>2011-05-15T09:46:55Z</time>
      </trkpt>
      <trkpt lat="45.88196" lon="3.00493">
        <ele>786</ele>
        <time>2011-05-15T09:47:05Z</time>
      </trkpt>
      <trkpt lat="45.88185" lon="3.0059">
        <ele>783</ele>
        <time>2011-05-15T09:47:14Z</time>
      </trkpt>
      <trkpt lat="45.8818" lon="3.00677">
        <ele>780</ele>
        <time>2011-05-15T09:47:22Z</time>
      </trkpt>
      <trkpt lat="45.88175" lon="3.00711">
        <ele>779</ele>
        <time>2011-05-15T09:47:25Z</time>
      </trkpt>
      <trkpt lat="45.88162" lon="3.00753">
        <ele>778</ele>
        <time>2011-05-15T09:47:29Z</time>
      </trkpt>
      <trkpt lat="45.88128" lon="3.00832">
        <ele>774</ele>
        <time>2011-05-15T09:47:37Z</time>
      </trkpt>
      <trkpt lat="45.88111" lon="3.00867">
        <ele>771</ele>
        <time>2011-05-15T09:47:40Z</time>
      </trkpt>
      <trkpt lat="45.88105" lon="3.00879">
        <ele>770</ele>
        <time>2011-05-15T09:47:41Z</time>
      </trkpt>
      <trkpt lat="45.88084" lon="3.0092">
        <ele>765</ele>
        <time>2011-05-15T09:47:44Z</time>
      </trkpt>
      <trkpt lat="45.88063" lon="3.00962">
        <ele>762</ele>
        <time>2011-05-15T09:47:47Z</time>
      </trkpt>
      <trkpt lat="45.88056" lon="3.00977">
        <ele>762</ele>
        <time>2011-05-15T09:47:48Z</time>
      </trkpt>
      <trkpt lat="45.88029" lon="3.01034">
        <ele>758</ele>
        <time>2011-05-15T09:47:52Z</time>
      </trkpt>
      <trkpt lat="45.88015" lon="3.01064">
        <ele>757</ele>
        <time>2011-05-15T09:47:54Z</time>
      </trkpt>
      <trkpt lat="45.88001" lon="3.01095">
        <ele>753</ele>
        <time>2011-05-15T09:47:56Z</time>
      </trkpt>
      <trkpt lat="45.87983" lon="3.01147">
        <ele>750</ele>
        <time>2011-05-15T09:47:59Z</time>
      </trkpt>
      <trkpt lat="45.87974" lon="3.01182">
        <ele>746</ele>
        <time>2011-05-15T09:48:01Z</time>
      </trkpt>
      <trkpt lat="45.87967" lon="3.01218">
        <ele>743</ele>
        <time>2011-05-15T09:48:03Z</time>
      </trkpt>
      <trkpt lat="45.87963" lon="3.01235">
        <ele>739</ele>
        <time>2011-05-15T09:48:04Z</time>
      </trkpt>
      <trkpt lat="45.87953" lon="3.01271">
        <ele>735</ele>
        <time>2011-05-15T09:48:07Z</time>
      </trkpt>
      <trkpt lat="45.8795" lon="3.0128">
        <ele>735</ele>
        <time>2011-05-15T09:48:08Z</time>
      </trkpt>
      <trkpt lat="45.8796" lon="3.01302">
        <ele>736</ele>
        <time>2011-05-15T09:48:15Z</time>
      </trkpt>
      <trkpt lat="45.87967" lon="3.01312">
        <ele>737</ele>
        <time>2011-05-15T09:48:20Z</time>
      </trkpt>
      <trkpt lat="45.87979" lon="3.01339">
        <ele>737</ele>
        <time>2011-05-15T09:48:30Z</time>
      </trkpt>
      <trkpt lat="45.87993" lon="3.01366">
        <ele>737</ele>
        <time>2011-05-15T09:48:38Z</time>
      </trkpt>
      <trkpt lat="45.88006" lon="3.01401">
        <ele>736</ele>
        <time>2011-05-15T09:48:47Z</time>
      </trkpt>
      <trkpt lat="45.88023" lon="3.01419">
        <ele>734</ele>
        <time>2011-05-15T09:48:54Z</time>
      </trkpt>
      <trkpt lat="45.88041" lon="3.01425">
        <ele>733</ele>
        <time>2011-05-15T09:49:01Z</time>
      </trkpt>
      <trkpt lat="45.88043" lon="3.01427">
        <ele>732</ele>
        <time>2011-05-15T09:49:02Z</time>
      </trkpt>
      <trkpt lat="45.88058" lon="3.01446">
        <ele>728</ele>
        <time>2011-05-15T09:49:09Z</time>
      </trkpt>
      <trkpt lat="45.88063" lon="3.01455">
        <ele>725</ele>
        <time>2011-05-15T09:49:13Z</time>
      </trkpt>
      <trkpt lat="45.88063" lon="3.01458">
        <ele>724</ele>
        <time>2011-05-15T09:49:15Z</time>
      </trkpt>
      <trkpt lat="45.88058" lon="3.01466">
        <ele>721</ele>
        <time>2011-05-15T09:49:19Z</time>
      </trkpt>
      <trkpt lat="45.8806" lon="3.01475">
        <ele>717</ele>
        <time>2011-05-15T09:49:22Z</time>
      </trkpt>
      <trkpt lat="45.88055" lon="3.01494">
        <ele>711</ele>
        <time>2011-05-15T09:49:25Z</time>
      </trkpt>
      <trkpt lat="45.88047" lon="3.01506">
        <ele>705</ele>
        <time>2011-05-15T09:49:27Z</time>
      </trkpt>
      <trkpt lat="45.88044" lon="3.01511">
        <ele>707</ele>
        <time>2011-05-15T09:49:28Z</time>
      </trkpt>
      <trkpt lat="45.88036" lon="3.01521">
        <ele>705</ele>
        <time>2011-05-15T09:49:30Z</time>
      </trkpt>
      <trkpt lat="45.88028" lon="3.01541">
        <ele>704</ele>
        <time>2011-05-15T09:49:33Z</time>
      </trkpt>
      <trkpt lat="45.88021" lon="3.01556">
        <ele>703</ele>
        <time>2011-05-15T09:49:35Z</time>
      </trkpt>
      <trkpt lat="45.88013" lon="3.01569">
        <ele>701</ele>
        <time>2011-05-15T09:49:37Z</time>
      </trkpt>
      <trkpt lat="45.88005" lon="3.01582">
        <ele>701</ele>
        <time>2011-05-15T09:49:39Z</time>
      </trkpt>
      <trkpt lat="45.87983" lon="3.0162">
        <ele>698</ele>
        <time>2011-05-15T09:49:46Z</time>
      </trkpt>
      <trkpt lat="45.87973" lon="3.01635">
        <ele>695</ele>
        <time>2011-05-15T09:50:24Z</time>
      </trkpt>
      <trkpt lat="45.87966" lon="3.0165">
        <ele>694</ele>
        <time>2011-05-15T09:50:27Z</time>
      </trkpt>
      <trkpt lat="45.8796" lon="3.0166">
        <ele>693</ele>
        <time>2011-05-15T09:50:29Z</time>
      </trkpt>
      <trkpt lat="45.87943" lon="3.01677">
        <ele>692</ele>
        <time>2011-05-15T09:50:35Z</time>
      </trkpt>
      <trkpt lat="45.87936" lon="3.01687">
        <ele>690</ele>
        <time>2011-05-15T09:50:38Z</time>
      </trkpt>
      <trkpt lat="45.87941" lon="3.01699">
        <ele>687</ele>
        <time>2011-05-15T09:50:42Z</time>
      </trkpt>
      <trkpt lat="45.87946" lon="3.01705">
        <ele>684</ele>
        <time>2011-05-15T09:50:44Z</time>
      </trkpt>
      <trkpt lat="45.87951" lon="3.01711">
        <ele>681</ele>
        <time>2011-05-15T09:50:46Z</time>
      </trkpt>
      <trkpt lat="45.87955" lon="3.01716">
        <ele>676</ele>
        <time>2011-05-15T09:50:50Z</time>
      </trkpt>
      <trkpt lat="45.8795" lon="3.01728">
        <ele>673</ele>
        <time>2011-05-15T09:50:54Z</time>
      </trkpt>
      <trkpt lat="45.8795" lon="3.01733">
        <ele>670</ele>
        <time>2011-05-15T09:51:21Z</time>
      </trkpt>
      <trkpt lat="45.87949" lon="3.01737">
        <ele>670</ele>
        <time>2011-05-15T09:51:39Z</time>
      </trkpt>
      <trkpt lat="45.87952" lon="3.01734">
        <ele>667</ele>
        <time>2011-05-15T09:54:42Z</time>
      </trkpt>
      <trkpt lat="45.87951" lon="3.01737">
        <ele>666</ele>
        <time>2011-05-15T09:54:44Z</time>
      </trkpt>
      <trkpt lat="45.87947" lon="3.01751">
        <ele>664</ele>
        <time>2011-05-15T09:54:55Z</time>
      </trkpt>
      <trkpt lat="45.87946" lon="3.01762">
        <ele>662</ele>
        <time>2011-05-15T09:54:59Z</time>
      </trkpt>
      <trkpt lat="45.87942" lon="3.01776">
        <ele>658</ele>
        <time>2011-05-15T09:55:03Z</time>
      </trkpt>
      <trkpt lat="45.87941" lon="3.01779">
        <ele>657</ele>
        <time>2011-05-15T09:55:04Z</time>
      </trkpt>
      <trkpt lat="45.87945" lon="3.01796">
        <ele>653</ele>
        <time>2011-05-15T09:55:07Z</time>
      </trkpt>
      <trkpt lat="45.87939" lon="3.01818">
        <ele>650</ele>
        <time>2011-05-15T09:55:10Z</time>
      </trkpt>
      <trkpt lat="45.87938" lon="3.01851">
        <ele>642</ele>
        <time>2011-05-15T09:55:14Z</time>
      </trkpt>
      <trkpt lat="45.87938" lon="3.01874">
        <ele>639</ele>
        <time>2011-05-15T09:55:16Z</time>
      </trkpt>
      <trkpt lat="45.87935" lon="3.01888">
        <ele>637</ele>
        <time>2011-05-15T09:55:18Z</time>
      </trkpt>
      <trkpt lat="45.87921" lon="3.01927">
        <ele>635</ele>
        <time>2011-05-15T09:55:25Z</time>
      </trkpt>
      <trkpt lat="45.87903" lon="3.01963">
        <ele>633</ele>
        <time>2011-05-15T09:55:31Z</time>
      </trkpt>
      <trkpt lat="45.8789" lon="3.01987">
        <ele>632</ele>
        <time>2011-05-15T09:55:42Z</time>
      </trkpt>
      <trkpt lat="45.87876" lon="3.02001">
        <ele>632</ele>
        <time>2011-05-15T09:55:47Z</time>
      </trkpt>
      <trkpt lat="45.87828" lon="3.02029">
        <ele>632</ele>
        <time>2011-05-15T09:55:55Z</time>
      </trkpt>
      <trkpt lat="45.87812" lon="3.02035">
        <ele>631</ele>
        <time>2011-05-15T09:55:58Z</time>
      </trkpt>
      <trkpt lat="45.87801" lon="3.02037">
        <ele>631</ele>
        <time>2011-05-15T09:56:00Z</time>
      </trkpt>
      <trkpt lat="45.87766" lon="3.02024">
        <ele>632</ele>
        <time>2011-05-15T09:56:08Z</time>
      </trkpt>
      <trkpt lat="45.87764" lon="3.02028">
        <ele>632</ele>
        <time>2011-05-15T09:56:12Z</time>
      </trkpt>
      <trkpt lat="45.87771" lon="3.02047">
        <ele>631</ele>
        <time>2011-05-15T09:56:17Z</time>
      </trkpt>
      <trkpt lat="45.87775" lon="3.02064">
        <ele>631</ele>
        <time>2011-05-15T09:56:20Z</time>
      </trkpt>
      <trkpt lat="45.87777" lon="3.02075">
        <ele>630</ele>
        <time>2011-05-15T09:56:22Z</time>
      </trkpt>
      <trkpt lat="45.87779" lon="3.02087">
        <ele>630</ele>
        <time>2011-05-15T09:56:24Z</time>
      </trkpt>
      <trkpt lat="45.87779" lon="3.021">
        <ele>629</ele>
        <time>2011-05-15T09:56:26Z</time>
      </trkpt>
      <trkpt lat="45.87779" lon="3.02122">
        <ele>629</ele>
        <time>2011-05-15T09:56:29Z</time>
      </trkpt>
      <trkpt lat="45.87776" lon="3.02138">
        <ele>629</ele>
        <time>2011-05-15T09:56:31Z</time>
      </trkpt>
      <trkpt lat="45.87765" lon="3.02167">
        <ele>627</ele>
        <time>2011-05-15T09:56:35Z</time>
      </trkpt>
      <trkpt lat="45.87742" lon="3.022">
        <ele>626</ele>
        <time>2011-05-15T09:56:41Z</time>
      </trkpt>
      <trkpt lat="45.87721" lon="3.02217">
        <ele>625</ele>
        <time>2011-05-15T09:56:45Z</time>
      </trkpt>
      <trkpt lat="45.87683" lon="3.02229">
        <ele>624</ele>
        <time>2011-05-15T09:56:51Z</time>
      </trkpt>
      <trkpt lat="45.87664" lon="3.02245">
        <ele>624</ele>
        <time>2011-05-15T09:56:55Z</time>
      </trkpt>
      <trkpt lat="45.87654" lon="3.02251">
        <ele>624</ele>
        <time>2011-05-15T09:56:57Z</time>
      </trkpt>
      <trkpt lat="45.87635" lon="3.02274">
        <ele>623</ele>
        <time>2011-05-15T09:57:02Z</time>
      </trkpt>
      <trkpt lat="45.87628" lon="3.02272">
        <ele>623</ele>
        <time>2011-05-15T09:57:07Z</time>
      </trkpt>
      <trkpt lat="45.87627" lon="3.02244">
        <ele>623</ele>
        <time>2011-05-15T09:57:12Z</time>
      </trkpt>
      <trkpt lat="45.87625" lon="3.0223">
        <ele>622</ele>
        <time>2011-05-15T09:57:15Z</time>
      </trkpt>
      <trkpt lat="45.8761" lon="3.02216">
        <ele>622</ele>
        <time>2011-05-15T09:57:21Z</time>
      </trkpt>
      <trkpt lat="45.87567" lon="3.02182">
        <ele>623</ele>
        <time>2011-05-15T09:57:35Z</time>
      </trkpt>
      <trkpt lat="45.87557" lon="3.02188">
        <ele>622</ele>
        <time>2011-05-15T09:57:38Z</time>
      </trkpt>
      <trkpt lat="45.87547" lon="3.02195">
        <ele>622</ele>
        <time>2011-05-15T09:57:40Z</time>
      </trkpt>
      <trkpt lat="45.87508" lon="3.02217">
        <ele>623</ele>
        <time>2011-05-15T09:57:49Z</time>
      </trkpt>
      <trkpt lat="45.87502" lon="3.0223">
        <ele>623</ele>
        <time>2011-05-15T09:57:51Z</time>
      </trkpt>
      <trkpt lat="45.87496" lon="3.02242">
        <ele>623</ele>
        <time>2011-05-15T09:57:53Z</time>
      </trkpt>
      <trkpt lat="45.87487" lon="3.02273">
        <ele>623</ele>
        <time>2011-05-15T09:57:57Z</time>
      </trkpt>
      <trkpt lat="45.87468" lon="3.02316">
        <ele>622</ele>
        <time>2011-05-15T09:58:03Z</time>
      </trkpt>
      <trkpt lat="45.87443" lon="3.02336">
        <ele>622</ele>
        <time>2011-05-15T09:58:08Z</time>
      </trkpt>
      <trkpt lat="45.87424" lon="3.02305">
        <ele>623</ele>
        <time>2011-05-15T09:58:16Z</time>
      </trkpt>
      <trkpt lat="45.87417" lon="3.02289">
        <ele>624</ele>
        <time>2011-05-15T09:58:19Z</time>
      </trkpt>
      <trkpt lat="45.87401" lon="3.02266">
        <ele>625</ele>
        <time>2011-05-15T09:58:24Z</time>
      </trkpt>
      <trkpt lat="45.87372" lon="3.02282">
        <ele>626</ele>
        <time>2011-05-15T09:58:30Z</time>
      </trkpt>
      <trkpt lat="45.87359" lon="3.02306">
        <ele>626</ele>
        <time>2011-05-15T09:58:35Z</time>
      </trkpt>
      <trkpt lat="45.87372" lon="3.02345">
        <ele>625</ele>
        <time>2011-05-15T09:58:41Z</time>
      </trkpt>
      <trkpt lat="45.87372" lon="3.02353">
        <ele>625</ele>
        <time>2011-05-15T09:58:42Z</time>
      </trkpt>
      <trkpt lat="45.87357" lon="3.02424">
        <ele>622</ele>
        <time>2011-05-15T09:58:49Z</time>
      </trkpt>
      <trkpt lat="45.87355" lon="3.02435">
        <ele>622</ele>
        <time>2011-05-15T09:58:50Z</time>
      </trkpt>
      <trkpt lat="45.8735" lon="3.02456">
        <ele>621</ele>
        <time>2011-05-15T09:58:52Z</time>
      </trkpt>
      <trkpt lat="45.87357" lon="3.02498">
        <ele>620</ele>
        <time>2011-05-15T09:58:56Z</time>
      </trkpt>
      <trkpt lat="45.87348" lon="3.02532">
        <ele>618</ele>
        <time>2011-05-15T09:59:00Z</time>
      </trkpt>
      <trkpt lat="45.87332" lon="3.02538">
        <ele>617</ele>
        <time>2011-05-15T09:59:03Z</time>
      </trkpt>
      <trkpt lat="45.87297" lon="3.02538">
        <ele>612</ele>
        <time>2011-05-15T09:59:08Z</time>
      </trkpt>
      <trkpt lat="45.87268" lon="3.02524">
        <ele>612</ele>
        <time>2011-05-15T09:59:15Z</time>
      </trkpt>
      <trkpt lat="45.87248" lon="3.02527">
        <ele>612</ele>
        <time>2011-05-15T09:59:18Z</time>
      </trkpt>
      <trkpt lat="45.87196" lon="3.02541">
        <ele>611</ele>
        <time>2011-05-15T09:59:27Z</time>
      </trkpt>
      <trkpt lat="45.87189" lon="3.02552">
        <ele>610</ele>
        <time>2011-05-15T09:59:29Z</time>
      </trkpt>
      <trkpt lat="45.87182" lon="3.02563">
        <ele>610</ele>
        <time>2011-05-15T09:59:31Z</time>
      </trkpt>
      <trkpt lat="45.87163" lon="3.02603">
        <ele>606</ele>
        <time>2011-05-15T09:59:36Z</time>
      </trkpt>
      <trkpt lat="45.87151" lon="3.02636">
        <ele>603</ele>
        <time>2011-05-15T09:59:39Z</time>
      </trkpt>
      <trkpt lat="45.8713" lon="3.02683">
        <ele>601</ele>
        <time>2011-05-15T09:59:43Z</time>
      </trkpt>
      <trkpt lat="45.87121" lon="3.02738">
        <ele>597</ele>
        <time>2011-05-15T09:59:48Z</time>
      </trkpt>
      <trkpt lat="45.87121" lon="3.02748">
        <ele>596</ele>
        <time>2011-05-15T09:59:49Z</time>
      </trkpt>
      <trkpt lat="45.87129" lon="3.02768">
        <ele>595</ele>
        <time>2011-05-15T09:59:55Z</time>
      </trkpt>
      <trkpt lat="45.87126" lon="3.02774">
        <ele>594</ele>
        <time>2011-05-15T09:59:57Z</time>
      </trkpt>
      <trkpt lat="45.87119" lon="3.02786">
        <ele>594</ele>
        <time>2011-05-15T10:00:12Z</time>
      </trkpt>
      <trkpt lat="45.87127" lon="3.02787">
        <ele>594</ele>
        <time>2011-05-15T10:00:50Z</time>
      </trkpt>
    </trkseg>
  </trk>
</gpx>